<?xml version="1.0" encoding="UTF-8" standalone="no" ?>
<gpx xmlns="http://www.topografix.com/GPX/1/1" xmlns:xsi="http://www.w3.org/2001/XMLSchema-instance" xsi:schemaLocation="http://www.topografix.com/GPX/1/1 http://www.topografix.com/GPX/1/1/gpx.xsd" version="1.1" creator="VisuGPX - https://www.visugpx.com">
  <metadata>
    <name>Pré-Petitjean, St-Brais</name>
  </metadata>
  <trk>
    <name><![CDATA[Pré-Petitjean, St-Brais_1]]></name>
    <trkseg>
      <trkpt lat="47.27741" lon="7.05945">
        <ele>928.66</ele>
        <time>2020-11-07T10:00:00.000Z</time>
      </trkpt>
      <trkpt lat="47.27739" lon="7.05935">
        <ele>928.6</ele>
        <time>2020-11-07T10:00:02.392Z</time>
      </trkpt>
      <trkpt lat="47.27729" lon="7.05901">
        <ele>928.36</ele>
        <time>2020-11-07T10:00:10.774Z</time>
      </trkpt>
      <trkpt lat="47.27727" lon="7.05891">
        <ele>928.3</ele>
        <time>2020-11-07T10:00:13.166Z</time>
      </trkpt>
      <trkpt lat="47.27719" lon="7.05859">
        <ele>928.23</ele>
        <time>2020-11-07T10:00:32.848Z</time>
      </trkpt>
      <trkpt lat="47.27714" lon="7.05843">
        <ele>928.12</ele>
        <time>2020-11-07T10:00:36.851Z</time>
      </trkpt>
      <trkpt lat="47.27708" lon="7.05824">
        <ele>928.23</ele>
        <time>2020-11-07T10:00:50.472Z</time>
      </trkpt>
      <trkpt lat="47.27706" lon="7.05816">
        <ele>928.23</ele>
        <time>2020-11-07T10:00:55.621Z</time>
      </trkpt>
      <trkpt lat="47.27706" lon="7.05815">
        <ele>928.23</ele>
        <time>2020-11-07T10:00:56.225Z</time>
      </trkpt>
      <trkpt lat="47.277" lon="7.05797">
        <ele>928.23</ele>
        <time>2020-11-07T10:01:08.336Z</time>
      </trkpt>
      <trkpt lat="47.27695" lon="7.05783">
        <ele>928.23</ele>
        <time>2020-11-07T10:01:17.890Z</time>
      </trkpt>
      <trkpt lat="47.27691" lon="7.05773">
        <ele>928.23</ele>
        <time>2020-11-07T10:01:24.900Z</time>
      </trkpt>
      <trkpt lat="47.27687" lon="7.05765">
        <ele>928.23</ele>
        <time>2020-11-07T10:01:30.901Z</time>
      </trkpt>
      <trkpt lat="47.27682" lon="7.05758">
        <ele>928.34</ele>
        <time>2020-11-07T10:01:38.090Z</time>
      </trkpt>
      <trkpt lat="47.27682" lon="7.05757">
        <ele>928.45</ele>
        <time>2020-11-07T10:01:40.419Z</time>
      </trkpt>
      <trkpt lat="47.27682" lon="7.05756">
        <ele>928.45</ele>
        <time>2020-11-07T10:01:41.023Z</time>
      </trkpt>
      <trkpt lat="47.27679" lon="7.05749">
        <ele>928.56</ele>
        <time>2020-11-07T10:01:47.115Z</time>
      </trkpt>
      <trkpt lat="47.27674" lon="7.0574">
        <ele>928.77</ele>
        <time>2020-11-07T10:01:56.404Z</time>
      </trkpt>
      <trkpt lat="47.27681" lon="7.05739">
        <ele>929.02</ele>
        <time>2020-11-07T10:02:05.686Z</time>
      </trkpt>
      <trkpt lat="47.27687" lon="7.05737">
        <ele>929.99</ele>
        <time>2020-11-07T10:02:26.805Z</time>
      </trkpt>
      <trkpt lat="47.27699" lon="7.05731">
        <ele>931.64</ele>
        <time>2020-11-07T10:03:08.374Z</time>
      </trkpt>
      <trkpt lat="47.27704" lon="7.05728">
        <ele>932.32</ele>
        <time>2020-11-07T10:03:25.101Z</time>
      </trkpt>
      <trkpt lat="47.27704" lon="7.05728">
        <ele>932.32</ele>
        <time>2020-11-07T10:03:25.101Z</time>
      </trkpt>
      <trkpt lat="47.2771" lon="7.05724">
        <ele>933.01</ele>
        <time>2020-11-07T10:03:41.089Z</time>
      </trkpt>
      <trkpt lat="47.27721" lon="7.05718">
        <ele>934.27</ele>
        <time>2020-11-07T10:04:10.355Z</time>
      </trkpt>
      <trkpt lat="47.27725" lon="7.05714">
        <ele>934.76</ele>
        <time>2020-11-07T10:04:21.695Z</time>
      </trkpt>
      <trkpt lat="47.27729" lon="7.0571">
        <ele>935.28</ele>
        <time>2020-11-07T10:04:33.776Z</time>
      </trkpt>
      <trkpt lat="47.27732" lon="7.05706">
        <ele>935.55</ele>
        <time>2020-11-07T10:04:40.847Z</time>
      </trkpt>
      <trkpt lat="47.27754" lon="7.05667">
        <ele>937.31</ele>
        <time>2020-11-07T10:05:34.809Z</time>
      </trkpt>
      <trkpt lat="47.27754" lon="7.05667">
        <ele>939.08</ele>
        <time>2020-11-07T10:05:34.809Z</time>
      </trkpt>
      <trkpt lat="47.27768" lon="7.05641">
        <ele>940.61</ele>
        <time>2020-11-07T10:06:14.527Z</time>
      </trkpt>
      <trkpt lat="47.27785" lon="7.05612">
        <ele>942.69</ele>
        <time>2020-11-07T10:07:04.893Z</time>
      </trkpt>
      <trkpt lat="47.27803" lon="7.05584">
        <ele>945.05</ele>
        <time>2020-11-07T10:08:00.178Z</time>
      </trkpt>
      <trkpt lat="47.27826" lon="7.05552">
        <ele>947.67</ele>
        <time>2020-11-07T10:09:02.897Z</time>
      </trkpt>
      <trkpt lat="47.2786" lon="7.05506">
        <ele>952.64</ele>
        <time>2020-11-07T10:10:58.374Z</time>
      </trkpt>
      <trkpt lat="47.27872" lon="7.05491">
        <ele>954.54</ele>
        <time>2020-11-07T10:11:44.027Z</time>
      </trkpt>
      <trkpt lat="47.27884" lon="7.05477">
        <ele>955.99</ele>
        <time>2020-11-07T10:12:17.726Z</time>
      </trkpt>
      <trkpt lat="47.27901" lon="7.05456">
        <ele>958.07</ele>
        <time>2020-11-07T10:13:06.131Z</time>
      </trkpt>
      <trkpt lat="47.27945" lon="7.054">
        <ele>963.41</ele>
        <time>2020-11-07T10:15:10.798Z</time>
      </trkpt>
      <trkpt lat="47.27951" lon="7.05391">
        <ele>964.5</ele>
        <time>2020-11-07T10:15:37.805Z</time>
      </trkpt>
      <trkpt lat="47.27957" lon="7.0538">
        <ele>965.31</ele>
        <time>2020-11-07T10:15:57.076Z</time>
      </trkpt>
      <trkpt lat="47.27962" lon="7.05369">
        <ele>966.39</ele>
        <time>2020-11-07T10:16:22.973Z</time>
      </trkpt>
      <trkpt lat="47.27974" lon="7.05337">
        <ele>968.29</ele>
        <time>2020-11-07T10:17:09.726Z</time>
      </trkpt>
      <trkpt lat="47.2798" lon="7.05324">
        <ele>969.38</ele>
        <time>2020-11-07T10:17:34.954Z</time>
      </trkpt>
      <trkpt lat="47.27985" lon="7.05315">
        <ele>969.96</ele>
        <time>2020-11-07T10:17:49.471Z</time>
      </trkpt>
      <trkpt lat="47.27991" lon="7.05307">
        <ele>970.68</ele>
        <time>2020-11-07T10:18:06.384Z</time>
      </trkpt>
      <trkpt lat="47.27998" lon="7.05299">
        <ele>971.5</ele>
        <time>2020-11-07T10:18:25.503Z</time>
      </trkpt>
      <trkpt lat="47.28006" lon="7.0529">
        <ele>972.53</ele>
        <time>2020-11-07T10:18:49.343Z</time>
      </trkpt>
      <trkpt lat="47.28045" lon="7.05251">
        <ele>978.17</ele>
        <time>2020-11-07T10:21:04.302Z</time>
      </trkpt>
      <trkpt lat="47.28057" lon="7.05238">
        <ele>979.72</ele>
        <time>2020-11-07T10:21:40.200Z</time>
      </trkpt>
      <trkpt lat="47.28063" lon="7.05232">
        <ele>980.39</ele>
        <time>2020-11-07T10:21:55.826Z</time>
      </trkpt>
      <trkpt lat="47.28093" lon="7.05206">
        <ele>984.4</ele>
        <time>2020-11-07T10:23:30.413Z</time>
      </trkpt>
      <trkpt lat="47.28101" lon="7.05201">
        <ele>985.57</ele>
        <time>2020-11-07T10:24:00.246Z</time>
      </trkpt>
      <trkpt lat="47.2812" lon="7.05187">
        <ele>988.26</ele>
        <time>2020-11-07T10:25:06.650Z</time>
      </trkpt>
      <trkpt lat="47.28125" lon="7.05183">
        <ele>988.92</ele>
        <time>2020-11-07T10:25:22.253Z</time>
      </trkpt>
      <trkpt lat="47.28134" lon="7.05178">
        <ele>989.88</ele>
        <time>2020-11-07T10:25:44.475Z</time>
      </trkpt>
      <trkpt lat="47.28151" lon="7.05168">
        <ele>991.63</ele>
        <time>2020-11-07T10:26:25.103Z</time>
      </trkpt>
      <trkpt lat="47.28152" lon="7.05168">
        <ele>991.74</ele>
        <time>2020-11-07T10:26:27.668Z</time>
      </trkpt>
      <trkpt lat="47.28171" lon="7.05162">
        <ele>993.38</ele>
        <time>2020-11-07T10:27:06.710Z</time>
      </trkpt>
      <trkpt lat="47.2818" lon="7.05158">
        <ele>993.98</ele>
        <time>2020-11-07T10:27:22.797Z</time>
      </trkpt>
      <trkpt lat="47.28188" lon="7.05155">
        <ele>994.4</ele>
        <time>2020-11-07T10:27:35.719Z</time>
      </trkpt>
      <trkpt lat="47.282" lon="7.0515">
        <ele>994.95</ele>
        <time>2020-11-07T10:27:54.342Z</time>
      </trkpt>
      <trkpt lat="47.28203" lon="7.05147">
        <ele>995.07</ele>
        <time>2020-11-07T10:27:58.973Z</time>
      </trkpt>
      <trkpt lat="47.28206" lon="7.05143">
        <ele>995.19</ele>
        <time>2020-11-07T10:28:03.917Z</time>
      </trkpt>
      <trkpt lat="47.28208" lon="7.05139">
        <ele>995.31</ele>
        <time>2020-11-07T10:28:08.369Z</time>
      </trkpt>
      <trkpt lat="47.28209" lon="7.05133">
        <ele>995.3</ele>
        <time>2020-11-07T10:28:11.968Z</time>
      </trkpt>
      <trkpt lat="47.28224" lon="7.0514">
        <ele>995.19</ele>
        <time>2020-11-07T10:28:24.618Z</time>
      </trkpt>
      <trkpt lat="47.28227" lon="7.05134">
        <ele>995.33</ele>
        <time>2020-11-07T10:28:30.648Z</time>
      </trkpt>
      <trkpt lat="47.28243" lon="7.05107">
        <ele>998.37</ele>
        <time>2020-11-07T10:29:45.070Z</time>
      </trkpt>
      <trkpt lat="47.28251" lon="7.05094">
        <ele>999.83</ele>
        <time>2020-11-07T10:30:20.422Z</time>
      </trkpt>
      <trkpt lat="47.28256" lon="7.05086">
        <ele>1000.46</ele>
        <time>2020-11-07T10:30:35.372Z</time>
      </trkpt>
      <trkpt lat="47.2826" lon="7.05079">
        <ele>1000.96</ele>
        <time>2020-11-07T10:30:47.451Z</time>
      </trkpt>
      <trkpt lat="47.28263" lon="7.05077">
        <ele>1001.2</ele>
        <time>2020-11-07T10:30:53.480Z</time>
      </trkpt>
      <trkpt lat="47.28267" lon="7.05071">
        <ele>1001.18</ele>
        <time>2020-11-07T10:30:58.300Z</time>
      </trkpt>
      <trkpt lat="47.28278" lon="7.05085">
        <ele>1000.65</ele>
        <time>2020-11-07T10:31:01.863Z</time>
      </trkpt>
      <trkpt lat="47.28283" lon="7.05095">
        <ele>1000.29</ele>
        <time>2020-11-07T10:31:03.810Z</time>
      </trkpt>
      <trkpt lat="47.28291" lon="7.05108">
        <ele>999.58</ele>
        <time>2020-11-07T10:31:06.188Z</time>
      </trkpt>
      <trkpt lat="47.28298" lon="7.05123">
        <ele>998.68</ele>
        <time>2020-11-07T10:31:08.736Z</time>
      </trkpt>
      <trkpt lat="47.28303" lon="7.05134">
        <ele>997.88</ele>
        <time>2020-11-07T10:31:10.590Z</time>
      </trkpt>
      <trkpt lat="47.28306" lon="7.05142">
        <ele>997.61</ele>
        <time>2020-11-07T10:31:12.012Z</time>
      </trkpt>
      <trkpt lat="47.28308" lon="7.0515">
        <ele>997.16</ele>
        <time>2020-11-07T10:31:13.205Z</time>
      </trkpt>
      <trkpt lat="47.28317" lon="7.05142">
        <ele>997.29</ele>
        <time>2020-11-07T10:31:23.755Z</time>
      </trkpt>
      <trkpt lat="47.28321" lon="7.05138">
        <ele>996.87</ele>
        <time>2020-11-07T10:31:24.752Z</time>
      </trkpt>
      <trkpt lat="47.28324" lon="7.05131">
        <ele>996.14</ele>
        <time>2020-11-07T10:31:25.911Z</time>
      </trkpt>
      <trkpt lat="47.28327" lon="7.05122">
        <ele>995.3</ele>
        <time>2020-11-07T10:31:27.315Z</time>
      </trkpt>
      <trkpt lat="47.28329" lon="7.05113">
        <ele>994.67</ele>
        <time>2020-11-07T10:31:28.641Z</time>
      </trkpt>
      <trkpt lat="47.2833" lon="7.05103">
        <ele>993.73</ele>
        <time>2020-11-07T10:31:30.056Z</time>
      </trkpt>
      <trkpt lat="47.28329" lon="7.05088">
        <ele>992.59</ele>
        <time>2020-11-07T10:31:32.166Z</time>
      </trkpt>
      <trkpt lat="47.28326" lon="7.0507">
        <ele>991.44</ele>
        <time>2020-11-07T10:31:34.761Z</time>
      </trkpt>
      <trkpt lat="47.28323" lon="7.0505">
        <ele>990.4</ele>
        <time>2020-11-07T10:31:37.628Z</time>
      </trkpt>
      <trkpt lat="47.28321" lon="7.05033">
        <ele>989.46</ele>
        <time>2020-11-07T10:31:40.044Z</time>
      </trkpt>
      <trkpt lat="47.2832" lon="7.05019">
        <ele>988.83</ele>
        <time>2020-11-07T10:31:41.859Z</time>
      </trkpt>
      <trkpt lat="47.28319" lon="7.05006">
        <ele>988.1</ele>
        <time>2020-11-07T10:31:43.690Z</time>
      </trkpt>
      <trkpt lat="47.2832" lon="7.04994">
        <ele>987.05</ele>
        <time>2020-11-07T10:31:45.383Z</time>
      </trkpt>
      <trkpt lat="47.28321" lon="7.04985">
        <ele>986.33</ele>
        <time>2020-11-07T10:31:46.660Z</time>
      </trkpt>
      <trkpt lat="47.28323" lon="7.04978">
        <ele>985.7</ele>
        <time>2020-11-07T10:31:47.723Z</time>
      </trkpt>
      <trkpt lat="47.28327" lon="7.04974">
        <ele>984.76</ele>
        <time>2020-11-07T10:31:48.720Z</time>
      </trkpt>
      <trkpt lat="47.28332" lon="7.04972">
        <ele>983.92</ele>
        <time>2020-11-07T10:31:49.789Z</time>
      </trkpt>
      <trkpt lat="47.28337" lon="7.04973">
        <ele>982.98</ele>
        <time>2020-11-07T10:31:50.831Z</time>
      </trkpt>
      <trkpt lat="47.2835" lon="7.04977">
        <ele>981</ele>
        <time>2020-11-07T10:31:53.571Z</time>
      </trkpt>
      <trkpt lat="47.28361" lon="7.04981">
        <ele>979.22</ele>
        <time>2020-11-07T10:31:55.909Z</time>
      </trkpt>
      <trkpt lat="47.28372" lon="7.04983">
        <ele>977.66</ele>
        <time>2020-11-07T10:31:58.197Z</time>
      </trkpt>
      <trkpt lat="47.28385" lon="7.04985">
        <ele>975.67</ele>
        <time>2020-11-07T10:32:00.894Z</time>
      </trkpt>
      <trkpt lat="47.28397" lon="7.04984">
        <ele>973.8</ele>
        <time>2020-11-07T10:32:03.374Z</time>
      </trkpt>
      <trkpt lat="47.28417" lon="7.04981">
        <ele>970.87</ele>
        <time>2020-11-07T10:32:07.523Z</time>
      </trkpt>
      <trkpt lat="47.28423" lon="7.0498">
        <ele>970.3</ele>
        <time>2020-11-07T10:32:08.769Z</time>
      </trkpt>
      <trkpt lat="47.28423" lon="7.0498">
        <ele>970.3</ele>
        <time>2020-11-07T10:32:08.769Z</time>
      </trkpt>
      <trkpt lat="47.28424" lon="7.04979">
        <ele>969.72</ele>
        <time>2020-11-07T10:32:09.018Z</time>
      </trkpt>
      <trkpt lat="47.28432" lon="7.04976">
        <ele>968.89</ele>
        <time>2020-11-07T10:32:10.722Z</time>
      </trkpt>
      <trkpt lat="47.28444" lon="7.04967">
        <ele>968.05</ele>
        <time>2020-11-07T10:32:13.352Z</time>
      </trkpt>
      <trkpt lat="47.28466" lon="7.0495">
        <ele>966.07</ele>
        <time>2020-11-07T10:32:18.478Z</time>
      </trkpt>
      <trkpt lat="47.28476" lon="7.04944">
        <ele>965.23</ele>
        <time>2020-11-07T10:32:20.706Z</time>
      </trkpt>
      <trkpt lat="47.28501" lon="7.0493">
        <ele>963.67</ele>
        <time>2020-11-07T10:32:26.103Z</time>
      </trkpt>
      <trkpt lat="47.28509" lon="7.04924">
        <ele>963.25</ele>
        <time>2020-11-07T10:32:28.101Z</time>
      </trkpt>
      <trkpt lat="47.28516" lon="7.04918">
        <ele>962.94</ele>
        <time>2020-11-07T10:32:30.051Z</time>
      </trkpt>
      <trkpt lat="47.28523" lon="7.0491">
        <ele>962.52</ele>
        <time>2020-11-07T10:32:32.012Z</time>
      </trkpt>
      <trkpt lat="47.2853" lon="7.049">
        <ele>962</ele>
        <time>2020-11-07T10:32:34.061Z</time>
      </trkpt>
      <trkpt lat="47.28539" lon="7.04886">
        <ele>961.27</ele>
        <time>2020-11-07T10:32:36.757Z</time>
      </trkpt>
      <trkpt lat="47.2855" lon="7.04868">
        <ele>960.01</ele>
        <time>2020-11-07T10:32:40.148Z</time>
      </trkpt>
      <trkpt lat="47.28567" lon="7.04844">
        <ele>958.45</ele>
        <time>2020-11-07T10:32:44.612Z</time>
      </trkpt>
      <trkpt lat="47.28579" lon="7.04827">
        <ele>956.98</ele>
        <time>2020-11-07T10:32:48.046Z</time>
      </trkpt>
      <trkpt lat="47.28584" lon="7.0482">
        <ele>956.78</ele>
        <time>2020-11-07T10:32:49.870Z</time>
      </trkpt>
      <trkpt lat="47.28591" lon="7.04814">
        <ele>956.57</ele>
        <time>2020-11-07T10:32:52.085Z</time>
      </trkpt>
      <trkpt lat="47.28597" lon="7.04809">
        <ele>956.36</ele>
        <time>2020-11-07T10:32:53.880Z</time>
      </trkpt>
      <trkpt lat="47.28604" lon="7.04806">
        <ele>956.05</ele>
        <time>2020-11-07T10:32:55.567Z</time>
      </trkpt>
      <trkpt lat="47.28611" lon="7.04804">
        <ele>955.73</ele>
        <time>2020-11-07T10:32:57.182Z</time>
      </trkpt>
      <trkpt lat="47.28635" lon="7.04798">
        <ele>954.79</ele>
        <time>2020-11-07T10:33:03.027Z</time>
      </trkpt>
      <trkpt lat="47.28644" lon="7.04795">
        <ele>954.69</ele>
        <time>2020-11-07T10:33:06.051Z</time>
      </trkpt>
      <trkpt lat="47.28649" lon="7.04792">
        <ele>954.69</ele>
        <time>2020-11-07T10:33:10.856Z</time>
      </trkpt>
      <trkpt lat="47.28654" lon="7.04788">
        <ele>954.69</ele>
        <time>2020-11-07T10:33:15.919Z</time>
      </trkpt>
      <trkpt lat="47.28669" lon="7.04784">
        <ele>955.21</ele>
        <time>2020-11-07T10:33:35.653Z</time>
      </trkpt>
      <trkpt lat="47.28687" lon="7.0478">
        <ele>955.73</ele>
        <time>2020-11-07T10:33:57.598Z</time>
      </trkpt>
      <trkpt lat="47.28703" lon="7.04776">
        <ele>955.94</ele>
        <time>2020-11-07T10:34:13.985Z</time>
      </trkpt>
      <trkpt lat="47.28724" lon="7.04771">
        <ele>956.36</ele>
        <time>2020-11-07T10:34:37.099Z</time>
      </trkpt>
      <trkpt lat="47.28749" lon="7.04764">
        <ele>957.09</ele>
        <time>2020-11-07T10:35:07.822Z</time>
      </trkpt>
      <trkpt lat="47.28766" lon="7.0476">
        <ele>957.2</ele>
        <time>2020-11-07T10:35:24.098Z</time>
      </trkpt>
      <trkpt lat="47.2878" lon="7.04758">
        <ele>957.7</ele>
        <time>2020-11-07T10:35:42.662Z</time>
      </trkpt>
      <trkpt lat="47.28786" lon="7.04773">
        <ele>957.4</ele>
        <time>2020-11-07T10:35:45.911Z</time>
      </trkpt>
      <trkpt lat="47.28792" lon="7.04787">
        <ele>957.01</ele>
        <time>2020-11-07T10:35:48.714Z</time>
      </trkpt>
      <trkpt lat="47.28798" lon="7.04798">
        <ele>956.83</ele>
        <time>2020-11-07T10:35:51.554Z</time>
      </trkpt>
      <trkpt lat="47.28805" lon="7.04811">
        <ele>956.49</ele>
        <time>2020-11-07T10:35:54.496Z</time>
      </trkpt>
      <trkpt lat="47.28811" lon="7.04818">
        <ele>956.23</ele>
        <time>2020-11-07T10:35:56.419Z</time>
      </trkpt>
      <trkpt lat="47.28818" lon="7.04824">
        <ele>955.97</ele>
        <time>2020-11-07T10:35:58.493Z</time>
      </trkpt>
      <trkpt lat="47.28825" lon="7.04827">
        <ele>955.83</ele>
        <time>2020-11-07T10:36:00.645Z</time>
      </trkpt>
      <trkpt lat="47.28833" lon="7.04829">
        <ele>955.63</ele>
        <time>2020-11-07T10:36:02.896Z</time>
      </trkpt>
      <trkpt lat="47.28838" lon="7.04829">
        <ele>955.62</ele>
        <time>2020-11-07T10:36:07.214Z</time>
      </trkpt>
      <trkpt lat="47.28853" lon="7.04831">
        <ele>954.98</ele>
        <time>2020-11-07T10:36:10.700Z</time>
      </trkpt>
      <trkpt lat="47.28855" lon="7.04823">
        <ele>954.66</ele>
        <time>2020-11-07T10:36:11.896Z</time>
      </trkpt>
      <trkpt lat="47.28857" lon="7.04818">
        <ele>954.42</ele>
        <time>2020-11-07T10:36:12.674Z</time>
      </trkpt>
      <trkpt lat="47.28859" lon="7.04813">
        <ele>954.26</ele>
        <time>2020-11-07T10:36:13.602Z</time>
      </trkpt>
      <trkpt lat="47.28862" lon="7.0481">
        <ele>954.1</ele>
        <time>2020-11-07T10:36:14.428Z</time>
      </trkpt>
      <trkpt lat="47.28865" lon="7.04807">
        <ele>953.94</ele>
        <time>2020-11-07T10:36:15.254Z</time>
      </trkpt>
      <trkpt lat="47.28869" lon="7.04805">
        <ele>953.78</ele>
        <time>2020-11-07T10:36:16.276Z</time>
      </trkpt>
      <trkpt lat="47.28873" lon="7.04805">
        <ele>953.7</ele>
        <time>2020-11-07T10:36:17.446Z</time>
      </trkpt>
      <trkpt lat="47.28877" lon="7.04805">
        <ele>953.46</ele>
        <time>2020-11-07T10:36:18.242Z</time>
      </trkpt>
      <trkpt lat="47.28881" lon="7.04806">
        <ele>953.38</ele>
        <time>2020-11-07T10:36:19.433Z</time>
      </trkpt>
      <trkpt lat="47.28885" lon="7.04808">
        <ele>953.22</ele>
        <time>2020-11-07T10:36:20.454Z</time>
      </trkpt>
      <trkpt lat="47.2889" lon="7.0481">
        <ele>953.06</ele>
        <time>2020-11-07T10:36:21.798Z</time>
      </trkpt>
      <trkpt lat="47.28899" lon="7.04817">
        <ele>952.82</ele>
        <time>2020-11-07T10:36:24.655Z</time>
      </trkpt>
      <trkpt lat="47.28914" lon="7.04827">
        <ele>952.57</ele>
        <time>2020-11-07T10:36:29.758Z</time>
      </trkpt>
      <trkpt lat="47.28925" lon="7.04834">
        <ele>952.35</ele>
        <time>2020-11-07T10:36:33.332Z</time>
      </trkpt>
      <trkpt lat="47.28943" lon="7.04847">
        <ele>951.95</ele>
        <time>2020-11-07T10:36:39.198Z</time>
      </trkpt>
      <trkpt lat="47.28967" lon="7.04863">
        <ele>951.55</ele>
        <time>2020-11-07T10:36:47.364Z</time>
      </trkpt>
      <trkpt lat="47.28987" lon="7.04876">
        <ele>951.3</ele>
        <time>2020-11-07T10:36:54.471Z</time>
      </trkpt>
      <trkpt lat="47.28996" lon="7.04881">
        <ele>951.22</ele>
        <time>2020-11-07T10:36:57.731Z</time>
      </trkpt>
      <trkpt lat="47.29011" lon="7.04888">
        <ele>951.22</ele>
        <time>2020-11-07T10:37:11.735Z</time>
      </trkpt>
      <trkpt lat="47.29055" lon="7.04906">
        <ele>950.5</ele>
        <time>2020-11-07T10:37:25.790Z</time>
      </trkpt>
      <trkpt lat="47.29077" lon="7.04914">
        <ele>950.36</ele>
        <time>2020-11-07T10:37:44.214Z</time>
      </trkpt>
      <trkpt lat="47.29099" lon="7.04921">
        <ele>950.08</ele>
        <time>2020-11-07T10:37:51.438Z</time>
      </trkpt>
      <trkpt lat="47.29098" lon="7.04927">
        <ele>950.03</ele>
        <time>2020-11-07T10:37:52.792Z</time>
      </trkpt>
      <trkpt lat="47.29099" lon="7.04931">
        <ele>950.12</ele>
        <time>2020-11-07T10:37:56.393Z</time>
      </trkpt>
      <trkpt lat="47.29099" lon="7.04934">
        <ele>950.2</ele>
        <time>2020-11-07T10:37:59.223Z</time>
      </trkpt>
      <trkpt lat="47.29101" lon="7.04938">
        <ele>950.25</ele>
        <time>2020-11-07T10:38:02.695Z</time>
      </trkpt>
      <trkpt lat="47.29103" lon="7.04943">
        <ele>950.07</ele>
        <time>2020-11-07T10:38:03.580Z</time>
      </trkpt>
      <trkpt lat="47.29109" lon="7.04956">
        <ele>950.38</ele>
        <time>2020-11-07T10:38:16.517Z</time>
      </trkpt>
      <trkpt lat="47.29114" lon="7.04969">
        <ele>951.1</ele>
        <time>2020-11-07T10:38:34.815Z</time>
      </trkpt>
      <trkpt lat="47.29117" lon="7.04979">
        <ele>951.63</ele>
        <time>2020-11-07T10:38:48.246Z</time>
      </trkpt>
      <trkpt lat="47.2912" lon="7.04992">
        <ele>952.17</ele>
        <time>2020-11-07T10:39:03.542Z</time>
      </trkpt>
      <trkpt lat="47.29124" lon="7.05014">
        <ele>952.44</ele>
        <time>2020-11-07T10:39:19.913Z</time>
      </trkpt>
      <trkpt lat="47.29124" lon="7.05015">
        <ele>953.29</ele>
        <time>2020-11-07T10:39:22.242Z</time>
      </trkpt>
      <trkpt lat="47.29124" lon="7.05014">
        <ele>953.29</ele>
        <time>2020-11-07T10:39:22.846Z</time>
      </trkpt>
      <trkpt lat="47.29139" lon="7.05102">
        <ele>954.14</ele>
        <time>2020-11-07T10:40:25.559Z</time>
      </trkpt>
      <trkpt lat="47.29169" lon="7.0527">
        <ele>956.2</ele>
        <time>2020-11-07T10:42:30.436Z</time>
      </trkpt>
      <trkpt lat="47.29178" lon="7.05315">
        <ele>957.01</ele>
        <time>2020-11-07T10:43:07.372Z</time>
      </trkpt>
      <trkpt lat="47.29198" lon="7.05419">
        <ele>959.16</ele>
        <time>2020-11-07T10:44:36.599Z</time>
      </trkpt>
      <trkpt lat="47.29208" lon="7.05469">
        <ele>960.5</ele>
        <time>2020-11-07T10:45:24.804Z</time>
      </trkpt>
      <trkpt lat="47.29228" lon="7.05551">
        <ele>962.39</ele>
        <time>2020-11-07T10:46:39.204Z</time>
      </trkpt>
      <trkpt lat="47.29237" lon="7.0559">
        <ele>963.01</ele>
        <time>2020-11-07T10:47:10.418Z</time>
      </trkpt>
      <trkpt lat="47.29247" lon="7.0563">
        <ele>963.01</ele>
        <time>2020-11-07T10:47:36.154Z</time>
      </trkpt>
      <trkpt lat="47.29256" lon="7.05659">
        <ele>961.4</ele>
        <time>2020-11-07T10:47:40.618Z</time>
      </trkpt>
      <trkpt lat="47.29273" lon="7.0572">
        <ele>962.12</ele>
        <time>2020-11-07T10:48:27.317Z</time>
      </trkpt>
      <trkpt lat="47.29284" lon="7.05757">
        <ele>963.01</ele>
        <time>2020-11-07T10:49:02.035Z</time>
      </trkpt>
      <trkpt lat="47.29296" lon="7.05795">
        <ele>963.1</ele>
        <time>2020-11-07T10:49:28.096Z</time>
      </trkpt>
      <trkpt lat="47.29299" lon="7.05802">
        <ele>963.1</ele>
        <time>2020-11-07T10:49:33.095Z</time>
      </trkpt>
      <trkpt lat="47.29309" lon="7.05824">
        <ele>963.21</ele>
        <time>2020-11-07T10:49:50.033Z</time>
      </trkpt>
      <trkpt lat="47.2932" lon="7.05848">
        <ele>963.69</ele>
        <time>2020-11-07T10:50:12.561Z</time>
      </trkpt>
      <trkpt lat="47.29358" lon="7.05934">
        <ele>964.91</ele>
        <time>2020-11-07T10:51:26.373Z</time>
      </trkpt>
      <trkpt lat="47.29374" lon="7.0597">
        <ele>965.59</ele>
        <time>2020-11-07T10:51:59.405Z</time>
      </trkpt>
      <trkpt lat="47.29392" lon="7.06007">
        <ele>965.94</ele>
        <time>2020-11-07T10:52:30.077Z</time>
      </trkpt>
      <trkpt lat="47.29422" lon="7.0607">
        <ele>966.89</ele>
        <time>2020-11-07T10:53:25.842Z</time>
      </trkpt>
      <trkpt lat="47.29426" lon="7.0608">
        <ele>966.89</ele>
        <time>2020-11-07T10:53:32.850Z</time>
      </trkpt>
      <trkpt lat="47.29428" lon="7.06086">
        <ele>966.89</ele>
        <time>2020-11-07T10:53:36.886Z</time>
      </trkpt>
      <trkpt lat="47.2943" lon="7.06093">
        <ele>967.02</ele>
        <time>2020-11-07T10:53:42.850Z</time>
      </trkpt>
      <trkpt lat="47.29431" lon="7.06105">
        <ele>967.16</ele>
        <time>2020-11-07T10:53:51.502Z</time>
      </trkpt>
      <trkpt lat="47.29432" lon="7.06124">
        <ele>967.36</ele>
        <time>2020-11-07T10:54:04.906Z</time>
      </trkpt>
      <trkpt lat="47.29433" lon="7.06135">
        <ele>967.54</ele>
        <time>2020-11-07T10:54:13.485Z</time>
      </trkpt>
      <trkpt lat="47.29437" lon="7.0617">
        <ele>967.02</ele>
        <time>2020-11-07T10:54:20.397Z</time>
      </trkpt>
      <trkpt lat="47.29447" lon="7.0624">
        <ele>966.61</ele>
        <time>2020-11-07T10:54:36.813Z</time>
      </trkpt>
      <trkpt lat="47.29449" lon="7.06256">
        <ele>966.21</ele>
        <time>2020-11-07T10:54:39.524Z</time>
      </trkpt>
      <trkpt lat="47.2945" lon="7.06273">
        <ele>965.6</ele>
        <time>2020-11-07T10:54:41.971Z</time>
      </trkpt>
      <trkpt lat="47.29451" lon="7.06288">
        <ele>964.75</ele>
        <time>2020-11-07T10:54:44.081Z</time>
      </trkpt>
      <trkpt lat="47.2945" lon="7.06298">
        <ele>964.71</ele>
        <time>2020-11-07T10:54:49.682Z</time>
      </trkpt>
      <trkpt lat="47.29447" lon="7.0631">
        <ele>962.96</ele>
        <time>2020-11-07T10:54:51.472Z</time>
      </trkpt>
      <trkpt lat="47.29444" lon="7.06319">
        <ele>962.05</ele>
        <time>2020-11-07T10:54:52.876Z</time>
      </trkpt>
      <trkpt lat="47.29443" lon="7.06327">
        <ele>961.47</ele>
        <time>2020-11-07T10:54:54.014Z</time>
      </trkpt>
      <trkpt lat="47.29443" lon="7.06334">
        <ele>961.05</ele>
        <time>2020-11-07T10:54:54.994Z</time>
      </trkpt>
      <trkpt lat="47.29444" lon="7.06341">
        <ele>960.94</ele>
        <time>2020-11-07T10:54:56.370Z</time>
      </trkpt>
      <trkpt lat="47.29446" lon="7.06348">
        <ele>960.86</ele>
        <time>2020-11-07T10:54:57.960Z</time>
      </trkpt>
      <trkpt lat="47.2945" lon="7.06356">
        <ele>960.84</ele>
        <time>2020-11-07T10:55:03.699Z</time>
      </trkpt>
      <trkpt lat="47.29455" lon="7.06367">
        <ele>961.2</ele>
        <time>2020-11-07T10:55:16.331Z</time>
      </trkpt>
      <trkpt lat="47.29459" lon="7.06375">
        <ele>961.52</ele>
        <time>2020-11-07T10:55:26.652Z</time>
      </trkpt>
      <trkpt lat="47.29461" lon="7.06382">
        <ele>961.96</ele>
        <time>2020-11-07T10:55:37.092Z</time>
      </trkpt>
      <trkpt lat="47.29465" lon="7.06395">
        <ele>962.17</ele>
        <time>2020-11-07T10:55:47.846Z</time>
      </trkpt>
      <trkpt lat="47.29468" lon="7.06413">
        <ele>962.2</ele>
        <time>2020-11-07T10:55:59.285Z</time>
      </trkpt>
      <trkpt lat="47.29472" lon="7.06433">
        <ele>962.04</ele>
        <time>2020-11-07T10:56:03.891Z</time>
      </trkpt>
      <trkpt lat="47.29481" lon="7.06475">
        <ele>962.67</ele>
        <time>2020-11-07T10:56:36.848Z</time>
      </trkpt>
      <trkpt lat="47.29483" lon="7.06489">
        <ele>963.19</ele>
        <time>2020-11-07T10:56:52.313Z</time>
      </trkpt>
      <trkpt lat="47.29484" lon="7.06501">
        <ele>963.66</ele>
        <time>2020-11-07T10:57:05.718Z</time>
      </trkpt>
      <trkpt lat="47.29485" lon="7.06514">
        <ele>964.3</ele>
        <time>2020-11-07T10:57:21.870Z</time>
      </trkpt>
      <trkpt lat="47.29485" lon="7.06523">
        <ele>964.86</ele>
        <time>2020-11-07T10:57:34.947Z</time>
      </trkpt>
      <trkpt lat="47.29487" lon="7.06533">
        <ele>964.78</ele>
        <time>2020-11-07T10:57:37.250Z</time>
      </trkpt>
      <trkpt lat="47.2949" lon="7.06545">
        <ele>965.01</ele>
        <time>2020-11-07T10:57:47.447Z</time>
      </trkpt>
      <trkpt lat="47.29501" lon="7.06587">
        <ele>964.8</ele>
        <time>2020-11-07T10:58:12.035Z</time>
      </trkpt>
      <trkpt lat="47.29509" lon="7.06608">
        <ele>965.05</ele>
        <time>2020-11-07T10:58:28.946Z</time>
      </trkpt>
      <trkpt lat="47.29518" lon="7.06636">
        <ele>965.43</ele>
        <time>2020-11-07T10:58:51.364Z</time>
      </trkpt>
      <trkpt lat="47.29528" lon="7.0667">
        <ele>965.84</ele>
        <time>2020-11-07T10:59:17.666Z</time>
      </trkpt>
      <trkpt lat="47.2954" lon="7.06704">
        <ele>966.33</ele>
        <time>2020-11-07T10:59:45.632Z</time>
      </trkpt>
      <trkpt lat="47.2955" lon="7.06739">
        <ele>967.6</ele>
        <time>2020-11-07T11:00:25.539Z</time>
      </trkpt>
      <trkpt lat="47.29557" lon="7.06759">
        <ele>968.06</ele>
        <time>2020-11-07T11:00:44.306Z</time>
      </trkpt>
      <trkpt lat="47.29563" lon="7.06775">
        <ele>968.7</ele>
        <time>2020-11-07T11:01:03.811Z</time>
      </trkpt>
      <trkpt lat="47.2957" lon="7.06794">
        <ele>969.15</ele>
        <time>2020-11-07T11:01:21.967Z</time>
      </trkpt>
      <trkpt lat="47.29577" lon="7.06808">
        <ele>969.22</ele>
        <time>2020-11-07T11:01:33.070Z</time>
      </trkpt>
      <trkpt lat="47.29589" lon="7.06832">
        <ele>970.36</ele>
        <time>2020-11-07T11:02:05.915Z</time>
      </trkpt>
      <trkpt lat="47.29598" lon="7.06851">
        <ele>970.3</ele>
        <time>2020-11-07T11:02:19.132Z</time>
      </trkpt>
      <trkpt lat="47.29599" lon="7.06856">
        <ele>970.3</ele>
        <time>2020-11-07T11:02:22.279Z</time>
      </trkpt>
      <trkpt lat="47.29603" lon="7.06875">
        <ele>970.04</ele>
        <time>2020-11-07T11:02:26.260Z</time>
      </trkpt>
      <trkpt lat="47.29605" lon="7.06885">
        <ele>970.04</ele>
        <time>2020-11-07T11:02:32.554Z</time>
      </trkpt>
      <trkpt lat="47.29614" lon="7.06914">
        <ele>969.53</ele>
        <time>2020-11-07T11:02:38.626Z</time>
      </trkpt>
      <trkpt lat="47.29615" lon="7.0692">
        <ele>969.35</ele>
        <time>2020-11-07T11:02:39.592Z</time>
      </trkpt>
      <trkpt lat="47.29616" lon="7.06928">
        <ele>969.35</ele>
        <time>2020-11-07T11:02:44.502Z</time>
      </trkpt>
      <trkpt lat="47.29617" lon="7.06939">
        <ele>970.55</ele>
        <time>2020-11-07T11:03:10.344Z</time>
      </trkpt>
      <trkpt lat="47.29617" lon="7.06949">
        <ele>970.61</ele>
        <time>2020-11-07T11:03:16.913Z</time>
      </trkpt>
      <trkpt lat="47.29617" lon="7.06948">
        <ele>970.61</ele>
        <time>2020-11-07T11:03:17.516Z</time>
      </trkpt>
      <trkpt lat="47.29617" lon="7.06951">
        <ele>970.68</ele>
        <time>2020-11-07T11:03:20.161Z</time>
      </trkpt>
      <trkpt lat="47.29617" lon="7.0696">
        <ele>970.78</ele>
        <time>2020-11-07T11:03:26.553Z</time>
      </trkpt>
      <trkpt lat="47.2962" lon="7.0697">
        <ele>970.72</ele>
        <time>2020-11-07T11:03:29.074Z</time>
      </trkpt>
      <trkpt lat="47.29626" lon="7.06991">
        <ele>970.63</ele>
        <time>2020-11-07T11:03:41.704Z</time>
      </trkpt>
      <trkpt lat="47.29641" lon="7.07034">
        <ele>969.22</ele>
        <time>2020-11-07T11:03:49.259Z</time>
      </trkpt>
      <trkpt lat="47.29646" lon="7.0705">
        <ele>968.83</ele>
        <time>2020-11-07T11:03:52.303Z</time>
      </trkpt>
      <trkpt lat="47.2965" lon="7.07058">
        <ele>968.77</ele>
        <time>2020-11-07T11:03:54.569Z</time>
      </trkpt>
      <trkpt lat="47.29656" lon="7.0707">
        <ele>968.83</ele>
        <time>2020-11-07T11:04:04.086Z</time>
      </trkpt>
      <trkpt lat="47.29667" lon="7.07091">
        <ele>968.38</ele>
        <time>2020-11-07T11:04:09.059Z</time>
      </trkpt>
      <trkpt lat="47.29675" lon="7.07106">
        <ele>968.38</ele>
        <time>2020-11-07T11:04:20.578Z</time>
      </trkpt>
      <trkpt lat="47.29686" lon="7.07123">
        <ele>967.28</ele>
        <time>2020-11-07T11:04:23.866Z</time>
      </trkpt>
      <trkpt lat="47.29692" lon="7.07134">
        <ele>967.02</ele>
        <time>2020-11-07T11:04:26.450Z</time>
      </trkpt>
      <trkpt lat="47.29698" lon="7.07147">
        <ele>966.57</ele>
        <time>2020-11-07T11:04:28.925Z</time>
      </trkpt>
      <trkpt lat="47.29707" lon="7.07163">
        <ele>965.86</ele>
        <time>2020-11-07T11:04:31.966Z</time>
      </trkpt>
      <trkpt lat="47.29713" lon="7.07173">
        <ele>965.28</ele>
        <time>2020-11-07T11:04:33.713Z</time>
      </trkpt>
      <trkpt lat="47.29719" lon="7.07184">
        <ele>964.96</ele>
        <time>2020-11-07T11:04:36.132Z</time>
      </trkpt>
      <trkpt lat="47.29723" lon="7.07194">
        <ele>964.89</ele>
        <time>2020-11-07T11:04:38.780Z</time>
      </trkpt>
      <trkpt lat="47.29727" lon="7.07206">
        <ele>965.15</ele>
        <time>2020-11-07T11:04:49.727Z</time>
      </trkpt>
      <trkpt lat="47.29731" lon="7.07217">
        <ele>965.15</ele>
        <time>2020-11-07T11:04:57.261Z</time>
      </trkpt>
      <trkpt lat="47.29734" lon="7.07223">
        <ele>965.21</ele>
        <time>2020-11-07T11:05:02.310Z</time>
      </trkpt>
      <trkpt lat="47.29741" lon="7.07232">
        <ele>964.57</ele>
        <time>2020-11-07T11:05:04.226Z</time>
      </trkpt>
      <trkpt lat="47.29746" lon="7.07242">
        <ele>964.76</ele>
        <time>2020-11-07T11:05:13.678Z</time>
      </trkpt>
      <trkpt lat="47.29751" lon="7.07253">
        <ele>964.7</ele>
        <time>2020-11-07T11:05:20.930Z</time>
      </trkpt>
      <trkpt lat="47.29756" lon="7.07264">
        <ele>964.44</ele>
        <time>2020-11-07T11:05:23.307Z</time>
      </trkpt>
      <trkpt lat="47.29761" lon="7.07274">
        <ele>964.12</ele>
        <time>2020-11-07T11:05:25.343Z</time>
      </trkpt>
      <trkpt lat="47.29779" lon="7.07313">
        <ele>963.66</ele>
        <time>2020-11-07T11:05:35.362Z</time>
      </trkpt>
      <trkpt lat="47.29784" lon="7.07322">
        <ele>963.66</ele>
        <time>2020-11-07T11:05:42.385Z</time>
      </trkpt>
      <trkpt lat="47.29795" lon="7.07343">
        <ele>962.44</ele>
        <time>2020-11-07T11:05:46.098Z</time>
      </trkpt>
      <trkpt lat="47.29802" lon="7.0736">
        <ele>961.08</ele>
        <time>2020-11-07T11:05:48.882Z</time>
      </trkpt>
      <trkpt lat="47.29805" lon="7.0737">
        <ele>960.37</ele>
        <time>2020-11-07T11:05:50.412Z</time>
      </trkpt>
      <trkpt lat="47.29808" lon="7.07383">
        <ele>960.3</ele>
        <time>2020-11-07T11:05:53.603Z</time>
      </trkpt>
      <trkpt lat="47.2981" lon="7.07395">
        <ele>960.62</ele>
        <time>2020-11-07T11:06:05.075Z</time>
      </trkpt>
      <trkpt lat="47.29812" lon="7.07403">
        <ele>960.89</ele>
        <time>2020-11-07T11:06:13.884Z</time>
      </trkpt>
      <trkpt lat="47.29814" lon="7.07408">
        <ele>961.23</ele>
        <time>2020-11-07T11:06:21.927Z</time>
      </trkpt>
      <trkpt lat="47.29816" lon="7.07413">
        <ele>961.75</ele>
        <time>2020-11-07T11:06:35.185Z</time>
      </trkpt>
      <trkpt lat="47.2982" lon="7.07418">
        <ele>962.38</ele>
        <time>2020-11-07T11:06:50.286Z</time>
      </trkpt>
      <trkpt lat="47.29824" lon="7.07424">
        <ele>962.96</ele>
        <time>2020-11-07T11:07:03.709Z</time>
      </trkpt>
      <trkpt lat="47.29829" lon="7.07431">
        <ele>963.73</ele>
        <time>2020-11-07T11:07:21.718Z</time>
      </trkpt>
      <trkpt lat="47.29834" lon="7.07436">
        <ele>964.5</ele>
        <time>2020-11-07T11:07:40.809Z</time>
      </trkpt>
      <trkpt lat="47.29847" lon="7.07449">
        <ele>965.62</ele>
        <time>2020-11-07T11:08:09.222Z</time>
      </trkpt>
      <trkpt lat="47.29853" lon="7.07454">
        <ele>966</ele>
        <time>2020-11-07T11:08:20.322Z</time>
      </trkpt>
      <trkpt lat="47.29855" lon="7.07458">
        <ele>966.1</ele>
        <time>2020-11-07T11:08:24.441Z</time>
      </trkpt>
      <trkpt lat="47.29858" lon="7.07463">
        <ele>966.25</ele>
        <time>2020-11-07T11:08:30.227Z</time>
      </trkpt>
      <trkpt lat="47.29868" lon="7.07495">
        <ele>966.77</ele>
        <time>2020-11-07T11:08:56.790Z</time>
      </trkpt>
      <trkpt lat="47.29882" lon="7.07537">
        <ele>968.06</ele>
        <time>2020-11-07T11:09:41.795Z</time>
      </trkpt>
      <trkpt lat="47.29888" lon="7.07555">
        <ele>968.45</ele>
        <time>2020-11-07T11:09:58.214Z</time>
      </trkpt>
      <trkpt lat="47.29898" lon="7.07601">
        <ele>969.09</ele>
        <time>2020-11-07T11:10:33.728Z</time>
      </trkpt>
      <trkpt lat="47.29904" lon="7.07625">
        <ele>969.35</ele>
        <time>2020-11-07T11:10:51.625Z</time>
      </trkpt>
      <trkpt lat="47.29905" lon="7.07633">
        <ele>969.48</ele>
        <time>2020-11-07T11:10:57.887Z</time>
      </trkpt>
      <trkpt lat="47.29905" lon="7.07658">
        <ele>969.48</ele>
        <time>2020-11-07T11:11:12.978Z</time>
      </trkpt>
      <trkpt lat="47.29907" lon="7.07674">
        <ele>969.48</ele>
        <time>2020-11-07T11:11:22.799Z</time>
      </trkpt>
      <trkpt lat="47.29909" lon="7.07687">
        <ele>969.67</ele>
        <time>2020-11-07T11:11:32.764Z</time>
      </trkpt>
      <trkpt lat="47.29913" lon="7.07704">
        <ele>969.74</ele>
        <time>2020-11-07T11:11:44.228Z</time>
      </trkpt>
      <trkpt lat="47.29919" lon="7.07721">
        <ele>969.93</ele>
        <time>2020-11-07T11:11:57.585Z</time>
      </trkpt>
      <trkpt lat="47.29926" lon="7.0774">
        <ele>970.13</ele>
        <time>2020-11-07T11:12:12.500Z</time>
      </trkpt>
      <trkpt lat="47.29935" lon="7.0776">
        <ele>970.13</ele>
        <time>2020-11-07T11:12:26.989Z</time>
      </trkpt>
      <trkpt lat="47.29942" lon="7.07777">
        <ele>970.06</ele>
        <time>2020-11-07T11:12:38.110Z</time>
      </trkpt>
      <trkpt lat="47.29947" lon="7.07792">
        <ele>970.07</ele>
        <time>2020-11-07T11:12:48.281Z</time>
      </trkpt>
      <trkpt lat="47.29952" lon="7.07788">
        <ele>970.14</ele>
        <time>2020-11-07T11:12:53.987Z</time>
      </trkpt>
      <trkpt lat="47.29956" lon="7.07784">
        <ele>970.14</ele>
        <time>2020-11-07T11:12:58.289Z</time>
      </trkpt>
      <trkpt lat="47.29963" lon="7.07776">
        <ele>970.14</ele>
        <time>2020-11-07T11:13:06.172Z</time>
      </trkpt>
      <trkpt lat="47.29981" lon="7.07754">
        <ele>969.55</ele>
        <time>2020-11-07T11:13:12.615Z</time>
      </trkpt>
      <trkpt lat="47.29983" lon="7.07757">
        <ele>969.61</ele>
        <time>2020-11-07T11:13:15.760Z</time>
      </trkpt>
      <trkpt lat="47.29984" lon="7.0776">
        <ele>969.7</ele>
        <time>2020-11-07T11:13:18.931Z</time>
      </trkpt>
      <trkpt lat="47.29986" lon="7.07768">
        <ele>969.96</ele>
        <time>2020-11-07T11:13:27.643Z</time>
      </trkpt>
      <trkpt lat="47.29993" lon="7.07804">
        <ele>970.61</ele>
        <time>2020-11-07T11:13:57.171Z</time>
      </trkpt>
      <trkpt lat="47.29996" lon="7.07822">
        <ele>970.34</ele>
        <time>2020-11-07T11:14:00.786Z</time>
      </trkpt>
      <trkpt lat="47.29999" lon="7.07838">
        <ele>969.79</ele>
        <time>2020-11-07T11:14:03.246Z</time>
      </trkpt>
      <trkpt lat="47.30003" lon="7.07855">
        <ele>969.57</ele>
        <time>2020-11-07T11:14:06.900Z</time>
      </trkpt>
      <trkpt lat="47.30006" lon="7.07864">
        <ele>969.66</ele>
        <time>2020-11-07T11:14:13.788Z</time>
      </trkpt>
      <trkpt lat="47.30008" lon="7.07879">
        <ele>969.88</ele>
        <time>2020-11-07T11:14:25.242Z</time>
      </trkpt>
      <trkpt lat="47.30009" lon="7.07895">
        <ele>970.26</ele>
        <time>2020-11-07T11:14:39.494Z</time>
      </trkpt>
      <trkpt lat="47.3001" lon="7.07918">
        <ele>970.86</ele>
        <time>2020-11-07T11:15:00.950Z</time>
      </trkpt>
      <trkpt lat="47.3001" lon="7.0795">
        <ele>971.26</ele>
        <time>2020-11-07T11:15:24.189Z</time>
      </trkpt>
      <trkpt lat="47.3001" lon="7.0797">
        <ele>972.38</ele>
        <time>2020-11-07T11:15:51.027Z</time>
      </trkpt>
      <trkpt lat="47.3001" lon="7.07969">
        <ele>972.38</ele>
        <time>2020-11-07T11:15:51.631Z</time>
      </trkpt>
      <trkpt lat="47.30012" lon="7.08055">
        <ele>973.5</ele>
        <time>2020-11-07T11:16:54.651Z</time>
      </trkpt>
      <trkpt lat="47.30012" lon="7.08093">
        <ele>974.36</ele>
        <time>2020-11-07T11:17:27.687Z</time>
      </trkpt>
      <trkpt lat="47.30013" lon="7.08126">
        <ele>975.03</ele>
        <time>2020-11-07T11:17:55.150Z</time>
      </trkpt>
      <trkpt lat="47.30014" lon="7.08149">
        <ele>974.67</ele>
        <time>2020-11-07T11:17:59.565Z</time>
      </trkpt>
      <trkpt lat="47.30018" lon="7.08147">
        <ele>975.05</ele>
        <time>2020-11-07T11:18:08.471Z</time>
      </trkpt>
      <trkpt lat="47.30028" lon="7.08143">
        <ele>975.98</ele>
        <time>2020-11-07T11:18:30.277Z</time>
      </trkpt>
      <trkpt lat="47.30041" lon="7.08136">
        <ele>977.13</ele>
        <time>2020-11-07T11:18:57.781Z</time>
      </trkpt>
      <trkpt lat="47.30058" lon="7.08127">
        <ele>978.37</ele>
        <time>2020-11-07T11:19:29.806Z</time>
      </trkpt>
      <trkpt lat="47.30069" lon="7.08121">
        <ele>979.48</ele>
        <time>2020-11-07T11:19:55.606Z</time>
      </trkpt>
      <trkpt lat="47.30082" lon="7.08113">
        <ele>980.91</ele>
        <time>2020-11-07T11:20:28.701Z</time>
      </trkpt>
      <trkpt lat="47.30091" lon="7.08109">
        <ele>982.07</ele>
        <time>2020-11-07T11:20:56.887Z</time>
      </trkpt>
      <trkpt lat="47.301" lon="7.08106">
        <ele>983.32</ele>
        <time>2020-11-07T11:21:28.565Z</time>
      </trkpt>
      <trkpt lat="47.30109" lon="7.08104">
        <ele>984.55</ele>
        <time>2020-11-07T11:21:59.813Z</time>
      </trkpt>
      <trkpt lat="47.30136" lon="7.08102">
        <ele>988.21</ele>
        <time>2020-11-07T11:23:32.626Z</time>
      </trkpt>
      <trkpt lat="47.3015" lon="7.08101">
        <ele>990.53</ele>
        <time>2020-11-07T11:24:20.747Z</time>
      </trkpt>
      <trkpt lat="47.30157" lon="7.081">
        <ele>991.74</ele>
        <time>2020-11-07T11:24:44.891Z</time>
      </trkpt>
      <trkpt lat="47.30163" lon="7.08098">
        <ele>992.88</ele>
        <time>2020-11-07T11:25:06.010Z</time>
      </trkpt>
      <trkpt lat="47.30171" lon="7.08094">
        <ele>994.23</ele>
        <time>2020-11-07T11:25:35.012Z</time>
      </trkpt>
      <trkpt lat="47.30183" lon="7.0809">
        <ele>995.63</ele>
        <time>2020-11-07T11:26:07.911Z</time>
      </trkpt>
      <trkpt lat="47.30201" lon="7.08085">
        <ele>996.48</ele>
        <time>2020-11-07T11:26:35.762Z</time>
      </trkpt>
      <trkpt lat="47.30203" lon="7.08097">
        <ele>996.83</ele>
        <time>2020-11-07T11:26:47.843Z</time>
      </trkpt>
      <trkpt lat="47.30205" lon="7.08113">
        <ele>997.56</ele>
        <time>2020-11-07T11:27:07.048Z</time>
      </trkpt>
      <trkpt lat="47.30206" lon="7.08126">
        <ele>998.13</ele>
        <time>2020-11-07T11:27:22.278Z</time>
      </trkpt>
      <trkpt lat="47.30207" lon="7.08135">
        <ele>998.52</ele>
        <time>2020-11-07T11:27:32.805Z</time>
      </trkpt>
      <trkpt lat="47.30208" lon="7.08144">
        <ele>998.95</ele>
        <time>2020-11-07T11:27:43.842Z</time>
      </trkpt>
      <trkpt lat="47.30211" lon="7.08155">
        <ele>999.52</ele>
        <time>2020-11-07T11:27:58.340Z</time>
      </trkpt>
      <trkpt lat="47.30213" lon="7.08165">
        <ele>1000.13</ele>
        <time>2020-11-07T11:28:12.775Z</time>
      </trkpt>
      <trkpt lat="47.30214" lon="7.08176">
        <ele>1000.68</ele>
        <time>2020-11-07T11:28:26.576Z</time>
      </trkpt>
      <trkpt lat="47.30217" lon="7.08217">
        <ele>1002.45</ele>
        <time>2020-11-07T11:29:14.252Z</time>
      </trkpt>
      <trkpt lat="47.30221" lon="7.08267">
        <ele>1003.93</ele>
        <time>2020-11-07T11:30:04.653Z</time>
      </trkpt>
      <trkpt lat="47.30221" lon="7.08276">
        <ele>1004.09</ele>
        <time>2020-11-07T11:30:11.803Z</time>
      </trkpt>
      <trkpt lat="47.3022" lon="7.08285">
        <ele>1004.43</ele>
        <time>2020-11-07T11:30:21.752Z</time>
      </trkpt>
      <trkpt lat="47.30219" lon="7.08293">
        <ele>1004.65</ele>
        <time>2020-11-07T11:30:29.488Z</time>
      </trkpt>
      <trkpt lat="47.30217" lon="7.08308">
        <ele>1004.87</ele>
        <time>2020-11-07T11:30:40.942Z</time>
      </trkpt>
      <trkpt lat="47.30216" lon="7.08323">
        <ele>1005.2</ele>
        <time>2020-11-07T11:30:53.860Z</time>
      </trkpt>
      <trkpt lat="47.30216" lon="7.08325">
        <ele>1005.38</ele>
        <time>2020-11-07T11:30:58.469Z</time>
      </trkpt>
      <trkpt lat="47.30216" lon="7.08325">
        <ele>1005.38</ele>
        <time>2020-11-07T11:30:58.469Z</time>
      </trkpt>
      <trkpt lat="47.30215" lon="7.08334">
        <ele>1005.56</ele>
        <time>2020-11-07T11:31:05.974Z</time>
      </trkpt>
      <trkpt lat="47.30214" lon="7.08361">
        <ele>1006.43</ele>
        <time>2020-11-07T11:31:34.043Z</time>
      </trkpt>
      <trkpt lat="47.30213" lon="7.08372">
        <ele>1006.52</ele>
        <time>2020-11-07T11:31:41.566Z</time>
      </trkpt>
      <trkpt lat="47.30212" lon="7.08385">
        <ele>1007.07</ele>
        <time>2020-11-07T11:31:56.552Z</time>
      </trkpt>
      <trkpt lat="47.3021" lon="7.08399">
        <ele>1007.34</ele>
        <time>2020-11-07T11:32:08.142Z</time>
      </trkpt>
      <trkpt lat="47.30208" lon="7.08409">
        <ele>1006.65</ele>
        <time>2020-11-07T11:32:09.601Z</time>
      </trkpt>
      <trkpt lat="47.30204" lon="7.0842">
        <ele>1006.95</ele>
        <time>2020-11-07T11:32:20.757Z</time>
      </trkpt>
      <trkpt lat="47.30201" lon="7.0843">
        <ele>1006.88</ele>
        <time>2020-11-07T11:32:23.233Z</time>
      </trkpt>
      <trkpt lat="47.302" lon="7.08437">
        <ele>1007.1</ele>
        <time>2020-11-07T11:32:30.560Z</time>
      </trkpt>
      <trkpt lat="47.302" lon="7.08444">
        <ele>1007.25</ele>
        <time>2020-11-07T11:32:36.506Z</time>
      </trkpt>
      <trkpt lat="47.30201" lon="7.08451">
        <ele>1007.7</ele>
        <time>2020-11-07T11:32:46.995Z</time>
      </trkpt>
      <trkpt lat="47.30201" lon="7.08458">
        <ele>1007.77</ele>
        <time>2020-11-07T11:32:51.880Z</time>
      </trkpt>
      <trkpt lat="47.30201" lon="7.08465">
        <ele>1008.07</ele>
        <time>2020-11-07T11:32:59.967Z</time>
      </trkpt>
      <trkpt lat="47.30201" lon="7.08474">
        <ele>1008.29</ele>
        <time>2020-11-07T11:33:08.077Z</time>
      </trkpt>
      <trkpt lat="47.30195" lon="7.0853">
        <ele>1007.92</ele>
        <time>2020-11-07T11:33:20.882Z</time>
      </trkpt>
      <trkpt lat="47.30194" lon="7.08547">
        <ele>1007.77</ele>
        <time>2020-11-07T11:33:24.571Z</time>
      </trkpt>
      <trkpt lat="47.30194" lon="7.08557">
        <ele>1007.55</ele>
        <time>2020-11-07T11:33:26.302Z</time>
      </trkpt>
      <trkpt lat="47.30194" lon="7.08565">
        <ele>1007.4</ele>
        <time>2020-11-07T11:33:27.759Z</time>
      </trkpt>
      <trkpt lat="47.30195" lon="7.08573">
        <ele>1007.1</ele>
        <time>2020-11-07T11:33:28.909Z</time>
      </trkpt>
      <trkpt lat="47.30197" lon="7.08581">
        <ele>1006.8</ele>
        <time>2020-11-07T11:33:30.140Z</time>
      </trkpt>
      <trkpt lat="47.30209" lon="7.08619">
        <ele>1007.25</ele>
        <time>2020-11-07T11:33:59.732Z</time>
      </trkpt>
      <trkpt lat="47.30214" lon="7.08634">
        <ele>1007.7</ele>
        <time>2020-11-07T11:34:15.586Z</time>
      </trkpt>
      <trkpt lat="47.30223" lon="7.08658">
        <ele>1008.96</ele>
        <time>2020-11-07T11:34:48.341Z</time>
      </trkpt>
      <trkpt lat="47.30227" lon="7.08668">
        <ele>1009.63</ele>
        <time>2020-11-07T11:35:04.254Z</time>
      </trkpt>
      <trkpt lat="47.30229" lon="7.08678">
        <ele>1009.93</ele>
        <time>2020-11-07T11:35:14.548Z</time>
      </trkpt>
      <trkpt lat="47.30231" lon="7.08687">
        <ele>1010.15</ele>
        <time>2020-11-07T11:35:22.878Z</time>
      </trkpt>
      <trkpt lat="47.30233" lon="7.08698">
        <ele>1010.46</ele>
        <time>2020-11-07T11:35:33.749Z</time>
      </trkpt>
      <trkpt lat="47.30234" lon="7.08711">
        <ele>1010.9</ele>
        <time>2020-11-07T11:35:47.521Z</time>
      </trkpt>
      <trkpt lat="47.30235" lon="7.08718">
        <ele>1011.28</ele>
        <time>2020-11-07T11:35:56.792Z</time>
      </trkpt>
      <trkpt lat="47.30237" lon="7.08726">
        <ele>1011.65</ele>
        <time>2020-11-07T11:36:06.699Z</time>
      </trkpt>
      <trkpt lat="47.30239" lon="7.08733">
        <ele>1012.02</ele>
        <time>2020-11-07T11:36:16.054Z</time>
      </trkpt>
      <trkpt lat="47.30242" lon="7.08742">
        <ele>1012.24</ele>
        <time>2020-11-07T11:36:24.656Z</time>
      </trkpt>
      <trkpt lat="47.30245" lon="7.08751">
        <ele>1012.32</ele>
        <time>2020-11-07T11:36:31.440Z</time>
      </trkpt>
      <trkpt lat="47.30247" lon="7.08757">
        <ele>1012.47</ele>
        <time>2020-11-07T11:36:37.230Z</time>
      </trkpt>
      <trkpt lat="47.30249" lon="7.08762">
        <ele>1012.54</ele>
        <time>2020-11-07T11:36:41.416Z</time>
      </trkpt>
      <trkpt lat="47.3025" lon="7.08769">
        <ele>1012.84</ele>
        <time>2020-11-07T11:36:49.601Z</time>
      </trkpt>
      <trkpt lat="47.30253" lon="7.08784">
        <ele>1014.18</ele>
        <time>2020-11-07T11:37:22.631Z</time>
      </trkpt>
      <trkpt lat="47.30256" lon="7.08794">
        <ele>1014.93</ele>
        <time>2020-11-07T11:37:39.988Z</time>
      </trkpt>
      <trkpt lat="47.3026" lon="7.0881">
        <ele>1015.97</ele>
        <time>2020-11-07T11:38:04.364Z</time>
      </trkpt>
      <trkpt lat="47.30262" lon="7.08819">
        <ele>1016.2</ele>
        <time>2020-11-07T11:38:12.871Z</time>
      </trkpt>
      <trkpt lat="47.30264" lon="7.08827">
        <ele>1016.57</ele>
        <time>2020-11-07T11:38:22.778Z</time>
      </trkpt>
      <trkpt lat="47.30265" lon="7.08836">
        <ele>1017.09</ele>
        <time>2020-11-07T11:38:35.171Z</time>
      </trkpt>
      <trkpt lat="47.30267" lon="7.08843">
        <ele>1017.84</ele>
        <time>2020-11-07T11:38:52.855Z</time>
      </trkpt>
      <trkpt lat="47.30269" lon="7.08852">
        <ele>1018.58</ele>
        <time>2020-11-07T11:39:10.310Z</time>
      </trkpt>
      <trkpt lat="47.30271" lon="7.08858">
        <ele>1019.18</ele>
        <time>2020-11-07T11:39:25.633Z</time>
      </trkpt>
      <trkpt lat="47.30273" lon="7.08864">
        <ele>1019.85</ele>
        <time>2020-11-07T11:39:41.198Z</time>
      </trkpt>
      <trkpt lat="47.30274" lon="7.08871">
        <ele>1020.52</ele>
        <time>2020-11-07T11:39:57.853Z</time>
      </trkpt>
      <trkpt lat="47.30274" lon="7.08878">
        <ele>1020.89</ele>
        <time>2020-11-07T11:40:06.896Z</time>
      </trkpt>
      <trkpt lat="47.30274" lon="7.08913">
        <ele>1023.28</ele>
        <time>2020-11-07T11:41:02.210Z</time>
      </trkpt>
      <trkpt lat="47.30274" lon="7.08949">
        <ele>1024.25</ele>
        <time>2020-11-07T11:41:36.372Z</time>
      </trkpt>
      <trkpt lat="47.30274" lon="7.08964">
        <ele>1024.7</ele>
        <time>2020-11-07T11:41:51.595Z</time>
      </trkpt>
      <trkpt lat="47.30277" lon="7.09006">
        <ele>1024.92</ele>
        <time>2020-11-07T11:42:19.015Z</time>
      </trkpt>
      <trkpt lat="47.30278" lon="7.09026">
        <ele>1024.77</ele>
        <time>2020-11-07T11:42:23.461Z</time>
      </trkpt>
      <trkpt lat="47.30278" lon="7.09043">
        <ele>1024.55</ele>
        <time>2020-11-07T11:42:26.870Z</time>
      </trkpt>
      <trkpt lat="47.30278" lon="7.09057">
        <ele>1024.32</ele>
        <time>2020-11-07T11:42:29.515Z</time>
      </trkpt>
      <trkpt lat="47.30276" lon="7.09096">
        <ele>1023.88</ele>
        <time>2020-11-07T11:42:37.597Z</time>
      </trkpt>
      <trkpt lat="47.30275" lon="7.0912">
        <ele>1023.28</ele>
        <time>2020-11-07T11:42:41.582Z</time>
      </trkpt>
      <trkpt lat="47.30275" lon="7.09135">
        <ele>1022.91</ele>
        <time>2020-11-07T11:42:44.078Z</time>
      </trkpt>
      <trkpt lat="47.30276" lon="7.09149">
        <ele>1022.31</ele>
        <time>2020-11-07T11:42:45.936Z</time>
      </trkpt>
      <trkpt lat="47.30277" lon="7.09162">
        <ele>1022.16</ele>
        <time>2020-11-07T11:42:48.629Z</time>
      </trkpt>
      <trkpt lat="47.30277" lon="7.09173">
        <ele>1022.09</ele>
        <time>2020-11-07T11:42:51.121Z</time>
      </trkpt>
      <trkpt lat="47.30277" lon="7.09181">
        <ele>1022.16</ele>
        <time>2020-11-07T11:42:56.597Z</time>
      </trkpt>
      <trkpt lat="47.30276" lon="7.0919">
        <ele>1022.23</ele>
        <time>2020-11-07T11:43:02.739Z</time>
      </trkpt>
      <trkpt lat="47.30274" lon="7.092">
        <ele>1022.46</ele>
        <time>2020-11-07T11:43:11.703Z</time>
      </trkpt>
      <trkpt lat="47.30265" lon="7.09246">
        <ele>1022.76</ele>
        <time>2020-11-07T11:43:43.273Z</time>
      </trkpt>
      <trkpt lat="47.30253" lon="7.09312">
        <ele>1022.91</ele>
        <time>2020-11-07T11:44:25.777Z</time>
      </trkpt>
      <trkpt lat="47.30248" lon="7.09338">
        <ele>1023.35</ele>
        <time>2020-11-07T11:44:46.688Z</time>
      </trkpt>
      <trkpt lat="47.30238" lon="7.09382">
        <ele>1024.55</ele>
        <time>2020-11-07T11:45:29.733Z</time>
      </trkpt>
      <trkpt lat="47.30235" lon="7.09395">
        <ele>1024.92</ele>
        <time>2020-11-07T11:45:42.764Z</time>
      </trkpt>
      <trkpt lat="47.30232" lon="7.09407">
        <ele>1025.44</ele>
        <time>2020-11-07T11:45:57.204Z</time>
      </trkpt>
      <trkpt lat="47.30229" lon="7.09418">
        <ele>1024.55</ele>
        <time>2020-11-07T11:45:58.864Z</time>
      </trkpt>
      <trkpt lat="47.30229" lon="7.09428">
        <ele>1024.1</ele>
        <time>2020-11-07T11:46:00.149Z</time>
      </trkpt>
      <trkpt lat="47.3023" lon="7.09443">
        <ele>1024.1</ele>
        <time>2020-11-07T11:46:09.246Z</time>
      </trkpt>
      <trkpt lat="47.30231" lon="7.09451">
        <ele>1024.44</ele>
        <time>2020-11-07T11:46:18.540Z</time>
      </trkpt>
      <trkpt lat="47.30239" lon="7.09475">
        <ele>1025.6</ele>
        <time>2020-11-07T11:46:49.607Z</time>
      </trkpt>
      <trkpt lat="47.30242" lon="7.09487">
        <ele>1026.27</ele>
        <time>2020-11-07T11:47:06.040Z</time>
      </trkpt>
      <trkpt lat="47.30248" lon="7.09517">
        <ele>1027.08</ele>
        <time>2020-11-07T11:47:35.075Z</time>
      </trkpt>
      <trkpt lat="47.30251" lon="7.09532">
        <ele>1027.89</ele>
        <time>2020-11-07T11:47:55.030Z</time>
      </trkpt>
      <trkpt lat="47.30253" lon="7.09547">
        <ele>1028.69</ele>
        <time>2020-11-07T11:48:14.658Z</time>
      </trkpt>
      <trkpt lat="47.30258" lon="7.09582">
        <ele>1029.47</ele>
        <time>2020-11-07T11:48:45.262Z</time>
      </trkpt>
      <trkpt lat="47.30263" lon="7.09611">
        <ele>1030.03</ele>
        <time>2020-11-07T11:49:09.434Z</time>
      </trkpt>
      <trkpt lat="47.30266" lon="7.09628">
        <ele>1030.59</ele>
        <time>2020-11-07T11:49:27.617Z</time>
      </trkpt>
      <trkpt lat="47.30268" lon="7.09643">
        <ele>1030.59</ele>
        <time>2020-11-07T11:49:36.844Z</time>
      </trkpt>
      <trkpt lat="47.30268" lon="7.09659">
        <ele>1030.79</ele>
        <time>2020-11-07T11:49:48.464Z</time>
      </trkpt>
      <trkpt lat="47.30267" lon="7.09665">
        <ele>1030.66</ele>
        <time>2020-11-07T11:49:49.549Z</time>
      </trkpt>
      <trkpt lat="47.30268" lon="7.09676">
        <ele>1030.62</ele>
        <time>2020-11-07T11:49:55.743Z</time>
      </trkpt>
      <trkpt lat="47.30267" lon="7.097">
        <ele>1030.88</ele>
        <time>2020-11-07T11:50:12.739Z</time>
      </trkpt>
      <trkpt lat="47.30267" lon="7.0971">
        <ele>1031.23</ele>
        <time>2020-11-07T11:50:23.406Z</time>
      </trkpt>
      <trkpt lat="47.30267" lon="7.09713">
        <ele>1032.07</ele>
        <time>2020-11-07T11:50:30.390Z</time>
      </trkpt>
      <trkpt lat="47.30267" lon="7.09712">
        <ele>1032.07</ele>
        <time>2020-11-07T11:50:30.994Z</time>
      </trkpt>
      <trkpt lat="47.30269" lon="7.09739">
        <ele>1032.92</ele>
        <time>2020-11-07T11:50:58.954Z</time>
      </trkpt>
      <trkpt lat="47.30271" lon="7.09754">
        <ele>1033.54</ele>
        <time>2020-11-07T11:51:16.196Z</time>
      </trkpt>
      <trkpt lat="47.30271" lon="7.09765">
        <ele>1034.11</ele>
        <time>2020-11-07T11:51:30.235Z</time>
      </trkpt>
      <trkpt lat="47.30271" lon="7.09773">
        <ele>1034.67</ele>
        <time>2020-11-07T11:51:43.200Z</time>
      </trkpt>
      <trkpt lat="47.3027" lon="7.09779">
        <ele>1034.88</ele>
        <time>2020-11-07T11:51:49.726Z</time>
      </trkpt>
      <trkpt lat="47.30269" lon="7.09788">
        <ele>1035.27</ele>
        <time>2020-11-07T11:52:00.252Z</time>
      </trkpt>
      <trkpt lat="47.30262" lon="7.0982">
        <ele>1036.93</ele>
        <time>2020-11-07T11:52:41.973Z</time>
      </trkpt>
      <trkpt lat="47.30256" lon="7.09844">
        <ele>1037.92</ele>
        <time>2020-11-07T11:53:10.281Z</time>
      </trkpt>
      <trkpt lat="47.30255" lon="7.0985">
        <ele>1038.37</ele>
        <time>2020-11-07T11:53:20.733Z</time>
      </trkpt>
      <trkpt lat="47.30255" lon="7.09857">
        <ele>1038.72</ele>
        <time>2020-11-07T11:53:29.481Z</time>
      </trkpt>
      <trkpt lat="47.30255" lon="7.09863">
        <ele>1039.12</ele>
        <time>2020-11-07T11:53:38.747Z</time>
      </trkpt>
      <trkpt lat="47.30256" lon="7.09869">
        <ele>1039.6</ele>
        <time>2020-11-07T11:53:50.049Z</time>
      </trkpt>
      <trkpt lat="47.30256" lon="7.09875">
        <ele>1039.9</ele>
        <time>2020-11-07T11:53:57.547Z</time>
      </trkpt>
      <trkpt lat="47.30256" lon="7.09884">
        <ele>1040.36</ele>
        <time>2020-11-07T11:54:08.940Z</time>
      </trkpt>
      <trkpt lat="47.30253" lon="7.09903">
        <ele>1041.46</ele>
        <time>2020-11-07T11:54:35.242Z</time>
      </trkpt>
      <trkpt lat="47.3025" lon="7.09923">
        <ele>1042.57</ele>
        <time>2020-11-07T11:55:02.130Z</time>
      </trkpt>
      <trkpt lat="47.30245" lon="7.09962">
        <ele>1044.66</ele>
        <time>2020-11-07T11:55:53.289Z</time>
      </trkpt>
      <trkpt lat="47.30244" lon="7.09968">
        <ele>1044.97</ele>
        <time>2020-11-07T11:56:01.026Z</time>
      </trkpt>
      <trkpt lat="47.30244" lon="7.09976">
        <ele>1045.45</ele>
        <time>2020-11-07T11:56:12.315Z</time>
      </trkpt>
      <trkpt lat="47.30246" lon="7.10003">
        <ele>1046.69</ele>
        <time>2020-11-07T11:56:44.651Z</time>
      </trkpt>
      <trkpt lat="47.30246" lon="7.10016">
        <ele>1047.17</ele>
        <time>2020-11-07T11:56:58.784Z</time>
      </trkpt>
      <trkpt lat="47.30246" lon="7.10025">
        <ele>1047.51</ele>
        <time>2020-11-07T11:57:08.652Z</time>
      </trkpt>
      <trkpt lat="47.30247" lon="7.10039">
        <ele>1047.92</ele>
        <time>2020-11-07T11:57:22.659Z</time>
      </trkpt>
      <trkpt lat="47.3025" lon="7.10064">
        <ele>1049.62</ele>
        <time>2020-11-07T11:58:02.027Z</time>
      </trkpt>
      <trkpt lat="47.30249" lon="7.1007">
        <ele>1049.84</ele>
        <time>2020-11-07T11:58:08.657Z</time>
      </trkpt>
      <trkpt lat="47.30247" lon="7.1008">
        <ele>1049.82</ele>
        <time>2020-11-07T11:58:14.689Z</time>
      </trkpt>
      <trkpt lat="47.30244" lon="7.10094">
        <ele>1049.8</ele>
        <time>2020-11-07T11:58:23.286Z</time>
      </trkpt>
      <trkpt lat="47.30232" lon="7.1015">
        <ele>1049.5</ele>
        <time>2020-11-07T11:58:36.931Z</time>
      </trkpt>
      <trkpt lat="47.30222" lon="7.10198">
        <ele>1048.79</ele>
        <time>2020-11-07T11:58:46.793Z</time>
      </trkpt>
      <trkpt lat="47.30209" lon="7.10262">
        <ele>1046.2</ele>
        <time>2020-11-07T11:58:56.023Z</time>
      </trkpt>
      <trkpt lat="47.30206" lon="7.10281">
        <ele>1045.46</ele>
        <time>2020-11-07T11:58:58.745Z</time>
      </trkpt>
      <trkpt lat="47.30204" lon="7.10303">
        <ele>1044.77</ele>
        <time>2020-11-07T11:59:02.124Z</time>
      </trkpt>
      <trkpt lat="47.30203" lon="7.10321">
        <ele>1044.16</ele>
        <time>2020-11-07T11:59:04.779Z</time>
      </trkpt>
      <trkpt lat="47.30203" lon="7.10349">
        <ele>1043.5</ele>
        <time>2020-11-07T11:59:09.514Z</time>
      </trkpt>
      <trkpt lat="47.30204" lon="7.10376">
        <ele>1042.88</ele>
        <time>2020-11-07T11:59:14.130Z</time>
      </trkpt>
      <trkpt lat="47.30206" lon="7.10397">
        <ele>1042.37</ele>
        <time>2020-11-07T11:59:17.690Z</time>
      </trkpt>
      <trkpt lat="47.30208" lon="7.1042">
        <ele>1041.71</ele>
        <time>2020-11-07T11:59:21.348Z</time>
      </trkpt>
      <trkpt lat="47.30211" lon="7.10438">
        <ele>1041.21</ele>
        <time>2020-11-07T11:59:24.332Z</time>
      </trkpt>
      <trkpt lat="47.30214" lon="7.10447">
        <ele>1040.94</ele>
        <time>2020-11-07T11:59:25.948Z</time>
      </trkpt>
      <trkpt lat="47.30219" lon="7.10459">
        <ele>1040.75</ele>
        <time>2020-11-07T11:59:28.746Z</time>
      </trkpt>
      <trkpt lat="47.30228" lon="7.10478">
        <ele>1040.84</ele>
        <time>2020-11-07T11:59:43.509Z</time>
      </trkpt>
      <trkpt lat="47.30241" lon="7.10506">
        <ele>1041.27</ele>
        <time>2020-11-07T12:00:08.221Z</time>
      </trkpt>
      <trkpt lat="47.30253" lon="7.10533">
        <ele>1042.16</ele>
        <time>2020-11-07T12:00:39.268Z</time>
      </trkpt>
      <trkpt lat="47.30262" lon="7.10555">
        <ele>1042.85</ele>
        <time>2020-11-07T12:01:03.604Z</time>
      </trkpt>
      <trkpt lat="47.30268" lon="7.10567">
        <ele>1043.2</ele>
        <time>2020-11-07T12:01:16.781Z</time>
      </trkpt>
      <trkpt lat="47.30275" lon="7.10581">
        <ele>1043.32</ele>
        <time>2020-11-07T12:01:28.359Z</time>
      </trkpt>
      <trkpt lat="47.30281" lon="7.10594">
        <ele>1043.28</ele>
        <time>2020-11-07T12:01:37.335Z</time>
      </trkpt>
      <trkpt lat="47.30288" lon="7.10608">
        <ele>1043.53</ele>
        <time>2020-11-07T12:01:50.363Z</time>
      </trkpt>
      <trkpt lat="47.30309" lon="7.10654">
        <ele>1044.31</ele>
        <time>2020-11-07T12:02:31.685Z</time>
      </trkpt>
      <trkpt lat="47.3032" lon="7.10679">
        <ele>1044.53</ele>
        <time>2020-11-07T12:02:51.665Z</time>
      </trkpt>
      <trkpt lat="47.30332" lon="7.10707">
        <ele>1044.78</ele>
        <time>2020-11-07T12:03:13.927Z</time>
      </trkpt>
      <trkpt lat="47.30345" lon="7.10734">
        <ele>1044.64</ele>
        <time>2020-11-07T12:03:32.171Z</time>
      </trkpt>
      <trkpt lat="47.30348" lon="7.10759">
        <ele>1044.26</ele>
        <time>2020-11-07T12:03:37.088Z</time>
      </trkpt>
      <trkpt lat="47.30354" lon="7.10782">
        <ele>1044.78</ele>
        <time>2020-11-07T12:03:57.891Z</time>
      </trkpt>
      <trkpt lat="47.30369" lon="7.1083">
        <ele>1044.81</ele>
        <time>2020-11-07T12:04:30.038Z</time>
      </trkpt>
      <trkpt lat="47.30371" lon="7.10843">
        <ele>1044.91</ele>
        <time>2020-11-07T12:04:38.991Z</time>
      </trkpt>
      <trkpt lat="47.30373" lon="7.10854">
        <ele>1044.92</ele>
        <time>2020-11-07T12:04:45.948Z</time>
      </trkpt>
      <trkpt lat="47.30373" lon="7.10853">
        <ele>1044.92</ele>
        <time>2020-11-07T12:04:46.551Z</time>
      </trkpt>
      <trkpt lat="47.30374" lon="7.10862">
        <ele>1044.92</ele>
        <time>2020-11-07T12:04:52.056Z</time>
      </trkpt>
      <trkpt lat="47.3038" lon="7.10883">
        <ele>1045.28</ele>
        <time>2020-11-07T12:05:09.541Z</time>
      </trkpt>
      <trkpt lat="47.3038" lon="7.10897">
        <ele>1045.19</ele>
        <time>2020-11-07T12:05:12.709Z</time>
      </trkpt>
      <trkpt lat="47.30385" lon="7.10912">
        <ele>1045.48</ele>
        <time>2020-11-07T12:05:25.886Z</time>
      </trkpt>
      <trkpt lat="47.30393" lon="7.10961">
        <ele>1046.85</ele>
        <time>2020-11-07T12:06:13.956Z</time>
      </trkpt>
      <trkpt lat="47.30392" lon="7.11076">
        <ele>1039.28</ele>
        <time>2020-11-07T12:06:30.050Z</time>
      </trkpt>
      <trkpt lat="47.30395" lon="7.11078">
        <ele>1039.29</ele>
        <time>2020-11-07T12:06:33.065Z</time>
      </trkpt>
      <trkpt lat="47.30399" lon="7.1108">
        <ele>1039.33</ele>
        <time>2020-11-07T12:06:37.181Z</time>
      </trkpt>
      <trkpt lat="47.304" lon="7.11083">
        <ele>1038.39</ele>
        <time>2020-11-07T12:06:37.649Z</time>
      </trkpt>
      <trkpt lat="47.30408" lon="7.11082">
        <ele>1033.87</ele>
        <time>2020-11-07T12:06:39.306Z</time>
      </trkpt>
      <trkpt lat="47.30418" lon="7.11078">
        <ele>1027.95</ele>
        <time>2020-11-07T12:06:41.444Z</time>
      </trkpt>
      <trkpt lat="47.30425" lon="7.11072">
        <ele>1025.19</ele>
        <time>2020-11-07T12:06:43.115Z</time>
      </trkpt>
      <trkpt lat="47.30428" lon="7.11069">
        <ele>1023.56</ele>
        <time>2020-11-07T12:06:43.863Z</time>
      </trkpt>
      <trkpt lat="47.30434" lon="7.11059">
        <ele>1021.24</ele>
        <time>2020-11-07T12:06:45.731Z</time>
      </trkpt>
      <trkpt lat="47.30439" lon="7.11048">
        <ele>1019.15</ele>
        <time>2020-11-07T12:06:47.584Z</time>
      </trkpt>
      <trkpt lat="47.30445" lon="7.11042">
        <ele>1014.73</ele>
        <time>2020-11-07T12:06:49.080Z</time>
      </trkpt>
      <trkpt lat="47.30452" lon="7.11037">
        <ele>1011.34</ele>
        <time>2020-11-07T12:06:50.686Z</time>
      </trkpt>
      <trkpt lat="47.3046" lon="7.11068">
        <ele>1004.29</ele>
        <time>2020-11-07T12:06:55.327Z</time>
      </trkpt>
      <trkpt lat="47.30467" lon="7.11051">
        <ele>1002.81</ele>
        <time>2020-11-07T12:06:58.110Z</time>
      </trkpt>
      <trkpt lat="47.30476" lon="7.11037">
        <ele>1000.27</ele>
        <time>2020-11-07T12:07:00.810Z</time>
      </trkpt>
      <trkpt lat="47.30508" lon="7.11051">
        <ele>987.21</ele>
        <time>2020-11-07T12:07:07.698Z</time>
      </trkpt>
      <trkpt lat="47.30529" lon="7.11063">
        <ele>981.97</ele>
        <time>2020-11-07T12:07:12.345Z</time>
      </trkpt>
      <trkpt lat="47.30535" lon="7.11067">
        <ele>980.51</ele>
        <time>2020-11-07T12:07:13.704Z</time>
      </trkpt>
      <trkpt lat="47.30534" lon="7.11076">
        <ele>979.94</ele>
        <time>2020-11-07T12:07:14.980Z</time>
      </trkpt>
      <trkpt lat="47.30534" lon="7.11087">
        <ele>978.75</ele>
        <time>2020-11-07T12:07:16.520Z</time>
      </trkpt>
      <trkpt lat="47.30536" lon="7.11106">
        <ele>976.62</ele>
        <time>2020-11-07T12:07:19.210Z</time>
      </trkpt>
      <trkpt lat="47.30538" lon="7.11121">
        <ele>975.02</ele>
        <time>2020-11-07T12:07:21.349Z</time>
      </trkpt>
      <trkpt lat="47.30542" lon="7.11132">
        <ele>973.71</ele>
        <time>2020-11-07T12:07:23.096Z</time>
      </trkpt>
      <trkpt lat="47.30535" lon="7.11143">
        <ele>973.25</ele>
        <time>2020-11-07T12:07:25.411Z</time>
      </trkpt>
      <trkpt lat="47.30522" lon="7.11166">
        <ele>972.48</ele>
        <time>2020-11-07T12:07:30.318Z</time>
      </trkpt>
      <trkpt lat="47.30527" lon="7.11177">
        <ele>971.61</ele>
        <time>2020-11-07T12:07:32.171Z</time>
      </trkpt>
      <trkpt lat="47.30529" lon="7.11188">
        <ele>971.12</ele>
        <time>2020-11-07T12:07:33.668Z</time>
      </trkpt>
      <trkpt lat="47.3054" lon="7.11254">
        <ele>967.49</ele>
        <time>2020-11-07T12:07:43.178Z</time>
      </trkpt>
      <trkpt lat="47.30542" lon="7.11266">
        <ele>967.25</ele>
        <time>2020-11-07T12:07:45.404Z</time>
      </trkpt>
      <trkpt lat="47.30535" lon="7.1127">
        <ele>967.05</ele>
        <time>2020-11-07T12:07:47.441Z</time>
      </trkpt>
      <trkpt lat="47.30533" lon="7.11272">
        <ele>966.88</ele>
        <time>2020-11-07T12:07:47.940Z</time>
      </trkpt>
      <trkpt lat="47.30511" lon="7.11292">
        <ele>964.51</ele>
        <time>2020-11-07T12:07:53.273Z</time>
      </trkpt>
      <trkpt lat="47.30505" lon="7.11296">
        <ele>963.85</ele>
        <time>2020-11-07T12:07:54.632Z</time>
      </trkpt>
      <trkpt lat="47.30501" lon="7.11298">
        <ele>963.38</ele>
        <time>2020-11-07T12:07:55.503Z</time>
      </trkpt>
      <trkpt lat="47.30496" lon="7.11298">
        <ele>962.81</ele>
        <time>2020-11-07T12:07:56.535Z</time>
      </trkpt>
      <trkpt lat="47.30491" lon="7.11296">
        <ele>962.34</ele>
        <time>2020-11-07T12:07:57.604Z</time>
      </trkpt>
      <trkpt lat="47.30482" lon="7.1129">
        <ele>961.3</ele>
        <time>2020-11-07T12:07:59.642Z</time>
      </trkpt>
      <trkpt lat="47.30468" lon="7.11281">
        <ele>959.52</ele>
        <time>2020-11-07T12:08:02.794Z</time>
      </trkpt>
      <trkpt lat="47.30457" lon="7.11274">
        <ele>958.39</ele>
        <time>2020-11-07T12:08:05.266Z</time>
      </trkpt>
      <trkpt lat="47.30452" lon="7.11273">
        <ele>958.01</ele>
        <time>2020-11-07T12:08:06.308Z</time>
      </trkpt>
      <trkpt lat="47.30447" lon="7.11274">
        <ele>957.44</ele>
        <time>2020-11-07T12:08:07.349Z</time>
      </trkpt>
      <trkpt lat="47.30442" lon="7.11277">
        <ele>956.97</ele>
        <time>2020-11-07T12:08:08.463Z</time>
      </trkpt>
      <trkpt lat="47.30437" lon="7.11282">
        <ele>956.22</ele>
        <time>2020-11-07T12:08:09.710Z</time>
      </trkpt>
      <trkpt lat="47.30433" lon="7.11289">
        <ele>955.84</ele>
        <time>2020-11-07T12:08:10.934Z</time>
      </trkpt>
      <trkpt lat="47.30428" lon="7.113">
        <ele>955.09</ele>
        <time>2020-11-07T12:08:12.787Z</time>
      </trkpt>
      <trkpt lat="47.30425" lon="7.11309">
        <ele>954.62</ele>
        <time>2020-11-07T12:08:14.190Z</time>
      </trkpt>
      <trkpt lat="47.30422" lon="7.11317">
        <ele>954.34</ele>
        <time>2020-11-07T12:08:15.590Z</time>
      </trkpt>
      <trkpt lat="47.3042" lon="7.11327">
        <ele>953.96</ele>
        <time>2020-11-07T12:08:17.072Z</time>
      </trkpt>
      <trkpt lat="47.30419" lon="7.11337">
        <ele>953.58</ele>
        <time>2020-11-07T12:08:18.488Z</time>
      </trkpt>
      <trkpt lat="47.30418" lon="7.11367">
        <ele>952.45</ele>
        <time>2020-11-07T12:08:22.696Z</time>
      </trkpt>
      <trkpt lat="47.30416" lon="7.11379">
        <ele>952.17</ele>
        <time>2020-11-07T12:08:24.813Z</time>
      </trkpt>
      <trkpt lat="47.30413" lon="7.11395">
        <ele>951.61</ele>
        <time>2020-11-07T12:08:27.255Z</time>
      </trkpt>
      <trkpt lat="47.3041" lon="7.1141">
        <ele>951.23</ele>
        <time>2020-11-07T12:08:29.871Z</time>
      </trkpt>
      <trkpt lat="47.30405" lon="7.11431">
        <ele>950.38</ele>
        <time>2020-11-07T12:08:32.967Z</time>
      </trkpt>
      <trkpt lat="47.304" lon="7.11458">
        <ele>950.48</ele>
        <time>2020-11-07T12:08:50.717Z</time>
      </trkpt>
      <trkpt lat="47.30397" lon="7.11481">
        <ele>949.65</ele>
        <time>2020-11-07T12:08:54.087Z</time>
      </trkpt>
      <trkpt lat="47.30394" lon="7.11503">
        <ele>949.3</ele>
        <time>2020-11-07T12:08:58.387Z</time>
      </trkpt>
      <trkpt lat="47.30391" lon="7.11543">
        <ele>948.86</ele>
        <time>2020-11-07T12:09:06.750Z</time>
      </trkpt>
      <trkpt lat="47.30391" lon="7.11545">
        <ele>948.88</ele>
        <time>2020-11-07T12:09:08.146Z</time>
      </trkpt>
      <trkpt lat="47.30391" lon="7.11545">
        <ele>948.88</ele>
        <time>2020-11-07T12:09:08.146Z</time>
      </trkpt>
      <trkpt lat="47.30388" lon="7.11585">
        <ele>948.9</ele>
        <time>2020-11-07T12:09:32.600Z</time>
      </trkpt>
      <trkpt lat="47.30387" lon="7.11617">
        <ele>948.96</ele>
        <time>2020-11-07T12:09:52.437Z</time>
      </trkpt>
      <trkpt lat="47.30385" lon="7.11628">
        <ele>948.94</ele>
        <time>2020-11-07T12:09:59.049Z</time>
      </trkpt>
      <trkpt lat="47.30383" lon="7.11637">
        <ele>948.9</ele>
        <time>2020-11-07T12:10:04.267Z</time>
      </trkpt>
      <trkpt lat="47.3038" lon="7.11644">
        <ele>948.92</ele>
        <time>2020-11-07T12:10:09.434Z</time>
      </trkpt>
      <trkpt lat="47.30376" lon="7.11649">
        <ele>948.94</ele>
        <time>2020-11-07T12:10:14.270Z</time>
      </trkpt>
      <trkpt lat="47.3037" lon="7.11654">
        <ele>948.98</ele>
        <time>2020-11-07T12:10:20.749Z</time>
      </trkpt>
      <trkpt lat="47.30364" lon="7.11659">
        <ele>948.88</ele>
        <time>2020-11-07T12:10:22.903Z</time>
      </trkpt>
      <trkpt lat="47.3035" lon="7.11667">
        <ele>948.77</ele>
        <time>2020-11-07T12:10:28.062Z</time>
      </trkpt>
      <trkpt lat="47.30335" lon="7.11678">
        <ele>948.61</ele>
        <time>2020-11-07T12:10:33.647Z</time>
      </trkpt>
      <trkpt lat="47.30318" lon="7.1169">
        <ele>948.39</ele>
        <time>2020-11-07T12:10:39.757Z</time>
      </trkpt>
      <trkpt lat="47.30299" lon="7.11704">
        <ele>948.2</ele>
        <time>2020-11-07T12:10:46.895Z</time>
      </trkpt>
      <trkpt lat="47.30282" lon="7.11716">
        <ele>947.89</ele>
        <time>2020-11-07T12:10:52.648Z</time>
      </trkpt>
      <trkpt lat="47.30263" lon="7.1173">
        <ele>947.21</ele>
        <time>2020-11-07T12:10:58.094Z</time>
      </trkpt>
      <trkpt lat="47.30249" lon="7.11742">
        <ele>946.47</ele>
        <time>2020-11-07T12:11:01.733Z</time>
      </trkpt>
      <trkpt lat="47.30241" lon="7.11749">
        <ele>946.04</ele>
        <time>2020-11-07T12:11:03.815Z</time>
      </trkpt>
      <trkpt lat="47.30233" lon="7.11758">
        <ele>945.47</ele>
        <time>2020-11-07T12:11:05.873Z</time>
      </trkpt>
      <trkpt lat="47.30228" lon="7.11767">
        <ele>945.05</ele>
        <time>2020-11-07T12:11:07.534Z</time>
      </trkpt>
      <trkpt lat="47.30224" lon="7.11776">
        <ele>944.44</ele>
        <time>2020-11-07T12:11:09.040Z</time>
      </trkpt>
      <trkpt lat="47.30221" lon="7.11785">
        <ele>943.96</ele>
        <time>2020-11-07T12:11:10.443Z</time>
      </trkpt>
      <trkpt lat="47.30218" lon="7.11792">
        <ele>943.77</ele>
        <time>2020-11-07T12:11:11.856Z</time>
      </trkpt>
      <trkpt lat="47.30215" lon="7.11806">
        <ele>943.42</ele>
        <time>2020-11-07T12:11:14.329Z</time>
      </trkpt>
      <trkpt lat="47.30213" lon="7.11816">
        <ele>943.11</ele>
        <time>2020-11-07T12:11:15.945Z</time>
      </trkpt>
      <trkpt lat="47.30212" lon="7.11826">
        <ele>942.75</ele>
        <time>2020-11-07T12:11:17.397Z</time>
      </trkpt>
      <trkpt lat="47.30211" lon="7.11841">
        <ele>942.31</ele>
        <time>2020-11-07T12:11:19.751Z</time>
      </trkpt>
      <trkpt lat="47.30211" lon="7.11853">
        <ele>941.86</ele>
        <time>2020-11-07T12:11:21.434Z</time>
      </trkpt>
      <trkpt lat="47.30209" lon="7.11862">
        <ele>941.75</ele>
        <time>2020-11-07T12:11:23.378Z</time>
      </trkpt>
      <trkpt lat="47.30207" lon="7.11869">
        <ele>941.31</ele>
        <time>2020-11-07T12:11:24.441Z</time>
      </trkpt>
      <trkpt lat="47.30204" lon="7.11874">
        <ele>940.98</ele>
        <time>2020-11-07T12:11:25.376Z</time>
      </trkpt>
      <trkpt lat="47.302" lon="7.11878">
        <ele>940.93</ele>
        <time>2020-11-07T12:11:26.970Z</time>
      </trkpt>
      <trkpt lat="47.30195" lon="7.1188">
        <ele>940.69</ele>
        <time>2020-11-07T12:11:28.128Z</time>
      </trkpt>
      <trkpt lat="47.30191" lon="7.11879">
        <ele>940.37</ele>
        <time>2020-11-07T12:11:28.965Z</time>
      </trkpt>
      <trkpt lat="47.30186" lon="7.11878">
        <ele>940.1</ele>
        <time>2020-11-07T12:11:30.025Z</time>
      </trkpt>
      <trkpt lat="47.30182" lon="7.11886">
        <ele>939.72</ele>
        <time>2020-11-07T12:11:31.407Z</time>
      </trkpt>
      <trkpt lat="47.30178" lon="7.11898">
        <ele>938.04</ele>
        <time>2020-11-07T12:11:33.278Z</time>
      </trkpt>
      <trkpt lat="47.30172" lon="7.11919">
        <ele>935.23</ele>
        <time>2020-11-07T12:11:36.467Z</time>
      </trkpt>
      <trkpt lat="47.30164" lon="7.11944">
        <ele>931.99</ele>
        <time>2020-11-07T12:11:40.335Z</time>
      </trkpt>
      <trkpt lat="47.30152" lon="7.11975">
        <ele>927.06</ele>
        <time>2020-11-07T12:11:45.331Z</time>
      </trkpt>
      <trkpt lat="47.30145" lon="7.1199">
        <ele>923.82</ele>
        <time>2020-11-07T12:11:47.879Z</time>
      </trkpt>
      <trkpt lat="47.3014" lon="7.12003">
        <ele>921.72</ele>
        <time>2020-11-07T12:11:49.970Z</time>
      </trkpt>
      <trkpt lat="47.30129" lon="7.12039">
        <ele>915.48</ele>
        <time>2020-11-07T12:11:55.496Z</time>
      </trkpt>
      <trkpt lat="47.30122" lon="7.12065">
        <ele>910.99</ele>
        <time>2020-11-07T12:11:59.411Z</time>
      </trkpt>
      <trkpt lat="47.30109" lon="7.12107">
        <ele>903.95</ele>
        <time>2020-11-07T12:12:05.872Z</time>
      </trkpt>
      <trkpt lat="47.30094" lon="7.12157">
        <ele>895.98</ele>
        <time>2020-11-07T12:12:13.523Z</time>
      </trkpt>
      <trkpt lat="47.30089" lon="7.12174">
        <ele>893.52</ele>
        <time>2020-11-07T12:12:16.116Z</time>
      </trkpt>
      <trkpt lat="47.30084" lon="7.12195">
        <ele>890.4</ele>
        <time>2020-11-07T12:12:19.231Z</time>
      </trkpt>
      <trkpt lat="47.30076" lon="7.12233">
        <ele>884.71</ele>
        <time>2020-11-07T12:12:24.799Z</time>
      </trkpt>
      <trkpt lat="47.30074" lon="7.12238">
        <ele>883.57</ele>
        <time>2020-11-07T12:12:25.612Z</time>
      </trkpt>
      <trkpt lat="47.3007" lon="7.12241">
        <ele>882.79</ele>
        <time>2020-11-07T12:12:26.538Z</time>
      </trkpt>
      <trkpt lat="47.30067" lon="7.12241">
        <ele>882.47</ele>
        <time>2020-11-07T12:12:27.157Z</time>
      </trkpt>
      <trkpt lat="47.30064" lon="7.12274">
        <ele>880.62</ele>
        <time>2020-11-07T12:12:31.816Z</time>
      </trkpt>
      <trkpt lat="47.30053" lon="7.12285">
        <ele>875.71</ele>
        <time>2020-11-07T12:12:34.559Z</time>
      </trkpt>
      <trkpt lat="47.30045" lon="7.12295">
        <ele>871.25</ele>
        <time>2020-11-07T12:12:36.723Z</time>
      </trkpt>
      <trkpt lat="47.30034" lon="7.12313">
        <ele>866.72</ele>
        <time>2020-11-07T12:12:40.114Z</time>
      </trkpt>
      <trkpt lat="47.30025" lon="7.12331">
        <ele>863.6</ele>
        <time>2020-11-07T12:12:43.244Z</time>
      </trkpt>
      <trkpt lat="47.30016" lon="7.12331">
        <ele>860.12</ele>
        <time>2020-11-07T12:12:45.101Z</time>
      </trkpt>
      <trkpt lat="47.30007" lon="7.12338">
        <ele>857.15</ele>
        <time>2020-11-07T12:12:47.201Z</time>
      </trkpt>
      <trkpt lat="47.29996" lon="7.12351">
        <ele>853.6</ele>
        <time>2020-11-07T12:12:50.110Z</time>
      </trkpt>
      <trkpt lat="47.29986" lon="7.12362">
        <ele>850.38</ele>
        <time>2020-11-07T12:12:52.685Z</time>
      </trkpt>
      <trkpt lat="47.29978" lon="7.12374">
        <ele>847.4</ele>
        <time>2020-11-07T12:12:55.040Z</time>
      </trkpt>
      <trkpt lat="47.2997" lon="7.12384">
        <ele>844.05</ele>
        <time>2020-11-07T12:12:57.204Z</time>
      </trkpt>
      <trkpt lat="47.29971" lon="7.12395">
        <ele>843.16</ele>
        <time>2020-11-07T12:12:58.757Z</time>
      </trkpt>
      <trkpt lat="47.29967" lon="7.1241">
        <ele>841.23</ele>
        <time>2020-11-07T12:13:01.013Z</time>
      </trkpt>
      <trkpt lat="47.2996" lon="7.12425">
        <ele>837.97</ele>
        <time>2020-11-07T12:13:03.561Z</time>
      </trkpt>
      <trkpt lat="47.29948" lon="7.12436">
        <ele>833.96</ele>
        <time>2020-11-07T12:13:06.477Z</time>
      </trkpt>
      <trkpt lat="47.29938" lon="7.12447">
        <ele>830.49</ele>
        <time>2020-11-07T12:13:09.052Z</time>
      </trkpt>
      <trkpt lat="47.29931" lon="7.12453">
        <ele>828.12</ele>
        <time>2020-11-07T12:13:10.722Z</time>
      </trkpt>
      <trkpt lat="47.29925" lon="7.12456">
        <ele>826.51</ele>
        <time>2020-11-07T12:13:12.030Z</time>
      </trkpt>
      <trkpt lat="47.29923" lon="7.12464">
        <ele>824.73</ele>
        <time>2020-11-07T12:13:13.223Z</time>
      </trkpt>
      <trkpt lat="47.29917" lon="7.12486">
        <ele>823.88</ele>
        <time>2020-11-07T12:13:16.619Z</time>
      </trkpt>
      <trkpt lat="47.29915" lon="7.1244">
        <ele>821.37</ele>
        <time>2020-11-07T12:13:23.070Z</time>
      </trkpt>
      <trkpt lat="47.29916" lon="7.12426">
        <ele>820.53</ele>
        <time>2020-11-07T12:13:25.040Z</time>
      </trkpt>
      <trkpt lat="47.29917" lon="7.12414">
        <ele>819.75</ele>
        <time>2020-11-07T12:13:26.732Z</time>
      </trkpt>
      <trkpt lat="47.2992" lon="7.12378">
        <ele>817.69</ele>
        <time>2020-11-07T12:13:31.808Z</time>
      </trkpt>
      <trkpt lat="47.29921" lon="7.12364">
        <ele>816.98</ele>
        <time>2020-11-07T12:13:33.778Z</time>
      </trkpt>
      <trkpt lat="47.29921" lon="7.12355">
        <ele>816.48</ele>
        <time>2020-11-07T12:13:35.037Z</time>
      </trkpt>
      <trkpt lat="47.2992" lon="7.12347">
        <ele>816.04</ele>
        <time>2020-11-07T12:13:36.176Z</time>
      </trkpt>
      <trkpt lat="47.29918" lon="7.12341">
        <ele>815.62</ele>
        <time>2020-11-07T12:13:37.112Z</time>
      </trkpt>
      <trkpt lat="47.29914" lon="7.12336">
        <ele>815.13</ele>
        <time>2020-11-07T12:13:38.194Z</time>
      </trkpt>
      <trkpt lat="47.29911" lon="7.12334">
        <ele>814.72</ele>
        <time>2020-11-07T12:13:38.873Z</time>
      </trkpt>
      <trkpt lat="47.29907" lon="7.12333">
        <ele>814.27</ele>
        <time>2020-11-07T12:13:39.710Z</time>
      </trkpt>
      <trkpt lat="47.29903" lon="7.12333">
        <ele>813.82</ele>
        <time>2020-11-07T12:13:40.536Z</time>
      </trkpt>
      <trkpt lat="47.29899" lon="7.12334">
        <ele>813.43</ele>
        <time>2020-11-07T12:13:41.373Z</time>
      </trkpt>
      <trkpt lat="47.29895" lon="7.12337">
        <ele>812.94</ele>
        <time>2020-11-07T12:13:42.299Z</time>
      </trkpt>
      <trkpt lat="47.29888" lon="7.12347">
        <ele>811.89</ele>
        <time>2020-11-07T12:13:44.310Z</time>
      </trkpt>
      <trkpt lat="47.29881" lon="7.12359">
        <ele>810.74</ele>
        <time>2020-11-07T12:13:46.526Z</time>
      </trkpt>
      <trkpt lat="47.29869" lon="7.12377">
        <ele>809</ele>
        <time>2020-11-07T12:13:50.058Z</time>
      </trkpt>
      <trkpt lat="47.29861" lon="7.1239">
        <ele>807.88</ele>
        <time>2020-11-07T12:13:52.515Z</time>
      </trkpt>
      <trkpt lat="47.29856" lon="7.12399">
        <ele>807.07</ele>
        <time>2020-11-07T12:13:54.143Z</time>
      </trkpt>
      <trkpt lat="47.29851" lon="7.1241">
        <ele>806.04</ele>
        <time>2020-11-07T12:13:55.996Z</time>
      </trkpt>
      <trkpt lat="47.29846" lon="7.12422">
        <ele>805.04</ele>
        <time>2020-11-07T12:13:57.967Z</time>
      </trkpt>
      <trkpt lat="47.29835" lon="7.12458">
        <ele>801.99</ele>
        <time>2020-11-07T12:14:03.493Z</time>
      </trkpt>
      <trkpt lat="47.29829" lon="7.12474">
        <ele>800.8</ele>
        <time>2020-11-07T12:14:06.052Z</time>
      </trkpt>
      <trkpt lat="47.29819" lon="7.12494">
        <ele>800.38</ele>
        <time>2020-11-07T12:14:10.712Z</time>
      </trkpt>
      <trkpt lat="47.2981" lon="7.12513">
        <ele>800.88</ele>
        <time>2020-11-07T12:14:30.455Z</time>
      </trkpt>
      <trkpt lat="47.29801" lon="7.12529">
        <ele>801.61</ele>
        <time>2020-11-07T12:14:52.655Z</time>
      </trkpt>
      <trkpt lat="47.29792" lon="7.12547">
        <ele>802.09</ele>
        <time>2020-11-07T12:15:11.666Z</time>
      </trkpt>
      <trkpt lat="47.29787" lon="7.12561">
        <ele>802.43</ele>
        <time>2020-11-07T12:15:25.122Z</time>
      </trkpt>
      <trkpt lat="47.2978" lon="7.12575">
        <ele>802.99</ele>
        <time>2020-11-07T12:15:43.182Z</time>
      </trkpt>
      <trkpt lat="47.29776" lon="7.12581">
        <ele>803.42</ele>
        <time>2020-11-07T12:15:53.833Z</time>
      </trkpt>
      <trkpt lat="47.29771" lon="7.12583">
        <ele>803.62</ele>
        <time>2020-11-07T12:16:00.967Z</time>
      </trkpt>
      <trkpt lat="47.29766" lon="7.12583">
        <ele>803.85</ele>
        <time>2020-11-07T12:16:08.550Z</time>
      </trkpt>
      <trkpt lat="47.29761" lon="7.12581">
        <ele>803.96</ele>
        <time>2020-11-07T12:16:14.274Z</time>
      </trkpt>
      <trkpt lat="47.29756" lon="7.12576">
        <ele>804.32</ele>
        <time>2020-11-07T12:16:24.307Z</time>
      </trkpt>
      <trkpt lat="47.29752" lon="7.12568">
        <ele>804.6</ele>
        <time>2020-11-07T12:16:33.992Z</time>
      </trkpt>
      <trkpt lat="47.29749" lon="7.12561">
        <ele>804.84</ele>
        <time>2020-11-07T12:16:42.206Z</time>
      </trkpt>
      <trkpt lat="47.29747" lon="7.12553">
        <ele>805.11</ele>
        <time>2020-11-07T12:16:51.015Z</time>
      </trkpt>
      <trkpt lat="47.29746" lon="7.12542">
        <ele>805.32</ele>
        <time>2020-11-07T12:17:00.014Z</time>
      </trkpt>
      <trkpt lat="47.29746" lon="7.12532">
        <ele>805.52</ele>
        <time>2020-11-07T12:17:08.284Z</time>
      </trkpt>
      <trkpt lat="47.29746" lon="7.1252">
        <ele>805.79</ele>
        <time>2020-11-07T12:17:18.691Z</time>
      </trkpt>
      <trkpt lat="47.29747" lon="7.12508">
        <ele>805.92</ele>
        <time>2020-11-07T12:17:27.229Z</time>
      </trkpt>
      <trkpt lat="47.29749" lon="7.12493">
        <ele>806.07</ele>
        <time>2020-11-07T12:17:37.867Z</time>
      </trkpt>
      <trkpt lat="47.2975" lon="7.12482">
        <ele>806.19</ele>
        <time>2020-11-07T12:17:45.712Z</time>
      </trkpt>
      <trkpt lat="47.2975" lon="7.12472">
        <ele>806.52</ele>
        <time>2020-11-07T12:17:56.175Z</time>
      </trkpt>
      <trkpt lat="47.29749" lon="7.12463">
        <ele>806.39</ele>
        <time>2020-11-07T12:17:57.963Z</time>
      </trkpt>
      <trkpt lat="47.29746" lon="7.12454">
        <ele>806.78</ele>
        <time>2020-11-07T12:18:09.083Z</time>
      </trkpt>
      <trkpt lat="47.29743" lon="7.12449">
        <ele>806.91</ele>
        <time>2020-11-07T12:18:14.551Z</time>
      </trkpt>
      <trkpt lat="47.29739" lon="7.12445">
        <ele>806.97</ele>
        <time>2020-11-07T12:18:19.405Z</time>
      </trkpt>
      <trkpt lat="47.29735" lon="7.12441">
        <ele>806.91</ele>
        <time>2020-11-07T12:18:20.957Z</time>
      </trkpt>
      <trkpt lat="47.29729" lon="7.12438">
        <ele>806.65</ele>
        <time>2020-11-07T12:18:22.443Z</time>
      </trkpt>
      <trkpt lat="47.29718" lon="7.12434">
        <ele>805.94</ele>
        <time>2020-11-07T12:18:24.652Z</time>
      </trkpt>
      <trkpt lat="47.29713" lon="7.12431">
        <ele>805.71</ele>
        <time>2020-11-07T12:18:25.900Z</time>
      </trkpt>
      <trkpt lat="47.2971" lon="7.12441">
        <ele>804.59</ele>
        <time>2020-11-07T12:18:27.430Z</time>
      </trkpt>
      <trkpt lat="47.29707" lon="7.1245">
        <ele>802.31</ele>
        <time>2020-11-07T12:18:28.834Z</time>
      </trkpt>
      <trkpt lat="47.29705" lon="7.12457">
        <ele>801.4</ele>
        <time>2020-11-07T12:18:29.897Z</time>
      </trkpt>
      <trkpt lat="47.29704" lon="7.12461">
        <ele>800.69</ele>
        <time>2020-11-07T12:18:30.494Z</time>
      </trkpt>
      <trkpt lat="47.297" lon="7.12467">
        <ele>798.63</ele>
        <time>2020-11-07T12:18:31.671Z</time>
      </trkpt>
      <trkpt lat="47.29696" lon="7.12474">
        <ele>797.08</ele>
        <time>2020-11-07T12:18:32.952Z</time>
      </trkpt>
      <trkpt lat="47.2969" lon="7.12486">
        <ele>795.09</ele>
        <time>2020-11-07T12:18:35.039Z</time>
      </trkpt>
      <trkpt lat="47.29683" lon="7.12494">
        <ele>793.01</ele>
        <time>2020-11-07T12:18:36.866Z</time>
      </trkpt>
      <trkpt lat="47.29675" lon="7.12501">
        <ele>790.87</ele>
        <time>2020-11-07T12:18:38.786Z</time>
      </trkpt>
      <trkpt lat="47.29672" lon="7.12509">
        <ele>788.76</ele>
        <time>2020-11-07T12:18:40.066Z</time>
      </trkpt>
      <trkpt lat="47.2967" lon="7.12514">
        <ele>787.45</ele>
        <time>2020-11-07T12:18:40.878Z</time>
      </trkpt>
      <trkpt lat="47.29663" lon="7.12522">
        <ele>785.11</ele>
        <time>2020-11-07T12:18:42.706Z</time>
      </trkpt>
      <trkpt lat="47.29655" lon="7.12532">
        <ele>781.83</ele>
        <time>2020-11-07T12:18:44.870Z</time>
      </trkpt>
      <trkpt lat="47.29647" lon="7.12541">
        <ele>778.45</ele>
        <time>2020-11-07T12:18:46.947Z</time>
      </trkpt>
      <trkpt lat="47.29639" lon="7.12549">
        <ele>775.52</ele>
        <time>2020-11-07T12:18:48.941Z</time>
      </trkpt>
      <trkpt lat="47.29629" lon="7.1256">
        <ele>772.26</ele>
        <time>2020-11-07T12:18:51.516Z</time>
      </trkpt>
      <trkpt lat="47.29622" lon="7.12566">
        <ele>769.89</ele>
        <time>2020-11-07T12:18:53.187Z</time>
      </trkpt>
      <trkpt lat="47.29618" lon="7.12573">
        <ele>766.58</ele>
        <time>2020-11-07T12:18:54.468Z</time>
      </trkpt>
      <trkpt lat="47.29615" lon="7.1258">
        <ele>765.77</ele>
        <time>2020-11-07T12:18:55.627Z</time>
      </trkpt>
      <trkpt lat="47.29613" lon="7.12586">
        <ele>763.72</ele>
        <time>2020-11-07T12:18:56.563Z</time>
      </trkpt>
      <trkpt lat="47.2961" lon="7.12591">
        <ele>763.07</ele>
        <time>2020-11-07T12:18:57.497Z</time>
      </trkpt>
      <trkpt lat="47.29607" lon="7.12587">
        <ele>764.02</ele>
        <time>2020-11-07T12:19:11.383Z</time>
      </trkpt>
      <trkpt lat="47.29605" lon="7.12582">
        <ele>765.39</ele>
        <time>2020-11-07T12:19:24.899Z</time>
      </trkpt>
      <trkpt lat="47.29604" lon="7.12573">
        <ele>767.37</ele>
        <time>2020-11-07T12:19:46.134Z</time>
      </trkpt>
      <trkpt lat="47.29602" lon="7.12564">
        <ele>768.66</ele>
        <time>2020-11-07T12:20:08.186Z</time>
      </trkpt>
      <trkpt lat="47.29601" lon="7.12556">
        <ele>770.12</ele>
        <time>2020-11-07T12:20:27.128Z</time>
      </trkpt>
      <trkpt lat="47.296" lon="7.1255">
        <ele>770.98</ele>
        <time>2020-11-07T12:20:41.514Z</time>
      </trkpt>
      <trkpt lat="47.29595" lon="7.12545">
        <ele>771.95</ele>
        <time>2020-11-07T12:21:02.255Z</time>
      </trkpt>
      <trkpt lat="47.29595" lon="7.12535">
        <ele>771.98</ele>
        <time>2020-11-07T12:21:08.547Z</time>
      </trkpt>
      <trkpt lat="47.29594" lon="7.12518">
        <ele>772.76</ele>
        <time>2020-11-07T12:21:28.876Z</time>
      </trkpt>
      <trkpt lat="47.29591" lon="7.12504">
        <ele>773.08</ele>
        <time>2020-11-07T12:21:41.436Z</time>
      </trkpt>
      <trkpt lat="47.29587" lon="7.12489">
        <ele>773.08</ele>
        <time>2020-11-07T12:21:51.166Z</time>
      </trkpt>
      <trkpt lat="47.29582" lon="7.12477">
        <ele>772.67</ele>
        <time>2020-11-07T12:21:53.368Z</time>
      </trkpt>
      <trkpt lat="47.29571" lon="7.12456">
        <ele>773.03</ele>
        <time>2020-11-07T12:22:12.980Z</time>
      </trkpt>
      <trkpt lat="47.2957" lon="7.12451">
        <ele>773.03</ele>
        <time>2020-11-07T12:22:16.126Z</time>
      </trkpt>
      <trkpt lat="47.29569" lon="7.12446">
        <ele>772.63</ele>
        <time>2020-11-07T12:22:16.856Z</time>
      </trkpt>
      <trkpt lat="47.29569" lon="7.12438">
        <ele>772.58</ele>
        <time>2020-11-07T12:22:18.673Z</time>
      </trkpt>
      <trkpt lat="47.29567" lon="7.12433">
        <ele>772.62</ele>
        <time>2020-11-07T12:22:22.537Z</time>
      </trkpt>
      <trkpt lat="47.29565" lon="7.12429">
        <ele>772.52</ele>
        <time>2020-11-07T12:22:23.422Z</time>
      </trkpt>
      <trkpt lat="47.29563" lon="7.12426">
        <ele>772.6</ele>
        <time>2020-11-07T12:22:26.839Z</time>
      </trkpt>
      <trkpt lat="47.29561" lon="7.12423">
        <ele>772.58</ele>
        <time>2020-11-07T12:22:29.132Z</time>
      </trkpt>
      <trkpt lat="47.2956" lon="7.12421">
        <ele>772.69</ele>
        <time>2020-11-07T12:22:32.047Z</time>
      </trkpt>
      <trkpt lat="47.29558" lon="7.12418">
        <ele>772.63</ele>
        <time>2020-11-07T12:22:32.871Z</time>
      </trkpt>
      <trkpt lat="47.29557" lon="7.12413">
        <ele>772.6</ele>
        <time>2020-11-07T12:22:34.067Z</time>
      </trkpt>
      <trkpt lat="47.29557" lon="7.12408">
        <ele>772.36</ele>
        <time>2020-11-07T12:22:34.767Z</time>
      </trkpt>
      <trkpt lat="47.29556" lon="7.12403">
        <ele>772.36</ele>
        <time>2020-11-07T12:22:37.914Z</time>
      </trkpt>
      <trkpt lat="47.29555" lon="7.12389">
        <ele>772.52</ele>
        <time>2020-11-07T12:22:47.953Z</time>
      </trkpt>
      <trkpt lat="47.29553" lon="7.12383">
        <ele>772.75</ele>
        <time>2020-11-07T12:22:55.044Z</time>
      </trkpt>
      <trkpt lat="47.29552" lon="7.12378">
        <ele>772.89</ele>
        <time>2020-11-07T12:22:59.981Z</time>
      </trkpt>
      <trkpt lat="47.29549" lon="7.12373">
        <ele>772.89</ele>
        <time>2020-11-07T12:23:04.011Z</time>
      </trkpt>
      <trkpt lat="47.29547" lon="7.1237">
        <ele>773.01</ele>
        <time>2020-11-07T12:23:08.142Z</time>
      </trkpt>
      <trkpt lat="47.29543" lon="7.12367">
        <ele>772.94</ele>
        <time>2020-11-07T12:23:09.527Z</time>
      </trkpt>
      <trkpt lat="47.29534" lon="7.12363">
        <ele>773.89</ele>
        <time>2020-11-07T12:23:31.512Z</time>
      </trkpt>
      <trkpt lat="47.29528" lon="7.12358">
        <ele>774.75</ele>
        <time>2020-11-07T12:23:52.544Z</time>
      </trkpt>
      <trkpt lat="47.29523" lon="7.12351">
        <ele>775.04</ele>
        <time>2020-11-07T12:24:02.527Z</time>
      </trkpt>
      <trkpt lat="47.29517" lon="7.12338">
        <ele>774.56</ele>
        <time>2020-11-07T12:24:04.939Z</time>
      </trkpt>
      <trkpt lat="47.29514" lon="7.12327">
        <ele>773.73</ele>
        <time>2020-11-07T12:24:06.599Z</time>
      </trkpt>
      <trkpt lat="47.29513" lon="7.12314">
        <ele>773.54</ele>
        <time>2020-11-07T12:24:09.152Z</time>
      </trkpt>
      <trkpt lat="47.29509" lon="7.12302">
        <ele>772.84</ele>
        <time>2020-11-07T12:24:11.023Z</time>
      </trkpt>
      <trkpt lat="47.29508" lon="7.1229">
        <ele>773.05</ele>
        <time>2020-11-07T12:24:20.559Z</time>
      </trkpt>
      <trkpt lat="47.29506" lon="7.1228">
        <ele>773.32</ele>
        <time>2020-11-07T12:24:30.238Z</time>
      </trkpt>
      <trkpt lat="47.29503" lon="7.12268">
        <ele>773.67</ele>
        <time>2020-11-07T12:24:42.485Z</time>
      </trkpt>
      <trkpt lat="47.29502" lon="7.12258">
        <ele>773.77</ele>
        <time>2020-11-07T12:24:49.528Z</time>
      </trkpt>
      <trkpt lat="47.295" lon="7.12253">
        <ele>773.64</ele>
        <time>2020-11-07T12:24:50.527Z</time>
      </trkpt>
      <trkpt lat="47.29498" lon="7.12245">
        <ele>773.71</ele>
        <time>2020-11-07T12:24:56.316Z</time>
      </trkpt>
      <trkpt lat="47.29498" lon="7.12241">
        <ele>773.7</ele>
        <time>2020-11-07T12:24:58.602Z</time>
      </trkpt>
      <trkpt lat="47.29499" lon="7.12235">
        <ele>773.96</ele>
        <time>2020-11-07T12:25:05.682Z</time>
      </trkpt>
      <trkpt lat="47.29499" lon="7.12226">
        <ele>773.87</ele>
        <time>2020-11-07T12:25:07.585Z</time>
      </trkpt>
      <trkpt lat="47.29498" lon="7.12214">
        <ele>774.33</ele>
        <time>2020-11-07T12:25:20.878Z</time>
      </trkpt>
      <trkpt lat="47.29497" lon="7.12204">
        <ele>774.58</ele>
        <time>2020-11-07T12:25:30.041Z</time>
      </trkpt>
      <trkpt lat="47.29497" lon="7.122">
        <ele>774.66</ele>
        <time>2020-11-07T12:25:33.349Z</time>
      </trkpt>
      <trkpt lat="47.29499" lon="7.12195">
        <ele>774.81</ele>
        <time>2020-11-07T12:25:38.732Z</time>
      </trkpt>
      <trkpt lat="47.29499" lon="7.12189">
        <ele>774.77</ele>
        <time>2020-11-07T12:25:40.084Z</time>
      </trkpt>
      <trkpt lat="47.29499" lon="7.12185">
        <ele>774.94</ele>
        <time>2020-11-07T12:25:44.688Z</time>
      </trkpt>
      <trkpt lat="47.29497" lon="7.12178">
        <ele>775.36</ele>
        <time>2020-11-07T12:25:54.793Z</time>
      </trkpt>
      <trkpt lat="47.29496" lon="7.12172">
        <ele>775.8</ele>
        <time>2020-11-07T12:26:04.990Z</time>
      </trkpt>
      <trkpt lat="47.29494" lon="7.12167">
        <ele>776.3</ele>
        <time>2020-11-07T12:26:17.356Z</time>
      </trkpt>
      <trkpt lat="47.29478" lon="7.12147">
        <ele>779.08</ele>
        <time>2020-11-07T12:27:28.444Z</time>
      </trkpt>
      <trkpt lat="47.2947" lon="7.12135">
        <ele>780.32</ele>
        <time>2020-11-07T12:27:57.293Z</time>
      </trkpt>
      <trkpt lat="47.2947" lon="7.12134">
        <ele>781.09</ele>
        <time>2020-11-07T12:27:59.621Z</time>
      </trkpt>
      <trkpt lat="47.29469" lon="7.12134">
        <ele>781.09</ele>
        <time>2020-11-07T12:28:00.511Z</time>
      </trkpt>
      <trkpt lat="47.29465" lon="7.12128">
        <ele>781.87</ele>
        <time>2020-11-07T12:28:20.102Z</time>
      </trkpt>
      <trkpt lat="47.2946" lon="7.12124">
        <ele>783.05</ele>
        <time>2020-11-07T12:28:39.632Z</time>
      </trkpt>
      <trkpt lat="47.29457" lon="7.12123">
        <ele>783.8</ele>
        <time>2020-11-07T12:28:50.191Z</time>
      </trkpt>
      <trkpt lat="47.29454" lon="7.12124">
        <ele>783.93</ele>
        <time>2020-11-07T12:28:54.658Z</time>
      </trkpt>
      <trkpt lat="47.29449" lon="7.12122">
        <ele>784.78</ele>
        <time>2020-11-07T12:29:12.445Z</time>
      </trkpt>
      <trkpt lat="47.29445" lon="7.12118">
        <ele>785.97</ele>
        <time>2020-11-07T12:29:29.038Z</time>
      </trkpt>
      <trkpt lat="47.29437" lon="7.12108">
        <ele>788.22</ele>
        <time>2020-11-07T12:30:05.045Z</time>
      </trkpt>
      <trkpt lat="47.2943" lon="7.12097">
        <ele>790.33</ele>
        <time>2020-11-07T12:30:40.168Z</time>
      </trkpt>
      <trkpt lat="47.29424" lon="7.12083">
        <ele>792.9</ele>
        <time>2020-11-07T12:31:18.730Z</time>
      </trkpt>
      <trkpt lat="47.2941" lon="7.12045">
        <ele>798.87</ele>
        <time>2020-11-07T12:32:59.425Z</time>
      </trkpt>
      <trkpt lat="47.29406" lon="7.12035">
        <ele>800.13</ele>
        <time>2020-11-07T12:33:26.458Z</time>
      </trkpt>
      <trkpt lat="47.29404" lon="7.12026">
        <ele>801.26</ele>
        <time>2020-11-07T12:33:48.511Z</time>
      </trkpt>
      <trkpt lat="47.29403" lon="7.12019">
        <ele>802.27</ele>
        <time>2020-11-07T12:34:05.168Z</time>
      </trkpt>
      <trkpt lat="47.29403" lon="7.12012">
        <ele>802.88</ele>
        <time>2020-11-07T12:34:20.379Z</time>
      </trkpt>
      <trkpt lat="47.29403" lon="7.12006">
        <ele>803.61</ele>
        <time>2020-11-07T12:34:34.350Z</time>
      </trkpt>
      <trkpt lat="47.29404" lon="7.12001">
        <ele>804.37</ele>
        <time>2020-11-07T12:34:46.489Z</time>
      </trkpt>
      <trkpt lat="47.29405" lon="7.11991">
        <ele>805.58</ele>
        <time>2020-11-07T12:35:10.026Z</time>
      </trkpt>
      <trkpt lat="47.29404" lon="7.11985">
        <ele>806.36</ele>
        <time>2020-11-07T12:35:24.412Z</time>
      </trkpt>
      <trkpt lat="47.29403" lon="7.11981">
        <ele>806.71</ele>
        <time>2020-11-07T12:35:32.832Z</time>
      </trkpt>
      <trkpt lat="47.29399" lon="7.11974">
        <ele>807.39</ele>
        <time>2020-11-07T12:35:48.673Z</time>
      </trkpt>
      <trkpt lat="47.29394" lon="7.11967">
        <ele>807.73</ele>
        <time>2020-11-07T12:35:59.356Z</time>
      </trkpt>
      <trkpt lat="47.29387" lon="7.11961">
        <ele>808.14</ele>
        <time>2020-11-07T12:36:12.011Z</time>
      </trkpt>
      <trkpt lat="47.29381" lon="7.11954">
        <ele>808.67</ele>
        <time>2020-11-07T12:36:25.639Z</time>
      </trkpt>
      <trkpt lat="47.29376" lon="7.11946">
        <ele>808.45</ele>
        <time>2020-11-07T12:36:27.575Z</time>
      </trkpt>
      <trkpt lat="47.29371" lon="7.11937">
        <ele>808.82</ele>
        <time>2020-11-07T12:36:39.610Z</time>
      </trkpt>
      <trkpt lat="47.29364" lon="7.11924">
        <ele>809.15</ele>
        <time>2020-11-07T12:36:53.309Z</time>
      </trkpt>
      <trkpt lat="47.29357" lon="7.1191">
        <ele>809.75</ele>
        <time>2020-11-07T12:37:11.773Z</time>
      </trkpt>
      <trkpt lat="47.29349" lon="7.1189">
        <ele>810.5</ele>
        <time>2020-11-07T12:37:35.907Z</time>
      </trkpt>
      <trkpt lat="47.29342" lon="7.11873">
        <ele>811.22</ele>
        <time>2020-11-07T12:37:57.376Z</time>
      </trkpt>
      <trkpt lat="47.29329" lon="7.11846">
        <ele>812.15</ele>
        <time>2020-11-07T12:38:29.581Z</time>
      </trkpt>
      <trkpt lat="47.29326" lon="7.11839">
        <ele>812.4</ele>
        <time>2020-11-07T12:38:38.019Z</time>
      </trkpt>
      <trkpt lat="47.2932" lon="7.11827">
        <ele>812.8</ele>
        <time>2020-11-07T12:38:52.133Z</time>
      </trkpt>
      <trkpt lat="47.29316" lon="7.11816">
        <ele>813.07</ele>
        <time>2020-11-07T12:39:02.778Z</time>
      </trkpt>
      <trkpt lat="47.29313" lon="7.11808">
        <ele>813.07</ele>
        <time>2020-11-07T12:39:08.296Z</time>
      </trkpt>
      <trkpt lat="47.29307" lon="7.11792">
        <ele>813.6</ele>
        <time>2020-11-07T12:39:26.435Z</time>
      </trkpt>
      <trkpt lat="47.29305" lon="7.11783">
        <ele>813.86</ele>
        <time>2020-11-07T12:39:35.521Z</time>
      </trkpt>
      <trkpt lat="47.29303" lon="7.11775">
        <ele>814.13</ele>
        <time>2020-11-07T12:39:44.330Z</time>
      </trkpt>
      <trkpt lat="47.29301" lon="7.11768">
        <ele>814.66</ele>
        <time>2020-11-07T12:39:56.599Z</time>
      </trkpt>
      <trkpt lat="47.29297" lon="7.11758">
        <ele>815.2</ele>
        <time>2020-11-07T12:40:10.553Z</time>
      </trkpt>
      <trkpt lat="47.29295" lon="7.1175">
        <ele>815.46</ele>
        <time>2020-11-07T12:40:19.265Z</time>
      </trkpt>
      <trkpt lat="47.29291" lon="7.11731">
        <ele>815.73</ele>
        <time>2020-11-07T12:40:33.971Z</time>
      </trkpt>
      <trkpt lat="47.29289" lon="7.11721">
        <ele>816.26</ele>
        <time>2020-11-07T12:40:47.127Z</time>
      </trkpt>
      <trkpt lat="47.29288" lon="7.11711">
        <ele>816.8</ele>
        <time>2020-11-07T12:41:00.275Z</time>
      </trkpt>
      <trkpt lat="47.29285" lon="7.11693">
        <ele>818.13</ele>
        <time>2020-11-07T12:41:31.115Z</time>
      </trkpt>
      <trkpt lat="47.29284" lon="7.11688">
        <ele>818.66</ele>
        <time>2020-11-07T12:41:43.254Z</time>
      </trkpt>
      <trkpt lat="47.29282" lon="7.11683">
        <ele>818.93</ele>
        <time>2020-11-07T12:41:50.231Z</time>
      </trkpt>
      <trkpt lat="47.29278" lon="7.11673">
        <ele>820</ele>
        <time>2020-11-07T12:42:17.264Z</time>
      </trkpt>
      <trkpt lat="47.29273" lon="7.11662">
        <ele>821.06</ele>
        <time>2020-11-07T12:42:42.482Z</time>
      </trkpt>
      <trkpt lat="47.2927" lon="7.11656">
        <ele>821.33</ele>
        <time>2020-11-07T12:42:50.530Z</time>
      </trkpt>
      <trkpt lat="47.29268" lon="7.11651">
        <ele>821.86</ele>
        <time>2020-11-07T12:43:04.047Z</time>
      </trkpt>
      <trkpt lat="47.29267" lon="7.11646">
        <ele>822.4</ele>
        <time>2020-11-07T12:43:16.185Z</time>
      </trkpt>
      <trkpt lat="47.29266" lon="7.1164">
        <ele>823.43</ele>
        <time>2020-11-07T12:43:30.572Z</time>
      </trkpt>
      <trkpt lat="47.29264" lon="7.1163">
        <ele>824.13</ele>
        <time>2020-11-07T12:43:46.781Z</time>
      </trkpt>
      <trkpt lat="47.29261" lon="7.11617">
        <ele>825.27</ele>
        <time>2020-11-07T12:44:14.358Z</time>
      </trkpt>
      <trkpt lat="47.29256" lon="7.11601">
        <ele>826.75</ele>
        <time>2020-11-07T12:44:50.396Z</time>
      </trkpt>
      <trkpt lat="47.29255" lon="7.11597">
        <ele>827.4</ele>
        <time>2020-11-07T12:45:00.322Z</time>
      </trkpt>
      <trkpt lat="47.29255" lon="7.11596">
        <ele>827.4</ele>
        <time>2020-11-07T12:45:00.926Z</time>
      </trkpt>
      <trkpt lat="47.29251" lon="7.11583">
        <ele>828.04</ele>
        <time>2020-11-07T12:45:17.772Z</time>
      </trkpt>
      <trkpt lat="47.29246" lon="7.11566">
        <ele>829.46</ele>
        <time>2020-11-07T12:45:51.078Z</time>
      </trkpt>
      <trkpt lat="47.29243" lon="7.11556">
        <ele>830.7</ele>
        <time>2020-11-07T12:46:16.539Z</time>
      </trkpt>
      <trkpt lat="47.29239" lon="7.11539">
        <ele>831.87</ele>
        <time>2020-11-07T12:46:43.695Z</time>
      </trkpt>
      <trkpt lat="47.29231" lon="7.1149">
        <ele>833.76</ele>
        <time>2020-11-07T12:47:38.807Z</time>
      </trkpt>
      <trkpt lat="47.29228" lon="7.11473">
        <ele>833.94</ele>
        <time>2020-11-07T12:47:51.115Z</time>
      </trkpt>
      <trkpt lat="47.29221" lon="7.1144">
        <ele>834.17</ele>
        <time>2020-11-07T12:48:14.050Z</time>
      </trkpt>
      <trkpt lat="47.29219" lon="7.11429">
        <ele>834.51</ele>
        <time>2020-11-07T12:48:25.570Z</time>
      </trkpt>
      <trkpt lat="47.29215" lon="7.11417">
        <ele>834.08</ele>
        <time>2020-11-07T12:48:27.577Z</time>
      </trkpt>
      <trkpt lat="47.29207" lon="7.11394">
        <ele>833.26</ele>
        <time>2020-11-07T12:48:31.480Z</time>
      </trkpt>
      <trkpt lat="47.29204" lon="7.11385">
        <ele>832.2</ele>
        <time>2020-11-07T12:48:32.883Z</time>
      </trkpt>
      <trkpt lat="47.292" lon="7.11365">
        <ele>830.55</ele>
        <time>2020-11-07T12:48:35.802Z</time>
      </trkpt>
      <trkpt lat="47.29196" lon="7.11351">
        <ele>829.75</ele>
        <time>2020-11-07T12:48:37.928Z</time>
      </trkpt>
      <trkpt lat="47.29192" lon="7.1134">
        <ele>829.31</ele>
        <time>2020-11-07T12:48:39.729Z</time>
      </trkpt>
      <trkpt lat="47.29189" lon="7.11332">
        <ele>829</ele>
        <time>2020-11-07T12:48:41.071Z</time>
      </trkpt>
      <trkpt lat="47.29182" lon="7.11313">
        <ele>828.56</ele>
        <time>2020-11-07T12:48:44.910Z</time>
      </trkpt>
      <trkpt lat="47.29175" lon="7.11295">
        <ele>827.85</ele>
        <time>2020-11-07T12:48:47.944Z</time>
      </trkpt>
      <trkpt lat="47.29164" lon="7.11265">
        <ele>827.25</ele>
        <time>2020-11-07T12:48:54.269Z</time>
      </trkpt>
      <trkpt lat="47.2916" lon="7.11251">
        <ele>826.94</ele>
        <time>2020-11-07T12:48:56.965Z</time>
      </trkpt>
      <trkpt lat="47.29154" lon="7.11235">
        <ele>826.9</ele>
        <time>2020-11-07T12:49:07.482Z</time>
      </trkpt>
      <trkpt lat="47.29147" lon="7.11216">
        <ele>826.7</ele>
        <time>2020-11-07T12:49:12.118Z</time>
      </trkpt>
      <trkpt lat="47.29133" lon="7.11184">
        <ele>826.32</ele>
        <time>2020-11-07T12:49:20.173Z</time>
      </trkpt>
      <trkpt lat="47.29128" lon="7.11171">
        <ele>826.86</ele>
        <time>2020-11-07T12:49:36.295Z</time>
      </trkpt>
      <trkpt lat="47.29121" lon="7.11156">
        <ele>826.11</ele>
        <time>2020-11-07T12:49:38.739Z</time>
      </trkpt>
      <trkpt lat="47.29117" lon="7.11144">
        <ele>826.24</ele>
        <time>2020-11-07T12:49:48.032Z</time>
      </trkpt>
      <trkpt lat="47.29114" lon="7.11134">
        <ele>825.9</ele>
        <time>2020-11-07T12:49:49.696Z</time>
      </trkpt>
      <trkpt lat="47.2911" lon="7.1112">
        <ele>826.91</ele>
        <time>2020-11-07T12:50:13.095Z</time>
      </trkpt>
      <trkpt lat="47.29104" lon="7.11099">
        <ele>827.49</ele>
        <time>2020-11-07T12:50:34.058Z</time>
      </trkpt>
      <trkpt lat="47.291" lon="7.1109">
        <ele>827.13</ele>
        <time>2020-11-07T12:50:35.646Z</time>
      </trkpt>
      <trkpt lat="47.29095" lon="7.1108">
        <ele>827.31</ele>
        <time>2020-11-07T12:50:44.971Z</time>
      </trkpt>
      <trkpt lat="47.29088" lon="7.11068">
        <ele>827.57</ele>
        <time>2020-11-07T12:50:57.251Z</time>
      </trkpt>
      <trkpt lat="47.2908" lon="7.11053">
        <ele>828.27</ele>
        <time>2020-11-07T12:51:17.948Z</time>
      </trkpt>
      <trkpt lat="47.29074" lon="7.11041">
        <ele>828.56</ele>
        <time>2020-11-07T12:51:30.155Z</time>
      </trkpt>
      <trkpt lat="47.29069" lon="7.11027">
        <ele>828.53</ele>
        <time>2020-11-07T12:51:39.315Z</time>
      </trkpt>
      <trkpt lat="47.29062" lon="7.11012">
        <ele>829.54</ele>
        <time>2020-11-07T12:52:03.591Z</time>
      </trkpt>
      <trkpt lat="47.29056" lon="7.10996">
        <ele>829.4</ele>
        <time>2020-11-07T12:52:07.631Z</time>
      </trkpt>
      <trkpt lat="47.29044" lon="7.10964">
        <ele>829.85</ele>
        <time>2020-11-07T12:52:34.107Z</time>
      </trkpt>
      <trkpt lat="47.29034" lon="7.10939">
        <ele>829.9</ele>
        <time>2020-11-07T12:52:52.046Z</time>
      </trkpt>
      <trkpt lat="47.29015" lon="7.10895">
        <ele>831.34</ele>
        <time>2020-11-07T12:53:42.256Z</time>
      </trkpt>
      <trkpt lat="47.29008" lon="7.10878">
        <ele>832.03</ele>
        <time>2020-11-07T12:54:03.410Z</time>
      </trkpt>
      <trkpt lat="47.29001" lon="7.10856">
        <ele>832.36</ele>
        <time>2020-11-07T12:54:21.376Z</time>
      </trkpt>
      <trkpt lat="47.28995" lon="7.10842">
        <ele>832.49</ele>
        <time>2020-11-07T12:54:32.559Z</time>
      </trkpt>
      <trkpt lat="47.28989" lon="7.10828">
        <ele>831.31</ele>
        <time>2020-11-07T12:54:34.877Z</time>
      </trkpt>
      <trkpt lat="47.28982" lon="7.10816">
        <ele>831.4</ele>
        <time>2020-11-07T12:54:45.228Z</time>
      </trkpt>
      <trkpt lat="47.28972" lon="7.10797">
        <ele>830.98</ele>
        <time>2020-11-07T12:54:49.698Z</time>
      </trkpt>
      <trkpt lat="47.28967" lon="7.1078">
        <ele>830.24</ele>
        <time>2020-11-07T12:54:52.223Z</time>
      </trkpt>
      <trkpt lat="47.28963" lon="7.10769">
        <ele>830.06</ele>
        <time>2020-11-07T12:54:54.663Z</time>
      </trkpt>
      <trkpt lat="47.28958" lon="7.10758">
        <ele>829.56</ele>
        <time>2020-11-07T12:54:56.516Z</time>
      </trkpt>
      <trkpt lat="47.28951" lon="7.10744">
        <ele>829.39</ele>
        <time>2020-11-07T12:55:00.209Z</time>
      </trkpt>
      <trkpt lat="47.28948" lon="7.10737">
        <ele>829.46</ele>
        <time>2020-11-07T12:55:05.852Z</time>
      </trkpt>
      <trkpt lat="47.28946" lon="7.10731">
        <ele>829.53</ele>
        <time>2020-11-07T12:55:10.553Z</time>
      </trkpt>
      <trkpt lat="47.28946" lon="7.1073">
        <ele>829.53</ele>
        <time>2020-11-07T12:55:11.157Z</time>
      </trkpt>
      <trkpt lat="47.28945" lon="7.10729">
        <ele>829.59</ele>
        <time>2020-11-07T12:55:13.033Z</time>
      </trkpt>
      <trkpt lat="47.28943" lon="7.10722">
        <ele>829.65</ele>
        <time>2020-11-07T12:55:18.167Z</time>
      </trkpt>
      <trkpt lat="47.28936" lon="7.10701">
        <ele>829.84</ele>
        <time>2020-11-07T12:55:34.033Z</time>
      </trkpt>
      <trkpt lat="47.2893" lon="7.10685">
        <ele>830.02</ele>
        <time>2020-11-07T12:55:46.764Z</time>
      </trkpt>
      <trkpt lat="47.28915" lon="7.10647">
        <ele>830.33</ele>
        <time>2020-11-07T12:56:16.101Z</time>
      </trkpt>
      <trkpt lat="47.28907" lon="7.10625">
        <ele>830.72</ele>
        <time>2020-11-07T12:56:35.202Z</time>
      </trkpt>
      <trkpt lat="47.28899" lon="7.10606">
        <ele>830.83</ele>
        <time>2020-11-07T12:56:49.664Z</time>
      </trkpt>
      <trkpt lat="47.28893" lon="7.10592">
        <ele>831.03</ele>
        <time>2020-11-07T12:57:01.611Z</time>
      </trkpt>
      <trkpt lat="47.28887" lon="7.10575">
        <ele>831.05</ele>
        <time>2020-11-07T12:57:13.346Z</time>
      </trkpt>
      <trkpt lat="47.28881" lon="7.10553">
        <ele>830.47</ele>
        <time>2020-11-07T12:57:17.305Z</time>
      </trkpt>
      <trkpt lat="47.28875" lon="7.10536">
        <ele>830.47</ele>
        <time>2020-11-07T12:57:28.875Z</time>
      </trkpt>
      <trkpt lat="47.28869" lon="7.10515">
        <ele>830.47</ele>
        <time>2020-11-07T12:57:42.633Z</time>
      </trkpt>
      <trkpt lat="47.28863" lon="7.10491">
        <ele>830.84</ele>
        <time>2020-11-07T12:58:01.824Z</time>
      </trkpt>
      <trkpt lat="47.28858" lon="7.10469">
        <ele>830.99</ele>
        <time>2020-11-07T12:58:17.173Z</time>
      </trkpt>
      <trkpt lat="47.28853" lon="7.1045">
        <ele>830.92</ele>
        <time>2020-11-07T12:58:28.591Z</time>
      </trkpt>
      <trkpt lat="47.28849" lon="7.1043">
        <ele>831.09</ele>
        <time>2020-11-07T12:58:42.737Z</time>
      </trkpt>
      <trkpt lat="47.28843" lon="7.10394">
        <ele>831.36</ele>
        <time>2020-11-07T12:59:07.560Z</time>
      </trkpt>
      <trkpt lat="47.28843" lon="7.10385">
        <ele>831.2</ele>
        <time>2020-11-07T12:59:09.225Z</time>
      </trkpt>
      <trkpt lat="47.28843" lon="7.10379">
        <ele>831.23</ele>
        <time>2020-11-07T12:59:13.110Z</time>
      </trkpt>
      <trkpt lat="47.28844" lon="7.10374">
        <ele>831.19</ele>
        <time>2020-11-07T12:59:14.261Z</time>
      </trkpt>
      <trkpt lat="47.28844" lon="7.10371">
        <ele>831.19</ele>
        <time>2020-11-07T12:59:16.073Z</time>
      </trkpt>
      <trkpt lat="47.28846" lon="7.10368">
        <ele>831.18</ele>
        <time>2020-11-07T12:59:18.483Z</time>
      </trkpt>
      <trkpt lat="47.28849" lon="7.10366">
        <ele>830.94</ele>
        <time>2020-11-07T12:59:19.162Z</time>
      </trkpt>
      <trkpt lat="47.28877" lon="7.10348">
        <ele>832.06</ele>
        <time>2020-11-07T13:00:00.100Z</time>
      </trkpt>
      <trkpt lat="47.28889" lon="7.10341">
        <ele>833</ele>
        <time>2020-11-07T13:00:23.720Z</time>
      </trkpt>
      <trkpt lat="47.28896" lon="7.10337">
        <ele>833.86</ele>
        <time>2020-11-07T13:00:43.968Z</time>
      </trkpt>
      <trkpt lat="47.28904" lon="7.1033">
        <ele>834.54</ele>
        <time>2020-11-07T13:01:01.029Z</time>
      </trkpt>
      <trkpt lat="47.28907" lon="7.10326">
        <ele>835.06</ele>
        <time>2020-11-07T13:01:14.001Z</time>
      </trkpt>
      <trkpt lat="47.28909" lon="7.10322">
        <ele>835.6</ele>
        <time>2020-11-07T13:01:25.573Z</time>
      </trkpt>
      <trkpt lat="47.2891" lon="7.10319">
        <ele>835.83</ele>
        <time>2020-11-07T13:01:30.896Z</time>
      </trkpt>
      <trkpt lat="47.28911" lon="7.10314">
        <ele>836.17</ele>
        <time>2020-11-07T13:01:38.785Z</time>
      </trkpt>
      <trkpt lat="47.2891" lon="7.10309">
        <ele>836.43</ele>
        <time>2020-11-07T13:01:45.291Z</time>
      </trkpt>
      <trkpt lat="47.28908" lon="7.10301">
        <ele>836.52</ele>
        <time>2020-11-07T13:01:51.295Z</time>
      </trkpt>
      <trkpt lat="47.28903" lon="7.10289">
        <ele>836.17</ele>
        <time>2020-11-07T13:01:53.633Z</time>
      </trkpt>
      <trkpt lat="47.28896" lon="7.10268">
        <ele>836.52</ele>
        <time>2020-11-07T13:02:11.335Z</time>
      </trkpt>
      <trkpt lat="47.28889" lon="7.10244">
        <ele>836.78</ele>
        <time>2020-11-07T13:02:29.557Z</time>
      </trkpt>
      <trkpt lat="47.28876" lon="7.10196">
        <ele>836.52</ele>
        <time>2020-11-07T13:02:41.588Z</time>
      </trkpt>
      <trkpt lat="47.28872" lon="7.10181">
        <ele>836.43</ele>
        <time>2020-11-07T13:02:45.298Z</time>
      </trkpt>
      <trkpt lat="47.28868" lon="7.1017">
        <ele>836.43</ele>
        <time>2020-11-07T13:02:52.833Z</time>
      </trkpt>
      <trkpt lat="47.28863" lon="7.1016">
        <ele>836.52</ele>
        <time>2020-11-07T13:03:01.147Z</time>
      </trkpt>
      <trkpt lat="47.28859" lon="7.10153">
        <ele>836.35</ele>
        <time>2020-11-07T13:03:02.818Z</time>
      </trkpt>
      <trkpt lat="47.28853" lon="7.10146">
        <ele>836</ele>
        <time>2020-11-07T13:03:04.537Z</time>
      </trkpt>
      <trkpt lat="47.28843" lon="7.10136">
        <ele>835.32</ele>
        <time>2020-11-07T13:03:07.017Z</time>
      </trkpt>
      <trkpt lat="47.28834" lon="7.10129">
        <ele>834.8</ele>
        <time>2020-11-07T13:03:09.198Z</time>
      </trkpt>
      <trkpt lat="47.28825" lon="7.10122">
        <ele>834.03</ele>
        <time>2020-11-07T13:03:11.298Z</time>
      </trkpt>
      <trkpt lat="47.28814" lon="7.10116">
        <ele>833.52</ele>
        <time>2020-11-07T13:03:13.988Z</time>
      </trkpt>
      <trkpt lat="47.28801" lon="7.1011">
        <ele>833.64</ele>
        <time>2020-11-07T13:03:27.177Z</time>
      </trkpt>
      <trkpt lat="47.2879" lon="7.10102">
        <ele>834.15</ele>
        <time>2020-11-07T13:03:44.810Z</time>
      </trkpt>
      <trkpt lat="47.28778" lon="7.10093">
        <ele>835.25</ele>
        <time>2020-11-07T13:04:11.258Z</time>
      </trkpt>
      <trkpt lat="47.28766" lon="7.10083">
        <ele>837.36</ele>
        <time>2020-11-07T13:04:58.583Z</time>
      </trkpt>
      <trkpt lat="47.28749" lon="7.10069">
        <ele>839.44</ele>
        <time>2020-11-07T13:05:46.862Z</time>
      </trkpt>
      <trkpt lat="47.28735" lon="7.10056">
        <ele>840.24</ele>
        <time>2020-11-07T13:06:12.338Z</time>
      </trkpt>
      <trkpt lat="47.28725" lon="7.10048">
        <ele>841.02</ele>
        <time>2020-11-07T13:06:32.497Z</time>
      </trkpt>
      <trkpt lat="47.28707" lon="7.10034">
        <ele>842.77</ele>
        <time>2020-11-07T13:07:13.945Z</time>
      </trkpt>
      <trkpt lat="47.2872" lon="7.10037">
        <ele>842.96</ele>
        <time>2020-11-07T13:07:27.442Z</time>
      </trkpt>
      <trkpt lat="47.28719" lon="7.10037">
        <ele>842.96</ele>
        <time>2020-11-07T13:07:28.332Z</time>
      </trkpt>
      <trkpt lat="47.28707" lon="7.10034">
        <ele>842.77</ele>
        <time>2020-11-07T13:07:32.085Z</time>
      </trkpt>
      <trkpt lat="47.28704" lon="7.10033">
        <ele>842.79</ele>
        <time>2020-11-07T13:07:34.997Z</time>
      </trkpt>
      <trkpt lat="47.28682" lon="7.10028">
        <ele>841.9</ele>
        <time>2020-11-07T13:07:40.272Z</time>
      </trkpt>
      <trkpt lat="47.28672" lon="7.10025">
        <ele>841.3</ele>
        <time>2020-11-07T13:07:42.323Z</time>
      </trkpt>
      <trkpt lat="47.28661" lon="7.10023">
        <ele>840.57</ele>
        <time>2020-11-07T13:07:44.431Z</time>
      </trkpt>
      <trkpt lat="47.28654" lon="7.10022">
        <ele>840.12</ele>
        <time>2020-11-07T13:07:45.789Z</time>
      </trkpt>
      <trkpt lat="47.28647" lon="7.10022">
        <ele>839.95</ele>
        <time>2020-11-07T13:07:47.738Z</time>
      </trkpt>
      <trkpt lat="47.28641" lon="7.10023">
        <ele>839.52</ele>
        <time>2020-11-07T13:07:48.984Z</time>
      </trkpt>
      <trkpt lat="47.28635" lon="7.10026">
        <ele>839.35</ele>
        <time>2020-11-07T13:07:50.700Z</time>
      </trkpt>
      <trkpt lat="47.28628" lon="7.1003">
        <ele>839.18</ele>
        <time>2020-11-07T13:07:52.830Z</time>
      </trkpt>
      <trkpt lat="47.28622" lon="7.10035">
        <ele>838.83</ele>
        <time>2020-11-07T13:07:54.311Z</time>
      </trkpt>
      <trkpt lat="47.28611" lon="7.10049">
        <ele>838.15</ele>
        <time>2020-11-07T13:07:57.546Z</time>
      </trkpt>
      <trkpt lat="47.286" lon="7.10062">
        <ele>837.46</ele>
        <time>2020-11-07T13:08:00.625Z</time>
      </trkpt>
      <trkpt lat="47.28595" lon="7.10069">
        <ele>837.38</ele>
        <time>2020-11-07T13:08:02.862Z</time>
      </trkpt>
      <trkpt lat="47.28592" lon="7.10075">
        <ele>837.03</ele>
        <time>2020-11-07T13:08:03.906Z</time>
      </trkpt>
      <trkpt lat="47.28589" lon="7.10085">
        <ele>836.95</ele>
        <time>2020-11-07T13:08:06.338Z</time>
      </trkpt>
      <trkpt lat="47.28588" lon="7.10091">
        <ele>837.29</ele>
        <time>2020-11-07T13:08:14.532Z</time>
      </trkpt>
      <trkpt lat="47.28585" lon="7.10098">
        <ele>837.29</ele>
        <time>2020-11-07T13:08:19.532Z</time>
      </trkpt>
      <trkpt lat="47.28583" lon="7.10108">
        <ele>837.46</ele>
        <time>2020-11-07T13:08:27.604Z</time>
      </trkpt>
      <trkpt lat="47.28582" lon="7.10128">
        <ele>837.72</ele>
        <time>2020-11-07T13:08:42.282Z</time>
      </trkpt>
      <trkpt lat="47.28581" lon="7.1014">
        <ele>838.15</ele>
        <time>2020-11-07T13:08:55.252Z</time>
      </trkpt>
      <trkpt lat="47.28582" lon="7.10154">
        <ele>838.66</ele>
        <time>2020-11-07T13:09:10.454Z</time>
      </trkpt>
      <trkpt lat="47.28579" lon="7.10148">
        <ele>838.66</ele>
        <time>2020-11-07T13:09:14.954Z</time>
      </trkpt>
      <trkpt lat="47.28576" lon="7.10141">
        <ele>838.75</ele>
        <time>2020-11-07T13:09:20.814Z</time>
      </trkpt>
      <trkpt lat="47.28572" lon="7.10136">
        <ele>838.75</ele>
        <time>2020-11-07T13:09:25.482Z</time>
      </trkpt>
      <trkpt lat="47.28565" lon="7.10129">
        <ele>838.83</ele>
        <time>2020-11-07T13:09:33.725Z</time>
      </trkpt>
      <trkpt lat="47.28552" lon="7.10118">
        <ele>839.17</ele>
        <time>2020-11-07T13:09:50.565Z</time>
      </trkpt>
      <trkpt lat="47.28521" lon="7.10093">
        <ele>840.26</ele>
        <time>2020-11-07T13:10:34.404Z</time>
      </trkpt>
      <trkpt lat="47.28507" lon="7.10081">
        <ele>840.85</ele>
        <time>2020-11-07T13:10:56.038Z</time>
      </trkpt>
      <trkpt lat="47.28499" lon="7.10072">
        <ele>841.1</ele>
        <time>2020-11-07T13:11:07.634Z</time>
      </trkpt>
      <trkpt lat="47.28491" lon="7.10063">
        <ele>841.6</ele>
        <time>2020-11-07T13:11:23.264Z</time>
      </trkpt>
      <trkpt lat="47.28481" lon="7.1005">
        <ele>842.28</ele>
        <time>2020-11-07T13:11:44.152Z</time>
      </trkpt>
      <trkpt lat="47.28475" lon="7.10042">
        <ele>842.7</ele>
        <time>2020-11-07T13:11:56.903Z</time>
      </trkpt>
      <trkpt lat="47.2847" lon="7.10033">
        <ele>842.86</ele>
        <time>2020-11-07T13:12:05.529Z</time>
      </trkpt>
      <trkpt lat="47.28467" lon="7.10025">
        <ele>842.95</ele>
        <time>2020-11-07T13:12:11.894Z</time>
      </trkpt>
      <trkpt lat="47.28457" lon="7.10007">
        <ele>843.2</ele>
        <time>2020-11-07T13:12:28.327Z</time>
      </trkpt>
      <trkpt lat="47.2845" lon="7.09995">
        <ele>843.26</ele>
        <time>2020-11-07T13:12:38.398Z</time>
      </trkpt>
      <trkpt lat="47.28443" lon="7.09986">
        <ele>843.31</ele>
        <time>2020-11-07T13:12:47.094Z</time>
      </trkpt>
      <trkpt lat="47.28434" lon="7.09976">
        <ele>843.59</ele>
        <time>2020-11-07T13:13:00.081Z</time>
      </trkpt>
      <trkpt lat="47.28428" lon="7.0997">
        <ele>843.73</ele>
        <time>2020-11-07T13:13:07.921Z</time>
      </trkpt>
      <trkpt lat="47.28424" lon="7.09966">
        <ele>843.82</ele>
        <time>2020-11-07T13:13:13.108Z</time>
      </trkpt>
      <trkpt lat="47.28417" lon="7.09958">
        <ele>844.04</ele>
        <time>2020-11-07T13:13:23.314Z</time>
      </trkpt>
      <trkpt lat="47.28414" lon="7.09952">
        <ele>844.15</ele>
        <time>2020-11-07T13:13:28.934Z</time>
      </trkpt>
      <trkpt lat="47.28412" lon="7.09947">
        <ele>844.15</ele>
        <time>2020-11-07T13:13:32.439Z</time>
      </trkpt>
      <trkpt lat="47.28412" lon="7.09943">
        <ele>844.15</ele>
        <time>2020-11-07T13:13:34.854Z</time>
      </trkpt>
      <trkpt lat="47.28412" lon="7.09937">
        <ele>844.25</ele>
        <time>2020-11-07T13:13:39.529Z</time>
      </trkpt>
      <trkpt lat="47.28413" lon="7.09932">
        <ele>844.28</ele>
        <time>2020-11-07T13:13:42.942Z</time>
      </trkpt>
      <trkpt lat="47.28421" lon="7.09917">
        <ele>843.77</ele>
        <time>2020-11-07T13:13:46.026Z</time>
      </trkpt>
      <trkpt lat="47.2843" lon="7.09903">
        <ele>842.77</ele>
        <time>2020-11-07T13:13:48.726Z</time>
      </trkpt>
      <trkpt lat="47.28436" lon="7.0989">
        <ele>842.26</ele>
        <time>2020-11-07T13:13:51.079Z</time>
      </trkpt>
      <trkpt lat="47.2844" lon="7.09881">
        <ele>842.14</ele>
        <time>2020-11-07T13:13:53.307Z</time>
      </trkpt>
      <trkpt lat="47.28441" lon="7.09871">
        <ele>842.01</ele>
        <time>2020-11-07T13:13:55.338Z</time>
      </trkpt>
      <trkpt lat="47.28441" lon="7.09862">
        <ele>841.88</ele>
        <time>2020-11-07T13:13:57.097Z</time>
      </trkpt>
      <trkpt lat="47.28438" lon="7.09847">
        <ele>841.76</ele>
        <time>2020-11-07T13:14:00.552Z</time>
      </trkpt>
      <trkpt lat="47.28431" lon="7.09821">
        <ele>841.51</ele>
        <time>2020-11-07T13:14:06.586Z</time>
      </trkpt>
      <trkpt lat="47.28425" lon="7.09804">
        <ele>841.51</ele>
        <time>2020-11-07T13:14:18.157Z</time>
      </trkpt>
      <trkpt lat="47.28418" lon="7.09785">
        <ele>841.76</ele>
        <time>2020-11-07T13:14:33.627Z</time>
      </trkpt>
      <trkpt lat="47.28411" lon="7.09766">
        <ele>841.88</ele>
        <time>2020-11-07T13:14:47.739Z</time>
      </trkpt>
      <trkpt lat="47.28405" lon="7.0975">
        <ele>842.17</ele>
        <time>2020-11-07T13:15:01.787Z</time>
      </trkpt>
      <trkpt lat="47.28405" lon="7.09749">
        <ele>842.17</ele>
        <time>2020-11-07T13:15:02.391Z</time>
      </trkpt>
      <trkpt lat="47.28389" lon="7.09704">
        <ele>842.47</ele>
        <time>2020-11-07T13:15:35.726Z</time>
      </trkpt>
      <trkpt lat="47.28384" lon="7.09689">
        <ele>842.86</ele>
        <time>2020-11-07T13:15:50.459Z</time>
      </trkpt>
      <trkpt lat="47.28381" lon="7.09677">
        <ele>843.19</ele>
        <time>2020-11-07T13:16:02.311Z</time>
      </trkpt>
      <trkpt lat="47.28379" lon="7.09665">
        <ele>843.5</ele>
        <time>2020-11-07T13:16:13.594Z</time>
      </trkpt>
      <trkpt lat="47.28377" lon="7.09653">
        <ele>843.88</ele>
        <time>2020-11-07T13:16:26.253Z</time>
      </trkpt>
      <trkpt lat="47.28374" lon="7.09604">
        <ele>845.41</ele>
        <time>2020-11-07T13:17:16.819Z</time>
      </trkpt>
      <trkpt lat="47.28372" lon="7.09586">
        <ele>845.92</ele>
        <time>2020-11-07T13:17:34.513Z</time>
      </trkpt>
      <trkpt lat="47.28367" lon="7.09561">
        <ele>847.05</ele>
        <time>2020-11-07T13:18:04.790Z</time>
      </trkpt>
      <trkpt lat="47.28362" lon="7.09535">
        <ele>848.06</ele>
        <time>2020-11-07T13:18:34.308Z</time>
      </trkpt>
      <trkpt lat="47.28356" lon="7.09513">
        <ele>848.31</ele>
        <time>2020-11-07T13:18:51.001Z</time>
      </trkpt>
      <trkpt lat="47.28351" lon="7.09494">
        <ele>848.56</ele>
        <time>2020-11-07T13:19:05.749Z</time>
      </trkpt>
      <trkpt lat="47.28345" lon="7.09478">
        <ele>848.69</ele>
        <time>2020-11-07T13:19:17.961Z</time>
      </trkpt>
      <trkpt lat="47.28342" lon="7.09466">
        <ele>848.81</ele>
        <time>2020-11-07T13:19:26.803Z</time>
      </trkpt>
      <trkpt lat="47.28339" lon="7.0945">
        <ele>848.69</ele>
        <time>2020-11-07T13:19:30.502Z</time>
      </trkpt>
      <trkpt lat="47.28336" lon="7.09436">
        <ele>848.69</ele>
        <time>2020-11-07T13:19:39.368Z</time>
      </trkpt>
      <trkpt lat="47.28333" lon="7.09425">
        <ele>848.94</ele>
        <time>2020-11-07T13:19:49.376Z</time>
      </trkpt>
      <trkpt lat="47.28327" lon="7.09411">
        <ele>849.07</ele>
        <time>2020-11-07T13:20:00.560Z</time>
      </trkpt>
      <trkpt lat="47.2832" lon="7.09395">
        <ele>849.32</ele>
        <time>2020-11-07T13:20:14.534Z</time>
      </trkpt>
      <trkpt lat="47.28313" lon="7.09371">
        <ele>849.32</ele>
        <time>2020-11-07T13:20:30.308Z</time>
      </trkpt>
      <trkpt lat="47.28299" lon="7.09328">
        <ele>849.16</ele>
        <time>2020-11-07T13:20:57.079Z</time>
      </trkpt>
      <trkpt lat="47.28279" lon="7.09259">
        <ele>849.22</ele>
        <time>2020-11-07T13:21:42.880Z</time>
      </trkpt>
      <trkpt lat="47.2827" lon="7.09232">
        <ele>849.48</ele>
        <time>2020-11-07T13:22:03.445Z</time>
      </trkpt>
      <trkpt lat="47.28261" lon="7.09205">
        <ele>849.79</ele>
        <time>2020-11-07T13:22:24.546Z</time>
      </trkpt>
      <trkpt lat="47.28254" lon="7.09179">
        <ele>850.1</ele>
        <time>2020-11-07T13:22:44.409Z</time>
      </trkpt>
      <trkpt lat="47.28245" lon="7.09145">
        <ele>850.71</ele>
        <time>2020-11-07T13:23:12.869Z</time>
      </trkpt>
      <trkpt lat="47.28236" lon="7.09109">
        <ele>851.59</ele>
        <time>2020-11-07T13:23:46.429Z</time>
      </trkpt>
      <trkpt lat="47.28232" lon="7.09092">
        <ele>851.84</ele>
        <time>2020-11-07T13:23:59.803Z</time>
      </trkpt>
      <trkpt lat="47.2823" lon="7.0908">
        <ele>852.09</ele>
        <time>2020-11-07T13:24:10.068Z</time>
      </trkpt>
      <trkpt lat="47.28229" lon="7.09063">
        <ele>852.34</ele>
        <time>2020-11-07T13:24:22.913Z</time>
      </trkpt>
      <trkpt lat="47.28229" lon="7.09033">
        <ele>852.85</ele>
        <time>2020-11-07T13:24:46.424Z</time>
      </trkpt>
      <trkpt lat="47.28229" lon="7.08995">
        <ele>853.22</ele>
        <time>2020-11-07T13:25:12.843Z</time>
      </trkpt>
      <trkpt lat="47.2823" lon="7.08974">
        <ele>853.48</ele>
        <time>2020-11-07T13:25:28.098Z</time>
      </trkpt>
      <trkpt lat="47.28231" lon="7.08955">
        <ele>853.73</ele>
        <time>2020-11-07T13:25:42.082Z</time>
      </trkpt>
      <trkpt lat="47.28233" lon="7.08932">
        <ele>853.85</ele>
        <time>2020-11-07T13:25:57.135Z</time>
      </trkpt>
      <trkpt lat="47.28234" lon="7.08924">
        <ele>853.98</ele>
        <time>2020-11-07T13:26:03.399Z</time>
      </trkpt>
      <trkpt lat="47.28234" lon="7.08924">
        <ele>853.98</ele>
        <time>2020-11-07T13:26:03.399Z</time>
      </trkpt>
      <trkpt lat="47.28235" lon="7.08912">
        <ele>854.11</ele>
        <time>2020-11-07T13:26:11.939Z</time>
      </trkpt>
      <trkpt lat="47.28237" lon="7.08899">
        <ele>853.73</ele>
        <time>2020-11-07T13:26:14.041Z</time>
      </trkpt>
      <trkpt lat="47.28237" lon="7.08891">
        <ele>853.6</ele>
        <time>2020-11-07T13:26:15.559Z</time>
      </trkpt>
      <trkpt lat="47.28235" lon="7.0887">
        <ele>853.35</ele>
        <time>2020-11-07T13:26:19.900Z</time>
      </trkpt>
      <trkpt lat="47.28235" lon="7.08857">
        <ele>853.35</ele>
        <time>2020-11-07T13:26:27.750Z</time>
      </trkpt>
      <trkpt lat="47.28237" lon="7.08836">
        <ele>852.85</ele>
        <time>2020-11-07T13:26:31.337Z</time>
      </trkpt>
      <trkpt lat="47.28239" lon="7.0881">
        <ele>852.47</ele>
        <time>2020-11-07T13:26:36.445Z</time>
      </trkpt>
      <trkpt lat="47.28228" lon="7.08814">
        <ele>852.17</ele>
        <time>2020-11-07T13:26:39.525Z</time>
      </trkpt>
      <trkpt lat="47.2822" lon="7.08817">
        <ele>852.17</ele>
        <time>2020-11-07T13:26:46.873Z</time>
      </trkpt>
      <trkpt lat="47.28213" lon="7.08821">
        <ele>852.28</ele>
        <time>2020-11-07T13:26:54.591Z</time>
      </trkpt>
      <trkpt lat="47.28205" lon="7.08827">
        <ele>852.6</ele>
        <time>2020-11-07T13:27:06.454Z</time>
      </trkpt>
      <trkpt lat="47.28192" lon="7.08838">
        <ele>853.14</ele>
        <time>2020-11-07T13:27:26.367Z</time>
      </trkpt>
      <trkpt lat="47.28179" lon="7.08849">
        <ele>853.57</ele>
        <time>2020-11-07T13:27:44.465Z</time>
      </trkpt>
      <trkpt lat="47.28166" lon="7.08861">
        <ele>854</ele>
        <time>2020-11-07T13:28:02.834Z</time>
      </trkpt>
      <trkpt lat="47.28154" lon="7.08869">
        <ele>854.32</ele>
        <time>2020-11-07T13:28:17.913Z</time>
      </trkpt>
      <trkpt lat="47.28144" lon="7.08877">
        <ele>854.32</ele>
        <time>2020-11-07T13:28:28.040Z</time>
      </trkpt>
      <trkpt lat="47.28136" lon="7.08884">
        <ele>854.14</ele>
        <time>2020-11-07T13:28:30.782Z</time>
      </trkpt>
      <trkpt lat="47.2813" lon="7.0889">
        <ele>854.08</ele>
        <time>2020-11-07T13:28:33.241Z</time>
      </trkpt>
      <trkpt lat="47.28124" lon="7.08896">
        <ele>854.01</ele>
        <time>2020-11-07T13:28:35.655Z</time>
      </trkpt>
      <trkpt lat="47.2812" lon="7.08903">
        <ele>853.92</ele>
        <time>2020-11-07T13:28:37.596Z</time>
      </trkpt>
      <trkpt lat="47.28112" lon="7.08918">
        <ele>853.79</ele>
        <time>2020-11-07T13:28:41.883Z</time>
      </trkpt>
      <trkpt lat="47.28104" lon="7.08937">
        <ele>853.94</ele>
        <time>2020-11-07T13:28:56.731Z</time>
      </trkpt>
      <trkpt lat="47.281" lon="7.08949">
        <ele>853.57</ele>
        <time>2020-11-07T13:28:58.864Z</time>
      </trkpt>
      <trkpt lat="47.28096" lon="7.0896">
        <ele>853.75</ele>
        <time>2020-11-07T13:29:08.223Z</time>
      </trkpt>
      <trkpt lat="47.28089" lon="7.08956">
        <ele>854.42</ele>
        <time>2020-11-07T13:29:23.952Z</time>
      </trkpt>
      <trkpt lat="47.28084" lon="7.08951">
        <ele>855.22</ele>
        <time>2020-11-07T13:29:44.392Z</time>
      </trkpt>
      <trkpt lat="47.2808" lon="7.08944">
        <ele>855.91</ele>
        <time>2020-11-07T13:30:00.511Z</time>
      </trkpt>
      <trkpt lat="47.28074" lon="7.08931">
        <ele>856.41</ele>
        <time>2020-11-07T13:30:16.780Z</time>
      </trkpt>
      <trkpt lat="47.28065" lon="7.08913">
        <ele>857.1</ele>
        <time>2020-11-07T13:30:39.711Z</time>
      </trkpt>
      <trkpt lat="47.28055" lon="7.08893">
        <ele>857.89</ele>
        <time>2020-11-07T13:31:05.416Z</time>
      </trkpt>
      <trkpt lat="47.28045" lon="7.08873">
        <ele>858.88</ele>
        <time>2020-11-07T13:31:33.242Z</time>
      </trkpt>
      <trkpt lat="47.28033" lon="7.08848">
        <ele>860.09</ele>
        <time>2020-11-07T13:32:07.422Z</time>
      </trkpt>
      <trkpt lat="47.28031" lon="7.08843">
        <ele>860.63</ele>
        <time>2020-11-07T13:32:20.942Z</time>
      </trkpt>
      <trkpt lat="47.28031" lon="7.08842">
        <ele>860.63</ele>
        <time>2020-11-07T13:32:21.545Z</time>
      </trkpt>
      <trkpt lat="47.28024" lon="7.08827">
        <ele>861.16</ele>
        <time>2020-11-07T13:32:39.658Z</time>
      </trkpt>
      <trkpt lat="47.28015" lon="7.08806">
        <ele>862.52</ele>
        <time>2020-11-07T13:33:12.491Z</time>
      </trkpt>
      <trkpt lat="47.28011" lon="7.08799">
        <ele>863.03</ele>
        <time>2020-11-07T13:33:24.732Z</time>
      </trkpt>
      <trkpt lat="47.27998" lon="7.0877">
        <ele>865.22</ele>
        <time>2020-11-07T13:34:15.769Z</time>
      </trkpt>
      <trkpt lat="47.27993" lon="7.08758">
        <ele>865.61</ele>
        <time>2020-11-07T13:34:29.351Z</time>
      </trkpt>
      <trkpt lat="47.27986" lon="7.0874">
        <ele>865.72</ele>
        <time>2020-11-07T13:34:42.846Z</time>
      </trkpt>
      <trkpt lat="47.27978" lon="7.08721">
        <ele>865.92</ele>
        <time>2020-11-07T13:34:58.203Z</time>
      </trkpt>
      <trkpt lat="47.2797" lon="7.08699">
        <ele>866.02</ele>
        <time>2020-11-07T13:35:14.138Z</time>
      </trkpt>
      <trkpt lat="47.27966" lon="7.08685">
        <ele>866.02</ele>
        <time>2020-11-07T13:35:23.311Z</time>
      </trkpt>
      <trkpt lat="47.27963" lon="7.08672">
        <ele>866.02</ele>
        <time>2020-11-07T13:35:31.603Z</time>
      </trkpt>
      <trkpt lat="47.27961" lon="7.08657">
        <ele>865.78</ele>
        <time>2020-11-07T13:35:34.529Z</time>
      </trkpt>
      <trkpt lat="47.27955" lon="7.08603">
        <ele>863.84</ele>
        <time>2020-11-07T13:35:42.407Z</time>
      </trkpt>
      <trkpt lat="47.27952" lon="7.08582">
        <ele>862.95</ele>
        <time>2020-11-07T13:35:45.280Z</time>
      </trkpt>
      <trkpt lat="47.27952" lon="7.0857">
        <ele>862.55</ele>
        <time>2020-11-07T13:35:47.055Z</time>
      </trkpt>
      <trkpt lat="47.27951" lon="7.08545">
        <ele>861.07</ele>
        <time>2020-11-07T13:35:50.561Z</time>
      </trkpt>
      <trkpt lat="47.27952" lon="7.08524">
        <ele>860.07</ele>
        <time>2020-11-07T13:35:53.509Z</time>
      </trkpt>
      <trkpt lat="47.27952" lon="7.08509">
        <ele>860.1</ele>
        <time>2020-11-07T13:36:02.818Z</time>
      </trkpt>
      <trkpt lat="47.27951" lon="7.08499">
        <ele>860</ele>
        <time>2020-11-07T13:36:04.960Z</time>
      </trkpt>
      <trkpt lat="47.27949" lon="7.08489">
        <ele>860</ele>
        <time>2020-11-07T13:36:11.255Z</time>
      </trkpt>
      <trkpt lat="47.27944" lon="7.08478">
        <ele>860.08</ele>
        <time>2020-11-07T13:36:19.961Z</time>
      </trkpt>
      <trkpt lat="47.27937" lon="7.08463">
        <ele>860.24</ele>
        <time>2020-11-07T13:36:32.435Z</time>
      </trkpt>
      <trkpt lat="47.27929" lon="7.08447">
        <ele>860.47</ele>
        <time>2020-11-07T13:36:46.659Z</time>
      </trkpt>
      <trkpt lat="47.2792" lon="7.08427">
        <ele>861.01</ele>
        <time>2020-11-07T13:37:07.475Z</time>
      </trkpt>
      <trkpt lat="47.27916" lon="7.08413">
        <ele>861.44</ele>
        <time>2020-11-07T13:37:22.323Z</time>
      </trkpt>
      <trkpt lat="47.27914" lon="7.08409">
        <ele>861.57</ele>
        <time>2020-11-07T13:37:26.962Z</time>
      </trkpt>
      <trkpt lat="47.27909" lon="7.0839">
        <ele>862.06</ele>
        <time>2020-11-07T13:37:45.184Z</time>
      </trkpt>
      <trkpt lat="47.27906" lon="7.08372">
        <ele>862.71</ele>
        <time>2020-11-07T13:38:04.974Z</time>
      </trkpt>
      <trkpt lat="47.279" lon="7.08343">
        <ele>863.36</ele>
        <time>2020-11-07T13:38:30.740Z</time>
      </trkpt>
      <trkpt lat="47.27897" lon="7.08332">
        <ele>863.93</ele>
        <time>2020-11-07T13:38:45.241Z</time>
      </trkpt>
      <trkpt lat="47.27892" lon="7.08319">
        <ele>864.5</ele>
        <time>2020-11-07T13:39:01.691Z</time>
      </trkpt>
      <trkpt lat="47.27884" lon="7.08304">
        <ele>864.98</ele>
        <time>2020-11-07T13:39:19.139Z</time>
      </trkpt>
      <trkpt lat="47.27875" lon="7.08287">
        <ele>865.39</ele>
        <time>2020-11-07T13:39:36.657Z</time>
      </trkpt>
      <trkpt lat="47.27862" lon="7.08263">
        <ele>866.6</ele>
        <time>2020-11-07T13:40:10.896Z</time>
      </trkpt>
      <trkpt lat="47.27854" lon="7.08249">
        <ele>867.74</ele>
        <time>2020-11-07T13:40:37.513Z</time>
      </trkpt>
      <trkpt lat="47.27847" lon="7.0824">
        <ele>868.71</ele>
        <time>2020-11-07T13:40:59.983Z</time>
      </trkpt>
      <trkpt lat="47.2784" lon="7.08233">
        <ele>869.77</ele>
        <time>2020-11-07T13:41:25.973Z</time>
      </trkpt>
      <trkpt lat="47.2783" lon="7.08223">
        <ele>870.99</ele>
        <time>2020-11-07T13:41:54.208Z</time>
      </trkpt>
      <trkpt lat="47.27815" lon="7.08209">
        <ele>872.61</ele>
        <time>2020-11-07T13:42:32.073Z</time>
      </trkpt>
      <trkpt lat="47.27806" lon="7.082">
        <ele>873.34</ele>
        <time>2020-11-07T13:42:51.138Z</time>
      </trkpt>
      <trkpt lat="47.27798" lon="7.08192">
        <ele>873.99</ele>
        <time>2020-11-07T13:43:08.100Z</time>
      </trkpt>
      <trkpt lat="47.27789" lon="7.08181">
        <ele>874.56</ele>
        <time>2020-11-07T13:43:26.149Z</time>
      </trkpt>
      <trkpt lat="47.27782" lon="7.08171">
        <ele>875.04</ele>
        <time>2020-11-07T13:43:41.245Z</time>
      </trkpt>
      <trkpt lat="47.27778" lon="7.08163">
        <ele>875.21</ele>
        <time>2020-11-07T13:43:49.049Z</time>
      </trkpt>
      <trkpt lat="47.27775" lon="7.08154">
        <ele>875.53</ele>
        <time>2020-11-07T13:43:59.435Z</time>
      </trkpt>
      <trkpt lat="47.27773" lon="7.08144">
        <ele>875.69</ele>
        <time>2020-11-07T13:44:07.376Z</time>
      </trkpt>
      <trkpt lat="47.27772" lon="7.08133">
        <ele>876.02</ele>
        <time>2020-11-07T13:44:18.573Z</time>
      </trkpt>
      <trkpt lat="47.27772" lon="7.08117">
        <ele>876.26</ele>
        <time>2020-11-07T13:44:30.689Z</time>
      </trkpt>
      <trkpt lat="47.27772" lon="7.08097">
        <ele>876.5</ele>
        <time>2020-11-07T13:44:45.101Z</time>
      </trkpt>
      <trkpt lat="47.27771" lon="7.08084">
        <ele>876.67</ele>
        <time>2020-11-07T13:44:54.683Z</time>
      </trkpt>
      <trkpt lat="47.2777" lon="7.08072">
        <ele>876.98</ele>
        <time>2020-11-07T13:45:05.849Z</time>
      </trkpt>
      <trkpt lat="47.27765" lon="7.08039">
        <ele>877.05</ele>
        <time>2020-11-07T13:45:26.855Z</time>
      </trkpt>
      <trkpt lat="47.27765" lon="7.08038">
        <ele>877.05</ele>
        <time>2020-11-07T13:45:27.459Z</time>
      </trkpt>
      <trkpt lat="47.27764" lon="7.0803">
        <ele>877.12</ele>
        <time>2020-11-07T13:45:33.017Z</time>
      </trkpt>
      <trkpt lat="47.2776" lon="7.08007">
        <ele>877.05</ele>
        <time>2020-11-07T13:45:46.460Z</time>
      </trkpt>
      <trkpt lat="47.27751" lon="7.07956">
        <ele>876.74</ele>
        <time>2020-11-07T13:45:58.521Z</time>
      </trkpt>
      <trkpt lat="47.27749" lon="7.07944">
        <ele>876.81</ele>
        <time>2020-11-07T13:46:06.601Z</time>
      </trkpt>
      <trkpt lat="47.27748" lon="7.07929">
        <ele>876.83</ele>
        <time>2020-11-07T13:46:15.869Z</time>
      </trkpt>
      <trkpt lat="47.27746" lon="7.07915">
        <ele>877.11</ele>
        <time>2020-11-07T13:46:27.611Z</time>
      </trkpt>
      <trkpt lat="47.27743" lon="7.079">
        <ele>877.44</ele>
        <time>2020-11-07T13:46:40.817Z</time>
      </trkpt>
      <trkpt lat="47.2774" lon="7.07887">
        <ele>877.75</ele>
        <time>2020-11-07T13:46:52.745Z</time>
      </trkpt>
      <trkpt lat="47.27738" lon="7.07875">
        <ele>877.8</ele>
        <time>2020-11-07T13:47:00.638Z</time>
      </trkpt>
      <trkpt lat="47.27737" lon="7.07865">
        <ele>877.75</ele>
        <time>2020-11-07T13:47:02.995Z</time>
      </trkpt>
      <trkpt lat="47.27737" lon="7.07858">
        <ele>877.86</ele>
        <time>2020-11-07T13:47:08.361Z</time>
      </trkpt>
      <trkpt lat="47.27737" lon="7.07851">
        <ele>877.88</ele>
        <time>2020-11-07T13:47:12.757Z</time>
      </trkpt>
      <trkpt lat="47.27738" lon="7.07842">
        <ele>878.01</ele>
        <time>2020-11-07T13:47:19.577Z</time>
      </trkpt>
      <trkpt lat="47.27739" lon="7.07832">
        <ele>878.28</ele>
        <time>2020-11-07T13:47:29.124Z</time>
      </trkpt>
      <trkpt lat="47.2774" lon="7.07822">
        <ele>878.73</ele>
        <time>2020-11-07T13:47:41.014Z</time>
      </trkpt>
      <trkpt lat="47.27739" lon="7.07794">
        <ele>879.65</ele>
        <time>2020-11-07T13:48:10.306Z</time>
      </trkpt>
      <trkpt lat="47.27739" lon="7.0778">
        <ele>880.03</ele>
        <time>2020-11-07T13:48:23.651Z</time>
      </trkpt>
      <trkpt lat="47.27739" lon="7.07768">
        <ele>880.31</ele>
        <time>2020-11-07T13:48:34.230Z</time>
      </trkpt>
      <trkpt lat="47.27741" lon="7.07753">
        <ele>880.52</ele>
        <time>2020-11-07T13:48:45.564Z</time>
      </trkpt>
      <trkpt lat="47.27743" lon="7.07738">
        <ele>880.55</ele>
        <time>2020-11-07T13:48:55.046Z</time>
      </trkpt>
      <trkpt lat="47.27748" lon="7.07718">
        <ele>880.71</ele>
        <time>2020-11-07T13:49:09.369Z</time>
      </trkpt>
      <trkpt lat="47.2775" lon="7.07706">
        <ele>881.04</ele>
        <time>2020-11-07T13:49:21.039Z</time>
      </trkpt>
      <trkpt lat="47.27752" lon="7.07696">
        <ele>881.35</ele>
        <time>2020-11-07T13:49:31.557Z</time>
      </trkpt>
      <trkpt lat="47.27752" lon="7.07687">
        <ele>881.55</ele>
        <time>2020-11-07T13:49:39.321Z</time>
      </trkpt>
      <trkpt lat="47.27751" lon="7.07679">
        <ele>881.61</ele>
        <time>2020-11-07T13:49:44.777Z</time>
      </trkpt>
      <trkpt lat="47.2775" lon="7.07653">
        <ele>881.08</ele>
        <time>2020-11-07T13:49:49.403Z</time>
      </trkpt>
      <trkpt lat="47.27749" lon="7.07636">
        <ele>880.52</ele>
        <time>2020-11-07T13:49:51.944Z</time>
      </trkpt>
      <trkpt lat="47.27748" lon="7.07605">
        <ele>879.81</ele>
        <time>2020-11-07T13:49:57.249Z</time>
      </trkpt>
      <trkpt lat="47.27748" lon="7.07584">
        <ele>879.72</ele>
        <time>2020-11-07T13:50:08.812Z</time>
      </trkpt>
      <trkpt lat="47.27747" lon="7.07573">
        <ele>879.79</ele>
        <time>2020-11-07T13:50:16.137Z</time>
      </trkpt>
      <trkpt lat="47.27746" lon="7.07563">
        <ele>879.81</ele>
        <time>2020-11-07T13:50:22.409Z</time>
      </trkpt>
      <trkpt lat="47.27743" lon="7.07548">
        <ele>880.14</ele>
        <time>2020-11-07T13:50:35.615Z</time>
      </trkpt>
      <trkpt lat="47.27735" lon="7.07513">
        <ele>880.24</ele>
        <time>2020-11-07T13:50:58.764Z</time>
      </trkpt>
      <trkpt lat="47.27731" lon="7.07498">
        <ele>880.32</ele>
        <time>2020-11-07T13:51:09.196Z</time>
      </trkpt>
      <trkpt lat="47.27727" lon="7.07484">
        <ele>880.8</ele>
        <time>2020-11-07T13:51:24.884Z</time>
      </trkpt>
      <trkpt lat="47.27717" lon="7.07454">
        <ele>881.29</ele>
        <time>2020-11-07T13:51:50.050Z</time>
      </trkpt>
      <trkpt lat="47.27711" lon="7.07435">
        <ele>881.62</ele>
        <time>2020-11-07T13:52:06.122Z</time>
      </trkpt>
      <trkpt lat="47.27704" lon="7.07417">
        <ele>881.86</ele>
        <time>2020-11-07T13:52:20.970Z</time>
      </trkpt>
      <trkpt lat="47.27699" lon="7.07407">
        <ele>881.94</ele>
        <time>2020-11-07T13:52:29.186Z</time>
      </trkpt>
      <trkpt lat="47.27694" lon="7.07391">
        <ele>882.27</ele>
        <time>2020-11-07T13:52:43.425Z</time>
      </trkpt>
      <trkpt lat="47.27687" lon="7.07371">
        <ele>882.51</ele>
        <time>2020-11-07T13:52:59.301Z</time>
      </trkpt>
      <trkpt lat="47.27683" lon="7.07356">
        <ele>882.59</ele>
        <time>2020-11-07T13:53:09.733Z</time>
      </trkpt>
      <trkpt lat="47.27683" lon="7.07355">
        <ele>882.59</ele>
        <time>2020-11-07T13:53:10.337Z</time>
      </trkpt>
      <trkpt lat="47.27683" lon="7.07355">
        <ele>882.67</ele>
        <time>2020-11-07T13:53:10.337Z</time>
      </trkpt>
      <trkpt lat="47.27677" lon="7.07333">
        <ele>882.43</ele>
        <time>2020-11-07T13:53:15.341Z</time>
      </trkpt>
      <trkpt lat="47.27671" lon="7.07304">
        <ele>882.1</ele>
        <time>2020-11-07T13:53:21.651Z</time>
      </trkpt>
      <trkpt lat="47.27664" lon="7.07279">
        <ele>881.94</ele>
        <time>2020-11-07T13:53:27.836Z</time>
      </trkpt>
      <trkpt lat="47.27658" lon="7.07256">
        <ele>881.98</ele>
        <time>2020-11-07T13:53:43.050Z</time>
      </trkpt>
      <trkpt lat="47.2765" lon="7.07224">
        <ele>882.3</ele>
        <time>2020-11-07T13:54:06.632Z</time>
      </trkpt>
      <trkpt lat="47.27644" lon="7.07201">
        <ele>882.8</ele>
        <time>2020-11-07T13:54:27.128Z</time>
      </trkpt>
      <trkpt lat="47.2764" lon="7.07187">
        <ele>883.17</ele>
        <time>2020-11-07T13:54:40.796Z</time>
      </trkpt>
      <trkpt lat="47.27636" lon="7.07174">
        <ele>883.69</ele>
        <time>2020-11-07T13:54:56.243Z</time>
      </trkpt>
      <trkpt lat="47.27631" lon="7.07162">
        <ele>884.22</ele>
        <time>2020-11-07T13:55:11.666Z</time>
      </trkpt>
      <trkpt lat="47.27614" lon="7.07121">
        <ele>886.24</ele>
        <time>2020-11-07T13:56:06.719Z</time>
      </trkpt>
      <trkpt lat="47.27607" lon="7.07101">
        <ele>887.5</ele>
        <time>2020-11-07T13:56:36.917Z</time>
      </trkpt>
      <trkpt lat="47.27587" lon="7.07053">
        <ele>890.7</ele>
        <time>2020-11-07T13:57:53.273Z</time>
      </trkpt>
      <trkpt lat="47.2758" lon="7.07036">
        <ele>891.88</ele>
        <time>2020-11-07T13:58:21.102Z</time>
      </trkpt>
      <trkpt lat="47.27575" lon="7.07025">
        <ele>892.41</ele>
        <time>2020-11-07T13:58:35.959Z</time>
      </trkpt>
      <trkpt lat="47.27571" lon="7.07012">
        <ele>893.61</ele>
        <time>2020-11-07T13:59:05.184Z</time>
      </trkpt>
      <trkpt lat="47.27567" lon="7.06997">
        <ele>894.55</ele>
        <time>2020-11-07T13:59:27.449Z</time>
      </trkpt>
      <trkpt lat="47.27563" lon="7.06978">
        <ele>895.88</ele>
        <time>2020-11-07T13:59:58.252Z</time>
      </trkpt>
      <trkpt lat="47.27559" lon="7.06961">
        <ele>896.92</ele>
        <time>2020-11-07T14:00:22.946Z</time>
      </trkpt>
      <trkpt lat="47.27554" lon="7.06943">
        <ele>898.12</ele>
        <time>2020-11-07T14:00:51.011Z</time>
      </trkpt>
      <trkpt lat="47.2755" lon="7.06924">
        <ele>899.03</ele>
        <time>2020-11-07T14:01:14.725Z</time>
      </trkpt>
      <trkpt lat="47.27546" lon="7.06901">
        <ele>900.39</ele>
        <time>2020-11-07T14:01:47.099Z</time>
      </trkpt>
      <trkpt lat="47.27542" lon="7.06877">
        <ele>901.86</ele>
        <time>2020-11-07T14:02:21.747Z</time>
      </trkpt>
      <trkpt lat="47.27538" lon="7.06855">
        <ele>903.37</ele>
        <time>2020-11-07T14:02:56.736Z</time>
      </trkpt>
      <trkpt lat="47.27535" lon="7.06843">
        <ele>904.05</ele>
        <time>2020-11-07T14:03:13.324Z</time>
      </trkpt>
      <trkpt lat="47.27533" lon="7.0684">
        <ele>904.18</ele>
        <time>2020-11-07T14:03:17.640Z</time>
      </trkpt>
      <trkpt lat="47.27521" lon="7.06824">
        <ele>905.24</ele>
        <time>2020-11-07T14:03:45.672Z</time>
      </trkpt>
      <trkpt lat="47.27517" lon="7.06815">
        <ele>905.69</ele>
        <time>2020-11-07T14:03:57.972Z</time>
      </trkpt>
      <trkpt lat="47.27515" lon="7.06809">
        <ele>906.08</ele>
        <time>2020-11-07T14:04:07.209Z</time>
      </trkpt>
      <trkpt lat="47.27513" lon="7.06802">
        <ele>906.39</ele>
        <time>2020-11-07T14:04:15.801Z</time>
      </trkpt>
      <trkpt lat="47.27513" lon="7.06794">
        <ele>906.7</ele>
        <time>2020-11-07T14:04:24.662Z</time>
      </trkpt>
      <trkpt lat="47.27514" lon="7.06786">
        <ele>906.77</ele>
        <time>2020-11-07T14:04:30.220Z</time>
      </trkpt>
      <trkpt lat="47.27515" lon="7.06777">
        <ele>907.42</ele>
        <time>2020-11-07T14:04:45.283Z</time>
      </trkpt>
      <trkpt lat="47.27523" lon="7.06737">
        <ele>910.91</ele>
        <time>2020-11-07T14:06:10.063Z</time>
      </trkpt>
      <trkpt lat="47.27524" lon="7.06726">
        <ele>911.23</ele>
        <time>2020-11-07T14:06:21.037Z</time>
      </trkpt>
      <trkpt lat="47.27526" lon="7.06695">
        <ele>912.61</ele>
        <time>2020-11-07T14:06:57.588Z</time>
      </trkpt>
      <trkpt lat="47.27527" lon="7.06688">
        <ele>913.1</ele>
        <time>2020-11-07T14:07:08.928Z</time>
      </trkpt>
      <trkpt lat="47.2753" lon="7.06683">
        <ele>913.42</ele>
        <time>2020-11-07T14:07:17.080Z</time>
      </trkpt>
      <trkpt lat="47.27534" lon="7.06677">
        <ele>914.24</ele>
        <time>2020-11-07T14:07:36.674Z</time>
      </trkpt>
      <trkpt lat="47.2754" lon="7.06672">
        <ele>915.21</ele>
        <time>2020-11-07T14:08:00.337Z</time>
      </trkpt>
      <trkpt lat="47.27546" lon="7.06667">
        <ele>916.27</ele>
        <time>2020-11-07T14:08:24.001Z</time>
      </trkpt>
      <trkpt lat="47.27553" lon="7.06662">
        <ele>917.57</ele>
        <time>2020-11-07T14:08:50.707Z</time>
      </trkpt>
      <trkpt lat="47.27558" lon="7.06667">
        <ele>917.76</ele>
        <time>2020-11-07T14:08:58.260Z</time>
      </trkpt>
      <trkpt lat="47.2756" lon="7.06669">
        <ele>917.92</ele>
        <time>2020-11-07T14:09:02.469Z</time>
      </trkpt>
      <trkpt lat="47.2757" lon="7.06679">
        <ele>918.64</ele>
        <time>2020-11-07T14:09:22.536Z</time>
      </trkpt>
      <trkpt lat="47.27574" lon="7.06683">
        <ele>918.83</ele>
        <time>2020-11-07T14:09:29.259Z</time>
      </trkpt>
      <trkpt lat="47.27579" lon="7.06687">
        <ele>918.96</ele>
        <time>2020-11-07T14:09:35.663Z</time>
      </trkpt>
      <trkpt lat="47.27583" lon="7.06689">
        <ele>919.02</ele>
        <time>2020-11-07T14:09:39.985Z</time>
      </trkpt>
      <trkpt lat="47.27588" lon="7.0669">
        <ele>919.09</ele>
        <time>2020-11-07T14:09:45.130Z</time>
      </trkpt>
      <trkpt lat="47.27593" lon="7.06689">
        <ele>919.22</ele>
        <time>2020-11-07T14:09:51.009Z</time>
      </trkpt>
      <trkpt lat="47.27599" lon="7.06687">
        <ele>919.35</ele>
        <time>2020-11-07T14:09:57.798Z</time>
      </trkpt>
      <trkpt lat="47.27607" lon="7.06683">
        <ele>919.55</ele>
        <time>2020-11-07T14:10:07.400Z</time>
      </trkpt>
      <trkpt lat="47.27617" lon="7.06676">
        <ele>919.94</ele>
        <time>2020-11-07T14:10:21.948Z</time>
      </trkpt>
      <trkpt lat="47.27626" lon="7.06668">
        <ele>920.33</ele>
        <time>2020-11-07T14:10:36.120Z</time>
      </trkpt>
      <trkpt lat="47.2763" lon="7.06662">
        <ele>920.52</ele>
        <time>2020-11-07T14:10:43.428Z</time>
      </trkpt>
      <trkpt lat="47.27634" lon="7.06655">
        <ele>920.78</ele>
        <time>2020-11-07T14:10:52.394Z</time>
      </trkpt>
      <trkpt lat="47.27639" lon="7.06646">
        <ele>921.11</ele>
        <time>2020-11-07T14:11:03.779Z</time>
      </trkpt>
      <trkpt lat="47.27642" lon="7.06635">
        <ele>921.63</ele>
        <time>2020-11-07T14:11:17.627Z</time>
      </trkpt>
      <trkpt lat="47.27645" lon="7.06623">
        <ele>922.02</ele>
        <time>2020-11-07T14:11:30.698Z</time>
      </trkpt>
      <trkpt lat="47.27648" lon="7.06611">
        <ele>922.37</ele>
        <time>2020-11-07T14:11:42.947Z</time>
      </trkpt>
      <trkpt lat="47.27648" lon="7.06611">
        <ele>922.37</ele>
        <time>2020-11-07T14:11:42.947Z</time>
      </trkpt>
      <trkpt lat="47.27653" lon="7.06592">
        <ele>922.73</ele>
        <time>2020-11-07T14:11:59.108Z</time>
      </trkpt>
      <trkpt lat="47.27656" lon="7.06584">
        <ele>922.92</ele>
        <time>2020-11-07T14:12:06.781Z</time>
      </trkpt>
      <trkpt lat="47.2766" lon="7.06575">
        <ele>923.05</ele>
        <time>2020-11-07T14:12:14.545Z</time>
      </trkpt>
      <trkpt lat="47.27664" lon="7.06568">
        <ele>923.19</ele>
        <time>2020-11-07T14:12:21.510Z</time>
      </trkpt>
      <trkpt lat="47.27672" lon="7.06559">
        <ele>923.25</ele>
        <time>2020-11-07T14:12:30.985Z</time>
      </trkpt>
      <trkpt lat="47.27684" lon="7.06544">
        <ele>923.58</ele>
        <time>2020-11-07T14:12:48.321Z</time>
      </trkpt>
      <trkpt lat="47.27691" lon="7.06535">
        <ele>923.83</ele>
        <time>2020-11-07T14:12:59.294Z</time>
      </trkpt>
      <trkpt lat="47.27703" lon="7.06518">
        <ele>924.16</ele>
        <time>2020-11-07T14:13:17.396Z</time>
      </trkpt>
      <trkpt lat="47.27712" lon="7.06506">
        <ele>924.16</ele>
        <time>2020-11-07T14:13:28.198Z</time>
      </trkpt>
      <trkpt lat="47.2772" lon="7.06494">
        <ele>924.22</ele>
        <time>2020-11-07T14:13:38.871Z</time>
      </trkpt>
      <trkpt lat="47.27727" lon="7.06483">
        <ele>924.55</ele>
        <time>2020-11-07T14:13:51.797Z</time>
      </trkpt>
      <trkpt lat="47.27736" lon="7.06465">
        <ele>925.06</ele>
        <time>2020-11-07T14:14:11.308Z</time>
      </trkpt>
      <trkpt lat="47.27748" lon="7.0644">
        <ele>925.59</ele>
        <time>2020-11-07T14:14:35.440Z</time>
      </trkpt>
      <trkpt lat="47.27752" lon="7.06431">
        <ele>925.62</ele>
        <time>2020-11-07T14:14:42.192Z</time>
      </trkpt>
      <trkpt lat="47.27762" lon="7.06408">
        <ele>925.59</ele>
        <time>2020-11-07T14:14:58.289Z</time>
      </trkpt>
      <trkpt lat="47.27765" lon="7.06399">
        <ele>925.52</ele>
        <time>2020-11-07T14:15:00.535Z</time>
      </trkpt>
      <trkpt lat="47.27768" lon="7.06391">
        <ele>925.46</ele>
        <time>2020-11-07T14:15:02.599Z</time>
      </trkpt>
      <trkpt lat="47.27776" lon="7.06367">
        <ele>924.59</ele>
        <time>2020-11-07T14:15:06.595Z</time>
      </trkpt>
      <trkpt lat="47.27781" lon="7.06351">
        <ele>923.91</ele>
        <time>2020-11-07T14:15:09.035Z</time>
      </trkpt>
      <trkpt lat="47.27786" lon="7.06331">
        <ele>923.61</ele>
        <time>2020-11-07T14:15:13.229Z</time>
      </trkpt>
      <trkpt lat="47.27789" lon="7.06313">
        <ele>923.22</ele>
        <time>2020-11-07T14:15:16.486Z</time>
      </trkpt>
      <trkpt lat="47.27791" lon="7.06295">
        <ele>923.42</ele>
        <time>2020-11-07T14:15:29.415Z</time>
      </trkpt>
      <trkpt lat="47.27793" lon="7.06273">
        <ele>923.42</ele>
        <time>2020-11-07T14:15:42.819Z</time>
      </trkpt>
      <trkpt lat="47.27794" lon="7.06262">
        <ele>923.13</ele>
        <time>2020-11-07T14:15:44.628Z</time>
      </trkpt>
      <trkpt lat="47.27794" lon="7.06236">
        <ele>923.13</ele>
        <time>2020-11-07T14:16:00.329Z</time>
      </trkpt>
      <trkpt lat="47.27793" lon="7.06218">
        <ele>923.13</ele>
        <time>2020-11-07T14:16:11.235Z</time>
      </trkpt>
      <trkpt lat="47.27792" lon="7.06202">
        <ele>923.42</ele>
        <time>2020-11-07T14:16:24.064Z</time>
      </trkpt>
      <trkpt lat="47.27784" lon="7.06163">
        <ele>924.2</ele>
        <time>2020-11-07T14:16:57.244Z</time>
      </trkpt>
      <trkpt lat="47.2778" lon="7.06139">
        <ele>924.69</ele>
        <time>2020-11-07T14:17:17.623Z</time>
      </trkpt>
      <trkpt lat="47.27773" lon="7.06106">
        <ele>925.37</ele>
        <time>2020-11-07T14:17:46.050Z</time>
      </trkpt>
      <trkpt lat="47.27764" lon="7.06068">
        <ele>926.22</ele>
        <time>2020-11-07T14:18:20.050Z</time>
      </trkpt>
      <trkpt lat="47.2776" lon="7.06053">
        <ele>926.54</ele>
        <time>2020-11-07T14:18:33.347Z</time>
      </trkpt>
      <trkpt lat="47.27759" lon="7.06048">
        <ele>926.67</ele>
        <time>2020-11-07T14:18:38.093Z</time>
      </trkpt>
      <trkpt lat="47.27758" lon="7.0604">
        <ele>926.84</ele>
        <time>2020-11-07T14:18:44.936Z</time>
      </trkpt>
      <trkpt lat="47.27756" lon="7.0602">
        <ele>927.42</ele>
        <time>2020-11-07T14:19:04.862Z</time>
      </trkpt>
      <trkpt lat="47.27753" lon="7.06">
        <ele>928.1</ele>
        <time>2020-11-07T14:19:26.340Z</time>
      </trkpt>
      <trkpt lat="47.27744" lon="7.05954">
        <ele>928.73</ele>
        <time>2020-11-07T14:20:01.497Z</time>
      </trkpt>
      <trkpt lat="47.27742" lon="7.05946">
        <ele>928.66</ele>
        <time>2020-11-07T14:20:03.361Z</time>
      </trkpt>
    </trkseg>
  </trk>
</gpx>